Time,TemperatureF,DewpointF,PressureIn,WindDirection,WindDirectionDegrees,WindSpeedMPH,WindSpeedGustMPH,Humidity,HourlyPrecipIn,Conditions,Clouds,dailyrainin,SoftwareType,DateUTC
2013-01-25 00:00:00,0.3,-16.4,29.41,NE,45,2.7,2.7,44,0.00,,---,0.00,VWS V14.01,2013-01-25 05:00:00,
2013-01-25 00:01:00,0.3,-16.4,29.41,NE,45,2.7,2.7,44,0.00,,---,0.00,VWS V14.01,2013-01-25 05:01:00,
2013-01-25 00:02:00,0.3,-16.4,29.41,SE,135,6.3,6.3,44,0.00,,---,0.00,VWS V14.01,2013-01-25 05:02:00,
2013-01-25 00:03:00,0.3,-16.4,29.41,SE,135,6.3,6.3,44,0.00,,---,0.00,VWS V14.01,2013-01-25 05:03:00,
2013-01-25 00:04:00,0.3,-16.4,29.41,ESE,112,2.9,2.9,44,0.00,,---,0.00,VWS V14.01,2013-01-25 05:04:00,
2013-01-25 00:05:00,0.3,-16.4,29.41,ESE,112,0.9,2.9,44,0.00,,---,0.00,VWS V14.01,2013-01-25 05:05:00,
2013-01-25 00:06:00,0.3,-16.4,29.41,ESE,112,2.2,2.2,44,0.00,,---,0.00,VWS V14.01,2013-01-25 05:06:00,
2013-01-25 00:07:00,0.3,-16.4,29.41,ESE,112,2.2,2.2,44,0.00,,---,0.00,VWS V14.01,2013-01-25 05:07:00,
2013-01-25 00:08:00,0.3,-16.4,29.41,ESE,112,1.6,2.2,44,0.00,,---,0.00,VWS V14.01,2013-01-25 05:08:00,
2013-01-25 00:09:00,0.3,-16.4,29.41,ESE,112,2.0,2.0,44,0.00,,---,0.00,VWS V14.01,2013-01-25 05:09:00,
2013-01-25 00:10:00,0.3,-16.4,29.41,ESE,112,2.0,2.0,44,0.00,,---,0.00,VWS V14.01,2013-01-25 05:10:00,
2013-01-25 00:11:00,0.3,-16.4,29.41,ESE,112,0.0,2.0,44,0.00,,---,0.00,VWS V14.01,2013-01-25 05:11:00,
2013-01-25 00:12:00,0.3,-16.4,29.41,ESE,112,0.0,0.0,44,0.00,,---,0.00,VWS V14.01,2013-01-25 05:12:00,
2013-01-25 00:13:00,0.3,-16.4,29.41,ESE,112,0.0,0.0,44,0.00,,---,0.00,VWS V14.01,2013-01-25 05:13:00,
2013-01-25 00:14:00,0.3,-16.4,29.41,ESE,112,0.0,0.0,44,0.00,,---,0.00,VWS V14.01,2013-01-25 05:14:00,
2013-01-25 00:15:00,0.3,-16.4,29.41,ESE,112,0.0,0.0,44,0.00,,---,0.00,VWS V14.01,2013-01-25 05:15:00,
2013-01-25 00:16:00,0.3,-16.4,29.41,ESE,112,0.0,0.0,44,0.00,,---,0.00,VWS V14.01,2013-01-25 05:16:00,
2013-01-25 00:17:00,0.3,-16.4,29.41,ESE,112,0.0,0.0,44,0.00,,---,0.00,VWS V14.01,2013-01-25 05:17:00,
2013-01-25 00:18:00,0.3,-16.4,29.41,SSE,158,1.3,1.3,44,0.00,,---,0.00,VWS V14.01,2013-01-25 05:18:00,
2013-01-25 00:19:00,0.3,-16.4,29.41,SSE,158,1.3,1.3,44,0.00,,---,0.00,VWS V14.01,2013-01-25 05:19:00,
2013-01-25 00:20:00,0.3,-16.4,29.41,SSE,158,1.3,1.3,44,0.00,,---,0.00,VWS V14.01,2013-01-25 05:20:00,
2013-01-25 00:21:00,0.3,-16.4,29.41,SSE,158,1.3,1.3,44,0.00,,---,0.00,VWS V14.01,2013-01-25 05:21:00,
2013-01-25 00:22:00,0.3,-16.4,29.41,SSE,158,1.3,1.3,44,0.00,,---,0.00,VWS V14.01,2013-01-25 05:22:00,
2013-01-25 00:23:00,0.3,-16.4,29.41,WNW,292,7.4,7.4,44,0.00,,---,0.00,VWS V14.01,2013-01-25 05:23:00,
2013-01-25 00:24:00,0.3,-16.4,29.41,WNW,292,7.4,7.4,44,0.00,,---,0.00,VWS V14.01,2013-01-25 05:24:00,
2013-01-25 00:25:00,0.3,-16.4,29.41,East,90,3.1,7.4,44,0.00,,---,0.00,VWS V14.01,2013-01-25 05:25:00,
2013-01-25 00:26:00,0.3,-16.4,29.41,SSE,158,6.3,6.3,44,0.00,,---,0.00,VWS V14.01,2013-01-25 05:26:00,
2013-01-25 00:27:00,0.3,-16.4,29.41,SSE,158,6.3,6.3,44,0.00,,---,0.00,VWS V14.01,2013-01-25 05:27:00,
2013-01-25 00:28:00,0.3,-16.4,29.41,ESE,112,1.6,1.6,44,0.00,,---,0.00,VWS V14.01,2013-01-25 05:28:00,
2013-01-25 00:29:00,0.3,-16.4,29.41,NNW,338,2.0,2.0,44,0.00,,---,0.00,VWS V14.01,2013-01-25 05:29:00,
2013-01-25 00:30:00,0.3,-16.4,29.41,ESE,112,2.7,2.7,44,0.00,,---,0.00,VWS V14.01,2013-01-25 05:30:00,
2013-01-25 00:31:00,0.3,-16.4,29.41,ESE,112,2.7,2.7,44,0.00,,---,0.00,VWS V14.01,2013-01-25 05:31:00,
2013-01-25 00:32:00,0.3,-16.4,29.41,ESE,112,2.7,2.7,44,0.00,,---,0.00,VWS V14.01,2013-01-25 05:32:00,
2013-01-25 00:33:00,0.3,-16.4,29.41,South,180,2.9,2.9,44,0.00,,---,0.00,VWS V14.01,2013-01-25 05:33:00,
2013-01-25 00:34:00,0.3,-16.4,29.41,South,180,1.1,2.9,44,0.00,,---,0.00,VWS V14.01,2013-01-25 05:34:00,
2013-01-25 00:35:00,0.3,-16.4,29.41,South,180,1.1,1.1,44,0.00,,---,0.00,VWS V14.01,2013-01-25 05:35:00,
2013-01-25 00:36:00,0.3,-16.4,29.41,SW,225,2.0,2.0,44,0.00,,---,0.00,VWS V14.01,2013-01-25 05:36:00,
2013-01-25 00:37:00,0.3,-16.4,29.41,SSW,202,1.6,2.0,44,0.00,,---,0.00,VWS V14.01,2013-01-25 05:37:00,
2013-01-25 00:38:00,0.3,-16.4,29.41,SSW,202,1.3,1.6,44,0.00,,---,0.00,VWS V14.01,2013-01-25 05:38:00,
2013-01-25 00:39:00,0.3,-16.4,29.41,ESE,112,2.9,4.0,44,0.00,,---,0.00,VWS V14.01,2013-01-25 05:39:00,
2013-01-25 00:40:00,0.3,-16.4,29.41,ESE,112,2.9,2.9,44,0.00,,---,0.00,VWS V14.01,2013-01-25 05:40:00,
2013-01-25 00:41:00,0.3,-16.4,29.41,ESE,112,2.9,2.9,44,0.00,,---,0.00,VWS V14.01,2013-01-25 05:41:00,
2013-01-25 00:42:00,0.3,-16.4,29.41,SSW,202,2.7,2.9,44,0.00,,---,0.00,VWS V14.01,2013-01-25 05:42:00,
2013-01-25 00:43:00,0.3,-16.4,29.41,SSW,202,2.7,2.7,44,0.00,,---,0.00,VWS V14.01,2013-01-25 05:43:00,
2013-01-25 00:44:00,0.3,-16.4,29.41,SSW,202,2.5,2.5,44,0.00,,---,0.00,VWS V14.01,2013-01-25 05:44:00,
2013-01-25 00:45:00,0.3,-16.4,29.41,WSW,248,3.8,3.8,44,0.00,,---,0.00,VWS V14.01,2013-01-25 05:45:00,
2013-01-25 00:46:00,0.3,-16.4,29.41,NNW,338,2.2,3.8,44,0.00,,---,0.00,VWS V14.01,2013-01-25 05:46:00,
2013-01-25 00:47:00,0.3,-16.4,29.41,NNW,338,2.2,2.2,44,0.00,,---,0.00,VWS V14.01,2013-01-25 05:47:00,
2013-01-25 00:48:00,0.3,-16.4,29.41,SSW,202,2.7,2.7,44,0.00,,---,0.00,VWS V14.01,2013-01-25 05:48:00,
2013-01-25 00:49:00,0.3,-16.4,29.41,ESE,112,3.4,3.4,44,0.00,,---,0.00,VWS V14.01,2013-01-25 05:49:00,
2013-01-25 00:50:00,0.3,-16.4,29.41,NNW,338,2.9,3.4,44,0.00,,---,0.00,VWS V14.01,2013-01-25 05:50:00,
2013-01-25 00:51:00,0.3,-16.4,29.41,NW,315,0.0,2.9,44,0.00,,---,0.00,VWS V14.01,2013-01-25 05:51:00,
2013-01-25 00:52:00,0.3,-16.4,29.41,NW,315,0.0,0.0,44,0.00,,---,0.00,VWS V14.01,2013-01-25 05:52:00,
2013-01-25 00:53:00,0.3,-16.4,29.41,WNW,292,2.7,2.7,44,0.00,,---,0.00,VWS V14.01,2013-01-25 05:53:00,
2013-01-25 00:54:00,0.3,-16.4,29.41,WNW,292,2.7,2.7,44,0.00,,---,0.00,VWS V14.01,2013-01-25 05:54:00,
2013-01-25 00:55:00,0.3,-16.4,29.41,WNW,292,2.7,2.7,44,0.00,,---,0.00,VWS V14.01,2013-01-25 05:55:00,
2013-01-25 00:56:00,0.3,-16.4,29.41,NNW,338,1.6,2.7,44,0.00,,---,0.00,VWS V14.01,2013-01-25 05:56:00,
2013-01-25 00:57:00,0.3,-16.4,29.41,SSE,158,1.3,1.6,44,0.00,,---,0.00,VWS V14.01,2013-01-25 05:57:00,
2013-01-25 00:58:00,0.3,-16.4,29.41,SSE,158,1.3,1.3,44,0.00,,---,0.00,VWS V14.01,2013-01-25 05:58:00,
2013-01-25 00:59:00,0.3,-16.4,29.41,WSW,248,2.5,3.1,44,0.00,,---,0.00,VWS V14.01,2013-01-25 05:59:00,
2013-01-25 01:00:00,0.3,-16.4,29.41,WSW,248,2.5,2.5,44,0.00,,---,0.00,VWS V14.01,2013-01-25 06:00:00,
2013-01-25 01:01:00,0.7,-16.1,29.41,SW,225,3.1,3.1,44,0.00,,---,0.00,VWS V14.01,2013-01-25 06:01:00,
2013-01-25 01:02:00,0.7,-16.1,29.41,WSW,248,2.5,3.1,44,0.00,,---,0.00,VWS V14.01,2013-01-25 06:02:00,
2013-01-25 01:03:00,0.7,-16.1,29.41,WSW,248,4.3,4.3,44,0.00,,---,0.00,VWS V14.01,2013-01-25 06:03:00,
2013-01-25 01:04:00,0.7,-16.1,29.41,WSW,248,0.0,4.3,44,0.00,,---,0.00,VWS V14.01,2013-01-25 06:04:00,
2013-01-25 01:05:00,0.7,-16.1,29.41,WSW,248,2.7,2.7,44,0.00,,---,0.00,VWS V14.01,2013-01-25 06:05:00,
2013-01-25 01:06:00,0.7,-16.1,29.41,South,180,2.7,2.7,44,0.00,,---,0.00,VWS V14.01,2013-01-25 06:06:00,
2013-01-25 01:07:00,0.7,-16.1,29.41,South,180,2.5,2.7,44,0.00,,---,0.00,VWS V14.01,2013-01-25 06:07:00,
2013-01-25 01:08:00,0.7,-16.1,29.41,South,180,1.3,2.5,44,0.00,,---,0.00,VWS V14.01,2013-01-25 06:08:00,
2013-01-25 01:09:00,0.7,-16.1,29.41,SSE,158,4.3,4.3,44,0.00,,---,0.00,VWS V14.01,2013-01-25 06:09:00,
2013-01-25 01:10:00,0.7,-16.1,29.41,SSE,158,1.3,4.3,44,0.00,,---,0.00,VWS V14.01,2013-01-25 06:10:00,
2013-01-25 01:11:00,0.7,-16.1,29.41,SSE,158,1.6,1.6,44,0.00,,---,0.00,VWS V14.01,2013-01-25 06:11:00,
2013-01-25 01:12:00,0.7,-16.1,29.41,SSE,158,1.3,1.6,44,0.00,,---,0.00,VWS V14.01,2013-01-25 06:12:00,
2013-01-25 01:13:00,0.7,-16.1,29.41,SSE,158,3.1,3.1,44,0.00,,---,0.00,VWS V14.01,2013-01-25 06:13:00,
2013-01-25 01:14:00,0.7,-16.1,29.41,SSE,158,3.1,3.1,44,0.00,,---,0.00,VWS V14.01,2013-01-25 06:14:00,
2013-01-25 01:15:00,0.7,-16.1,29.41,SSE,158,1.3,3.1,44,0.00,,---,0.00,VWS V14.01,2013-01-25 06:15:00,
2013-01-25 01:16:00,0.7,-16.1,29.41,SSE,158,4.0,4.0,44,0.00,,---,0.00,VWS V14.01,2013-01-25 06:16:00,
2013-01-25 01:17:00,0.7,-16.1,29.41,SSE,158,4.0,4.0,44,0.00,,---,0.00,VWS V14.01,2013-01-25 06:17:00,
2013-01-25 01:18:00,0.7,-16.1,29.41,NNW,338,3.4,4.0,44,0.00,,---,0.00,VWS V14.01,2013-01-25 06:18:00,
2013-01-25 01:19:00,0.7,-16.1,29.41,SSW,202,2.7,2.7,44,0.00,,---,0.00,VWS V14.01,2013-01-25 06:19:00,
2013-01-25 01:20:00,0.7,-16.1,29.41,NW,315,5.8,5.8,44,0.00,,---,0.00,VWS V14.01,2013-01-25 06:20:00,
2013-01-25 01:21:00,0.7,-16.1,29.41,NW,315,5.8,5.8,44,0.00,,---,0.00,VWS V14.01,2013-01-25 06:21:00,
2013-01-25 01:22:00,0.7,-16.1,29.41,NW,315,5.8,5.8,44,0.00,,---,0.00,VWS V14.01,2013-01-25 06:22:00,
2013-01-25 01:23:00,0.7,-16.1,29.41,WNW,292,3.8,5.8,44,0.00,,---,0.00,VWS V14.01,2013-01-25 06:23:00,
2013-01-25 01:24:00,0.7,-16.1,29.41,SW,225,1.3,1.3,44,0.00,,---,0.00,VWS V14.01,2013-01-25 06:24:00,
2013-01-25 01:25:00,0.7,-16.1,29.41,NNE,22,2.2,2.2,44,0.00,,---,0.00,VWS V14.01,2013-01-25 06:25:00,
2013-01-25 01:26:00,0.7,-16.1,29.41,WNW,292,7.8,7.8,44,0.00,,---,0.00,VWS V14.01,2013-01-25 06:26:00,
2013-01-25 01:27:00,0.7,-16.1,29.41,NNE,22,4.0,7.8,44,0.00,,---,0.00,VWS V14.01,2013-01-25 06:27:00,
2013-01-25 01:28:00,0.7,-16.1,29.41,WNW,292,6.5,6.5,44,0.00,,---,0.00,VWS V14.01,2013-01-25 06:28:00,
2013-01-25 01:29:00,0.7,-16.1,29.41,WSW,248,7.4,7.4,44,0.00,,---,0.00,VWS V14.01,2013-01-25 06:29:00,
2013-01-25 01:30:00,0.7,-16.1,29.41,NNW,338,4.3,7.4,44,0.00,,---,0.00,VWS V14.01,2013-01-25 06:30:00,
2013-01-25 01:31:00,0.7,-16.1,29.41,SSE,158,1.6,4.3,44,0.00,,---,0.00,VWS V14.01,2013-01-25 06:31:00,
2013-01-25 01:32:00,0.7,-16.1,29.41,NNW,338,4.9,4.9,44,0.00,,---,0.00,VWS V14.01,2013-01-25 06:32:00,
2013-01-25 01:33:00,0.7,-16.1,29.41,SSW,202,6.3,6.3,44,0.00,,---,0.00,VWS V14.01,2013-01-25 06:33:00,
2013-01-25 01:34:00,0.7,-16.1,29.41,SW,225,2.5,2.5,44,0.00,,---,0.00,VWS V14.01,2013-01-25 06:34:00,
2013-01-25 01:35:00,0.7,-16.1,29.41,SSW,202,3.1,3.1,44,0.00,,---,0.00,VWS V14.01,2013-01-25 06:35:00,
2013-01-25 01:36:00,0.7,-16.1,29.41,SSW,202,3.1,3.1,44,0.00,,---,0.00,VWS V14.01,2013-01-25 06:36:00,
2013-01-25 01:37:00,0.7,-16.1,29.41,East,90,0.9,7.2,44,0.00,,---,0.00,VWS V14.01,2013-01-25 06:37:00,
2013-01-25 01:38:00,0.7,-16.1,29.41,ESE,112,1.1,1.1,44,0.00,,---,0.00,VWS V14.01,2013-01-25 06:38:00,
2013-01-25 01:40:00,0.7,-16.1,29.41,WNW,292,2.7,3.8,44,0.00,,---,0.00,VWS V14.01,2013-01-25 06:40:00,
2013-01-25 01:41:00,0.7,-16.1,29.41,WNW,292,1.3,2.7,44,0.00,,---,0.00,VWS V14.01,2013-01-25 06:41:00,
2013-01-25 01:42:00,0.7,-16.1,29.41,WNW,292,3.1,3.1,44,0.00,,---,0.00,VWS V14.01,2013-01-25 06:42:00,
2013-01-25 01:43:00,0.7,-16.1,29.41,WNW,292,3.1,3.1,44,0.00,,---,0.00,VWS V14.01,2013-01-25 06:43:00,
2013-01-25 01:44:00,0.7,-16.1,29.41,West,270,1.6,2.5,44,0.00,,---,0.00,VWS V14.01,2013-01-25 06:44:00,
2013-01-25 01:45:00,0.7,-16.1,29.41,SSE,158,2.9,2.9,44,0.00,,---,0.00,VWS V14.01,2013-01-25 06:45:00,
2013-01-25 01:46:00,0.7,-16.1,29.41,NNE,22,1.3,2.9,44,0.00,,---,0.00,VWS V14.01,2013-01-25 06:46:00,
2013-01-25 01:47:00,0.7,-16.1,29.41,NNW,338,3.6,3.6,44,0.00,,---,0.00,VWS V14.01,2013-01-25 06:47:00,
2013-01-25 01:48:00,0.7,-16.1,29.41,WSW,248,3.6,3.6,44,0.00,,---,0.00,VWS V14.01,2013-01-25 06:48:00,
2013-01-25 01:49:00,0.7,-16.1,29.41,WNW,292,3.6,3.6,44,0.00,,---,0.00,VWS V14.01,2013-01-25 06:49:00,
2013-01-25 01:50:00,0.7,-16.1,29.41,ESE,112,3.8,3.8,44,0.00,,---,0.00,VWS V14.01,2013-01-25 06:50:00,
2013-01-25 01:51:00,0.7,-16.1,29.41,WNW,292,4.0,4.0,44,0.00,,---,0.00,VWS V14.01,2013-01-25 06:51:00,
2013-01-25 01:52:00,0.9,-15.9,29.44,WNW,292,2.2,4.0,44,0.00,,---,0.00,VWS V14.01,2013-01-25 06:52:00,
2013-01-25 01:53:00,0.9,-15.9,29.44,WNW,292,2.2,2.2,44,0.00,,---,0.00,VWS V14.01,2013-01-25 06:53:00,
2013-01-25 01:54:00,0.9,-15.9,29.44,NNW,338,2.7,2.7,44,0.00,,---,0.00,VWS V14.01,2013-01-25 06:54:00,
2013-01-25 01:55:00,0.9,-15.9,29.44,NNW,338,2.7,2.7,44,0.00,,---,0.00,VWS V14.01,2013-01-25 06:55:00,
2013-01-25 01:56:00,0.9,-15.9,29.44,NNW,338,2.7,2.7,44,0.00,,---,0.00,VWS V14.01,2013-01-25 06:56:00,
2013-01-25 01:57:00,0.9,-15.9,29.44,West,270,1.6,6.5,44,0.00,,---,0.00,VWS V14.01,2013-01-25 06:57:00,
2013-01-25 01:58:00,0.9,-15.9,29.44,West,270,1.6,1.6,44,0.00,,---,0.00,VWS V14.01,2013-01-25 06:58:00,
2013-01-25 01:59:00,1.2,-15.6,29.44,West,270,1.3,1.6,44,0.00,,---,0.00,VWS V14.01,2013-01-25 06:59:00,
2013-01-25 02:00:00,1.2,-15.6,29.44,West,270,1.1,1.3,44,0.00,,---,0.00,VWS V14.01,2013-01-25 07:00:00,
2013-01-25 02:01:00,1.0,-15.8,29.44,West,270,1.1,1.1,44,0.00,,---,0.00,VWS V14.01,2013-01-25 07:01:00,
2013-01-25 02:02:00,1.0,-15.8,29.44,SSW,202,2.0,2.5,44,0.00,,---,0.00,VWS V14.01,2013-01-25 07:02:00,
2013-01-25 02:03:00,1.0,-15.8,29.44,SSW,202,2.0,2.0,44,0.00,,---,0.00,VWS V14.01,2013-01-25 07:03:00,
2013-01-25 02:04:00,1.0,-15.8,29.44,SW,225,1.6,1.6,44,0.00,,---,0.00,VWS V14.01,2013-01-25 07:04:00,
2013-01-25 02:05:00,1.0,-15.8,29.44,WNW,292,2.9,3.4,44,0.00,,---,0.00,VWS V14.01,2013-01-25 07:05:00,
2013-01-25 02:06:00,1.0,-15.8,29.44,WNW,292,0.9,2.9,44,0.00,,---,0.00,VWS V14.01,2013-01-25 07:06:00,
2013-01-25 02:07:00,1.0,-15.8,29.44,NW,315,3.6,3.6,44,0.00,,---,0.00,VWS V14.01,2013-01-25 07:07:00,
2013-01-25 02:08:00,1.0,-15.8,29.44,NNE,22,3.1,3.6,44,0.00,,---,0.00,VWS V14.01,2013-01-25 07:08:00,
2013-01-25 02:09:00,1.0,-15.8,29.44,WNW,292,4.3,4.3,44,0.00,,---,0.00,VWS V14.01,2013-01-25 07:09:00,
2013-01-25 02:10:00,1.0,-15.8,29.44,WSW,248,6.3,6.3,44,0.00,,---,0.00,VWS V14.01,2013-01-25 07:10:00,
2013-01-25 02:11:00,1.0,-15.8,29.41,South,180,5.8,6.3,44,0.00,,---,0.00,VWS V14.01,2013-01-25 07:11:00,
2013-01-25 02:12:00,1.0,-15.8,29.41,South,180,5.8,5.8,44,0.00,,---,0.00,VWS V14.01,2013-01-25 07:12:00,
2013-01-25 02:13:00,1.0,-15.8,29.41,WSW,248,6.9,6.9,44,0.00,,---,0.00,VWS V14.01,2013-01-25 07:13:00,
2013-01-25 02:14:00,0.7,-16.1,29.41,WNW,292,2.9,6.9,44,0.00,,---,0.00,VWS V14.01,2013-01-25 07:14:00,
2013-01-25 02:15:00,0.7,-16.1,29.41,WNW,292,2.9,2.9,44,0.00,,---,0.00,VWS V14.01,2013-01-25 07:15:00,
2013-01-25 02:16:00,0.7,-16.1,29.41,WNW,292,0.0,2.9,44,0.00,,---,0.00,VWS V14.01,2013-01-25 07:16:00,
2013-01-25 02:17:00,0.7,-16.1,29.41,WNW,292,2.2,2.2,44,0.00,,---,0.00,VWS V14.01,2013-01-25 07:17:00,
2013-01-25 02:18:00,0.7,-16.1,29.41,WNW,292,2.2,2.2,44,0.00,,---,0.00,VWS V14.01,2013-01-25 07:18:00,
2013-01-25 02:19:00,0.7,-16.1,29.41,WNW,292,1.6,2.2,44,0.00,,---,0.00,VWS V14.01,2013-01-25 07:19:00,
2013-01-25 02:20:00,0.7,-16.1,29.41,WNW,292,2.7,2.7,44,0.00,,---,0.00,VWS V14.01,2013-01-25 07:20:00,
2013-01-25 02:21:00,0.7,-16.1,29.41,NW,315,2.0,2.7,44,0.00,,---,0.00,VWS V14.01,2013-01-25 07:21:00,
2013-01-25 02:22:00,0.7,-16.1,29.44,NW,315,2.0,2.0,44,0.00,,---,0.00,VWS V14.01,2013-01-25 07:22:00,
2013-01-25 02:23:00,0.7,-16.1,29.44,NW,315,2.0,2.0,44,0.00,,---,0.00,VWS V14.01,2013-01-25 07:23:00,
2013-01-25 02:24:00,0.7,-16.1,29.44,West,270,3.4,3.4,44,0.00,,---,0.00,VWS V14.01,2013-01-25 07:24:00,
2013-01-25 02:25:00,0.7,-16.1,29.44,West,270,3.4,3.4,44,0.00,,---,0.00,VWS V14.01,2013-01-25 07:25:00,
2013-01-25 02:26:00,0.7,-16.1,29.44,West,270,0.0,3.4,44,0.00,,---,0.00,VWS V14.01,2013-01-25 07:26:00,
2013-01-25 02:27:00,0.7,-16.1,29.44,WNW,292,3.1,3.1,44,0.00,,---,0.00,VWS V14.01,2013-01-25 07:27:00,
2013-01-25 02:28:00,0.7,-16.1,29.44,WSW,248,5.6,5.6,44,0.00,,---,0.00,VWS V14.01,2013-01-25 07:28:00,
2013-01-25 02:29:00,0.7,-16.1,29.44,West,270,2.0,5.6,44,0.00,,---,0.00,VWS V14.01,2013-01-25 07:29:00,
2013-01-25 02:30:00,0.7,-16.1,29.44,NNW,338,2.0,2.0,44,0.00,,---,0.00,VWS V14.01,2013-01-25 07:30:00,
2013-01-25 02:31:00,0.7,-16.1,29.44,NW,315,2.0,2.0,44,0.00,,---,0.00,VWS V14.01,2013-01-25 07:31:00,
2013-01-25 02:32:00,0.7,-16.1,29.44,WSW,248,3.8,3.8,44,0.00,,---,0.00,VWS V14.01,2013-01-25 07:32:00,
2013-01-25 02:33:00,0.7,-16.1,29.44,NNW,338,2.9,3.8,44,0.00,,---,0.00,VWS V14.01,2013-01-25 07:33:00,
2013-01-25 02:34:00,0.7,-16.1,29.44,ESE,112,2.7,2.7,44,0.00,,---,0.00,VWS V14.01,2013-01-25 07:34:00,
2013-01-25 02:35:00,0.7,-16.1,29.44,West,270,4.7,4.7,44,0.00,,---,0.00,VWS V14.01,2013-01-25 07:35:00,
2013-01-25 02:36:00,0.7,-16.1,29.44,SW,225,2.9,4.7,44,0.00,,---,0.00,VWS V14.01,2013-01-25 07:36:00,
2013-01-25 02:37:00,0.7,-16.1,29.44,SW,225,2.9,2.9,44,0.00,,---,0.00,VWS V14.01,2013-01-25 07:37:00,
2013-01-25 02:38:00,0.7,-16.1,29.44,WSW,248,2.2,2.9,44,0.00,,---,0.00,VWS V14.01,2013-01-25 07:38:00,
2013-01-25 02:39:00,0.7,-16.1,29.44,WSW,248,0.0,2.2,44,0.00,,---,0.00,VWS V14.01,2013-01-25 07:39:00,
2013-01-25 02:40:00,0.7,-16.1,29.44,WSW,248,0.0,0.0,44,0.00,,---,0.00,VWS V14.01,2013-01-25 07:40:00,
2013-01-25 02:41:00,0.7,-16.1,29.44,WNW,292,0.0,0.0,44,0.00,,---,0.00,VWS V14.01,2013-01-25 07:41:00,
2013-01-25 02:42:00,0.7,-16.1,29.44,WNW,292,1.3,1.3,44,0.00,,---,0.00,VWS V14.01,2013-01-25 07:42:00,
2013-01-25 02:43:00,0.7,-16.1,29.44,WSW,248,3.8,3.8,44,0.00,,---,0.00,VWS V14.01,2013-01-25 07:43:00,
2013-01-25 02:44:00,0.7,-16.1,29.44,WSW,248,2.9,3.8,44,0.00,,---,0.00,VWS V14.01,2013-01-25 07:44:00,
2013-01-25 02:45:00,-0.6,-17.3,29.44,WSW,248,2.9,2.9,44,0.00,,---,0.00,VWS V14.01,2013-01-25 07:45:00,
2013-01-25 02:46:00,-0.6,-17.3,29.44,NNW,338,2.0,3.1,44,0.00,,---,0.00,VWS V14.01,2013-01-25 07:46:00,
2013-01-25 02:47:00,-0.6,-17.3,29.44,NNW,338,2.2,2.2,44,0.00,,---,0.00,VWS V14.01,2013-01-25 07:47:00,
2013-01-25 02:48:00,-0.6,-17.3,29.44,ESE,112,1.6,2.2,44,0.00,,---,0.00,VWS V14.01,2013-01-25 07:48:00,
2013-01-25 02:49:00,-0.6,-17.3,29.44,ESE,112,2.9,2.9,44,0.00,,---,0.00,VWS V14.01,2013-01-25 07:49:00,
2013-01-25 02:50:00,-0.6,-17.3,29.44,SE,135,2.5,2.9,44,0.00,,---,0.00,VWS V14.01,2013-01-25 07:50:00,
2013-01-25 02:51:00,-0.6,-17.3,29.44,SE,135,2.5,2.5,44,0.00,,---,0.00,VWS V14.01,2013-01-25 07:51:00,
2013-01-25 02:52:00,-0.9,-17.6,29.44,SE,135,5.4,5.4,44,0.00,,---,0.00,VWS V14.01,2013-01-25 07:52:00,
2013-01-25 02:53:00,-0.9,-17.6,29.44,NNE,22,1.6,5.4,44,0.00,,---,0.00,VWS V14.01,2013-01-25 07:53:00,
2013-01-25 02:54:00,-0.9,-17.6,29.44,South,180,1.6,1.6,44,0.00,,---,0.00,VWS V14.01,2013-01-25 07:54:00,
2013-01-25 02:55:00,-0.9,-17.6,29.44,SW,225,3.6,3.6,44,0.00,,---,0.00,VWS V14.01,2013-01-25 07:55:00,
2013-01-25 02:56:00,-0.9,-17.6,29.44,SW,225,3.6,3.6,44,0.00,,---,0.00,VWS V14.01,2013-01-25 07:56:00,
2013-01-25 02:57:00,-0.9,-17.6,29.44,WNW,292,2.7,2.7,44,0.00,,---,0.00,VWS V14.01,2013-01-25 07:57:00,
2013-01-25 02:58:00,-0.9,-17.6,29.44,WNW,292,2.7,2.7,44,0.00,,---,0.00,VWS V14.01,2013-01-25 07:58:00,
2013-01-25 02:59:00,-0.9,-17.6,29.44,WNW,292,3.1,3.1,44,0.00,,---,0.00,VWS V14.01,2013-01-25 07:59:00,
2013-01-25 03:00:00,-0.9,-17.6,29.44,WSW,248,4.3,4.3,44,0.00,,---,0.00,VWS V14.01,2013-01-25 08:00:00,
2013-01-25 03:01:00,-0.9,-17.6,29.44,South,180,2.7,4.9,44,0.00,,---,0.00,VWS V14.01,2013-01-25 08:01:00,
2013-01-25 03:02:00,-0.9,-17.6,29.44,SW,225,3.6,3.6,44,0.00,,---,0.00,VWS V14.01,2013-01-25 08:02:00,
2013-01-25 03:03:00,-0.9,-17.6,29.44,West,270,3.1,3.6,44,0.00,,---,0.00,VWS V14.01,2013-01-25 08:03:00,
2013-01-25 03:04:00,-0.9,-17.6,29.44,SSW,202,1.1,3.1,44,0.00,,---,0.00,VWS V14.01,2013-01-25 08:04:00,
2013-01-25 03:05:00,-0.9,-17.6,29.44,SSW,202,2.9,2.9,44,0.00,,---,0.00,VWS V14.01,2013-01-25 08:05:00,
2013-01-25 03:06:00,-0.9,-17.6,29.44,SSW,202,1.1,2.9,44,0.00,,---,0.00,VWS V14.01,2013-01-25 08:06:00,
2013-01-25 03:07:00,-0.9,-17.6,29.44,SW,225,3.1,3.1,44,0.00,,---,0.00,VWS V14.01,2013-01-25 08:07:00,
2013-01-25 03:08:00,-0.9,-17.6,29.44,SSE,158,4.0,4.0,44,0.00,,---,0.00,VWS V14.01,2013-01-25 08:08:00,
2013-01-25 03:09:00,-0.9,-17.6,29.44,ESE,112,3.6,4.0,44,0.00,,---,0.00,VWS V14.01,2013-01-25 08:09:00,
2013-01-25 03:10:00,-0.9,-17.6,29.44,ESE,112,3.6,3.6,44,0.00,,---,0.00,VWS V14.01,2013-01-25 08:10:00,
2013-01-25 03:11:00,-0.9,-17.6,29.44,South,180,2.5,3.6,44,0.00,,---,0.00,VWS V14.01,2013-01-25 08:11:00,
2013-01-25 03:12:00,-0.9,-17.6,29.44,SE,135,4.0,4.0,44,0.00,,---,0.00,VWS V14.01,2013-01-25 08:12:00,
2013-01-25 03:13:00,-0.9,-17.6,29.44,SE,135,4.0,4.0,44,0.00,,---,0.00,VWS V14.01,2013-01-25 08:13:00,
2013-01-25 03:14:00,-0.9,-17.6,29.44,WSW,248,0.0,4.9,44,0.00,,---,0.00,VWS V14.01,2013-01-25 08:14:00,
2013-01-25 03:15:00,-0.9,-17.6,29.44,WSW,248,4.0,4.0,44,0.00,,---,0.00,VWS V14.01,2013-01-25 08:15:00,
2013-01-25 03:16:00,-0.9,-17.6,29.44,WSW,248,1.6,4.0,44,0.00,,---,0.00,VWS V14.01,2013-01-25 08:16:00,
2013-01-25 03:17:00,-0.9,-17.6,29.44,WSW,248,1.3,1.3,44,0.00,,---,0.00,VWS V14.01,2013-01-25 08:17:00,
2013-01-25 03:18:00,-0.9,-17.6,29.44,SSE,158,3.6,3.6,44,0.00,,---,0.00,VWS V14.01,2013-01-25 08:18:00,
2013-01-25 03:19:00,-0.9,-17.6,29.44,WSW,248,2.2,4.9,44,0.00,,---,0.00,VWS V14.01,2013-01-25 08:19:00,
2013-01-25 03:20:00,-0.9,-17.6,29.44,WSW,248,3.1,3.1,44,0.00,,---,0.00,VWS V14.01,2013-01-25 08:20:00,
2013-01-25 03:21:00,-0.9,-17.6,29.44,WSW,248,3.1,3.1,44,0.00,,---,0.00,VWS V14.01,2013-01-25 08:21:00,
2013-01-25 03:22:00,-1.3,-17.9,29.44,WSW,248,2.5,2.7,44,0.00,,---,0.00,VWS V14.01,2013-01-25 08:22:00,
2013-01-25 03:23:00,-1.3,-17.9,29.44,NNW,338,2.7,2.7,44,0.00,,---,0.00,VWS V14.01,2013-01-25 08:23:00,
2013-01-25 03:24:00,-1.3,-17.9,29.44,WNW,292,2.5,2.7,44,0.00,,---,0.00,VWS V14.01,2013-01-25 08:24:00,
2013-01-25 03:25:00,-1.3,-17.9,29.44,West,270,1.3,2.5,44,0.00,,---,0.00,VWS V14.01,2013-01-25 08:25:00,
2013-01-25 03:26:00,-1.3,-17.9,29.44,SSE,158,2.7,2.7,44,0.00,,---,0.00,VWS V14.01,2013-01-25 08:26:00,
2013-01-25 03:27:00,-1.3,-17.9,29.44,SSE,158,0.0,0.0,44,0.00,,---,0.00,VWS V14.01,2013-01-25 08:27:00,
2013-01-25 03:28:00,-1.3,-17.9,29.44,SSE,158,2.7,2.7,44,0.00,,---,0.00,VWS V14.01,2013-01-25 08:28:00,
2013-01-25 03:29:00,-1.3,-17.9,29.44,NNE,22,2.0,2.7,44,0.00,,---,0.00,VWS V14.01,2013-01-25 08:29:00,
2013-01-25 03:30:00,-1.3,-17.9,29.44,East,90,2.0,2.0,44,0.00,,---,0.00,VWS V14.01,2013-01-25 08:30:00,
2013-01-25 03:31:00,-1.3,-17.9,29.44,SSE,158,4.0,4.0,44,0.00,,---,0.00,VWS V14.01,2013-01-25 08:31:00,
2013-01-25 03:32:00,-1.3,-17.9,29.44,SSE,158,1.3,1.3,44,0.00,,---,0.00,VWS V14.01,2013-01-25 08:32:00,
2013-01-25 03:33:00,-1.3,-17.9,29.44,SSE,158,1.3,1.3,44,0.00,,---,0.00,VWS V14.01,2013-01-25 08:33:00,
2013-01-25 03:34:00,-1.3,-17.9,29.44,SW,225,2.7,2.7,44,0.00,,---,0.00,VWS V14.01,2013-01-25 08:34:00,
2013-01-25 03:35:00,-1.3,-17.9,29.44,SW,225,2.7,2.7,44,0.00,,---,0.00,VWS V14.01,2013-01-25 08:35:00,
2013-01-25 03:36:00,-1.3,-17.9,29.44,South,180,2.7,2.7,44,0.00,,---,0.00,VWS V14.01,2013-01-25 08:36:00,
2013-01-25 03:37:00,-1.3,-17.9,29.44,SW,225,3.6,3.6,44,0.00,,---,0.00,VWS V14.01,2013-01-25 08:37:00,
2013-01-25 03:38:00,-1.3,-17.9,29.44,SSE,158,2.7,3.6,44,0.00,,---,0.00,VWS V14.01,2013-01-25 08:38:00,
2013-01-25 03:39:00,-1.3,-17.9,29.44,SSE,158,4.0,4.0,44,0.00,,---,0.00,VWS V14.01,2013-01-25 08:39:00,
2013-01-25 03:40:00,-1.3,-17.9,29.44,SSE,158,1.6,4.0,44,0.00,,---,0.00,VWS V14.01,2013-01-25 08:40:00,
2013-01-25 03:41:00,-1.3,-17.9,29.44,NNW,338,2.9,2.9,44,0.00,,---,0.00,VWS V14.01,2013-01-25 08:41:00,
2013-01-25 03:42:00,-1.3,-17.9,29.44,SSW,202,1.6,1.6,44,0.00,,---,0.00,VWS V14.01,2013-01-25 08:42:00,
2013-01-25 03:43:00,-1.3,-17.9,29.44,NNE,22,4.0,4.0,44,0.00,,---,0.00,VWS V14.01,2013-01-25 08:43:00,
2013-01-25 03:44:00,-1.3,-17.9,29.44,WNW,292,4.7,5.6,44,0.00,,---,0.00,VWS V14.01,2013-01-25 08:44:00,
2013-01-25 03:45:00,-1.3,-17.9,29.44,South,180,2.2,4.7,44,0.00,,---,0.00,VWS V14.01,2013-01-25 08:45:00,
2013-01-25 03:46:00,-1.3,-17.9,29.44,SSW,202,2.5,2.5,44,0.00,,---,0.00,VWS V14.01,2013-01-25 08:46:00,
2013-01-25 03:47:00,-1.3,-17.9,29.44,WNW,292,3.4,3.4,44,0.00,,---,0.00,VWS V14.01,2013-01-25 08:47:00,
2013-01-25 03:48:00,-1.3,-17.9,29.44,WNW,292,3.4,3.4,44,0.00,,---,0.00,VWS V14.01,2013-01-25 08:48:00,
2013-01-25 03:49:00,-1.3,-17.9,29.44,WNW,292,3.1,4.0,44,0.00,,---,0.00,VWS V14.01,2013-01-25 08:49:00,
2013-01-25 03:50:00,-1.3,-17.9,29.44,WNW,292,3.1,3.1,44,0.00,,---,0.00,VWS V14.01,2013-01-25 08:50:00,
2013-01-25 03:51:00,-1.3,-17.9,29.44,West,270,2.0,3.1,44,0.00,,---,0.00,VWS V14.01,2013-01-25 08:51:00,
2013-01-25 03:52:00,-1.3,-17.9,29.44,SSE,158,2.7,2.7,44,0.00,,---,0.00,VWS V14.01,2013-01-25 08:52:00,
2013-01-25 03:53:00,-1.3,-17.9,29.44,SSE,158,1.6,2.7,44,0.00,,---,0.00,VWS V14.01,2013-01-25 08:53:00,
2013-01-25 03:54:00,-1.3,-17.9,29.44,SSE,158,1.6,1.6,44,0.00,,---,0.00,VWS V14.01,2013-01-25 08:54:00,
2013-01-25 03:55:00,-1.3,-17.9,29.44,SSW,202,2.5,2.5,44,0.00,,---,0.00,VWS V14.01,2013-01-25 08:55:00,
2013-01-25 03:56:00,-1.3,-17.9,29.44,SSE,158,3.4,3.4,44,0.00,,---,0.00,VWS V14.01,2013-01-25 08:56:00,
2013-01-25 03:57:00,-1.3,-17.9,29.44,SSE,158,1.6,3.4,44,0.00,,---,0.00,VWS V14.01,2013-01-25 08:57:00,
2013-01-25 03:58:00,-1.3,-17.9,29.44,SSE,158,1.6,3.4,44,0.00,,---,0.00,VWS V14.01,2013-01-25 08:58:00,
2013-01-25 03:59:00,-1.3,-17.9,29.44,SSE,158,2.2,2.2,44,0.00,,---,0.00,VWS V14.01,2013-01-25 08:59:00,
2013-01-25 04:00:00,-1.3,-17.9,29.44,SSE,158,2.2,2.2,44,0.00,,---,0.00,VWS V14.01,2013-01-25 09:00:00,
2013-01-25 04:01:00,-1.3,-17.9,29.44,SSE,158,2.7,2.7,44,0.00,,---,0.00,VWS V14.01,2013-01-25 09:01:00,
2013-01-25 04:02:00,-1.3,-17.9,29.44,SSE,158,1.6,1.6,44,0.00,,---,0.00,VWS V14.01,2013-01-25 09:02:00,
2013-01-25 04:03:00,-1.3,-17.9,29.44,SSE,158,1.3,1.6,44,0.00,,---,0.00,VWS V14.01,2013-01-25 09:03:00,
2013-01-25 04:04:00,-1.3,-17.9,29.44,SSE,158,0.0,1.3,44,0.00,,---,0.00,VWS V14.01,2013-01-25 09:04:00,
2013-01-25 04:05:00,-1.3,-17.9,29.44,SSE,158,0.0,0.0,44,0.00,,---,0.00,VWS V14.01,2013-01-25 09:05:00,
2013-01-25 04:06:00,-1.3,-17.9,29.44,SSE,158,2.0,2.0,44,0.00,,---,0.00,VWS V14.01,2013-01-25 09:06:00,
2013-01-25 04:07:00,-1.3,-17.9,29.44,SSE,158,0.0,2.0,44,0.00,,---,0.00,VWS V14.01,2013-01-25 09:07:00,
2013-01-25 04:08:00,-1.3,-17.9,29.44,ENE,68,3.8,3.8,44,0.00,,---,0.00,VWS V14.01,2013-01-25 09:08:00,
2013-01-25 04:09:00,-1.3,-17.9,29.44,WNW,292,2.7,3.8,44,0.00,,---,0.00,VWS V14.01,2013-01-25 09:09:00,
2013-01-25 04:10:00,-1.3,-17.9,29.44,WNW,292,3.8,3.8,44,0.00,,---,0.00,VWS V14.01,2013-01-25 09:10:00,
2013-01-25 04:11:00,-1.3,-17.9,29.44,WNW,292,1.3,3.8,44,0.00,,---,0.00,VWS V14.01,2013-01-25 09:11:00,
2013-01-25 04:12:00,-1.3,-17.9,29.44,WNW,292,0.0,0.0,44,0.00,,---,0.00,VWS V14.01,2013-01-25 09:12:00,
2013-01-25 04:13:00,-1.3,-17.9,29.44,WNW,292,0.0,0.0,44,0.00,,---,0.00,VWS V14.01,2013-01-25 09:13:00,
2013-01-25 04:14:00,-1.3,-17.9,29.44,WSW,248,2.0,2.0,44,0.00,,---,0.00,VWS V14.01,2013-01-25 09:14:00,
2013-01-25 04:15:00,-1.3,-17.9,29.44,WSW,248,1.3,2.0,44,0.00,,---,0.00,VWS V14.01,2013-01-25 09:15:00,
2013-01-25 04:16:00,-1.3,-17.9,29.44,WSW,248,1.3,1.3,44,0.00,,---,0.00,VWS V14.01,2013-01-25 09:16:00,
2013-01-25 04:17:00,-1.3,-17.9,29.44,SSE,158,2.7,2.7,44,0.00,,---,0.00,VWS V14.01,2013-01-25 09:17:00,
2013-01-25 04:18:00,-1.3,-17.9,29.44,SSE,158,1.1,2.7,44,0.00,,---,0.00,VWS V14.01,2013-01-25 09:18:00,
2013-01-25 04:19:00,-1.3,-17.9,29.44,SSE,158,1.1,1.1,44,0.00,,---,0.00,VWS V14.01,2013-01-25 09:19:00,
2013-01-25 04:20:00,-1.3,-17.9,29.44,SSE,158,1.3,2.7,44,0.00,,---,0.00,VWS V14.01,2013-01-25 09:20:00,
2013-01-25 04:21:00,-1.3,-17.9,29.44,SSE,158,0.0,1.3,44,0.00,,---,0.00,VWS V14.01,2013-01-25 09:21:00,
2013-01-25 04:22:00,-1.3,-17.9,29.44,SSE,158,2.5,2.5,44,0.00,,---,0.00,VWS V14.01,2013-01-25 09:22:00,
2013-01-25 04:23:00,-1.3,-17.9,29.44,SSE,158,2.2,2.5,44,0.00,,---,0.00,VWS V14.01,2013-01-25 09:23:00,
2013-01-25 04:24:00,-1.3,-17.9,29.44,SSE,158,0.9,2.2,44,0.00,,---,0.00,VWS V14.01,2013-01-25 09:24:00,
2013-01-25 04:25:00,-1.3,-17.9,29.44,SSE,158,2.0,2.0,44,0.00,,---,0.00,VWS V14.01,2013-01-25 09:25:00,
2013-01-25 04:26:00,-1.3,-17.9,29.44,West,270,3.6,3.6,44,0.00,,---,0.00,VWS V14.01,2013-01-25 09:26:00,
2013-01-25 04:27:00,-1.3,-17.9,29.44,West,270,3.1,3.6,44,0.00,,---,0.00,VWS V14.01,2013-01-25 09:27:00,
2013-01-25 04:28:00,-1.3,-17.9,29.44,West,270,0.0,3.1,44,0.00,,---,0.00,VWS V14.01,2013-01-25 09:28:00,
2013-01-25 04:29:00,-1.3,-17.9,29.44,ESE,112,2.5,3.1,44,0.00,,---,0.00,VWS V14.01,2013-01-25 09:29:00,
2013-01-25 04:30:00,-1.3,-17.9,29.44,ESE,112,2.5,2.5,44,0.00,,---,0.00,VWS V14.01,2013-01-25 09:30:00,
2013-01-25 04:31:00,-1.3,-17.9,29.44,ESE,112,1.1,2.5,44,0.00,,---,0.00,VWS V14.01,2013-01-25 09:31:00,
2013-01-25 04:32:00,-1.3,-17.9,29.44,WSW,248,3.1,3.4,44,0.00,,---,0.00,VWS V14.01,2013-01-25 09:32:00,
2013-01-25 04:33:00,-1.3,-17.9,29.44,SSW,202,2.5,3.4,44,0.00,,---,0.00,VWS V14.01,2013-01-25 09:33:00,
2013-01-25 04:34:00,-1.3,-17.9,29.44,SW,225,2.5,2.5,44,0.00,,---,0.00,VWS V14.01,2013-01-25 09:34:00,
2013-01-25 04:35:00,-1.3,-17.9,29.44,SW,225,1.3,2.5,44,0.00,,---,0.00,VWS V14.01,2013-01-25 09:35:00,
2013-01-25 04:36:00,-1.3,-17.9,29.44,NNW,338,1.6,1.6,44,0.00,,---,0.00,VWS V14.01,2013-01-25 09:36:00,
2013-01-25 04:37:00,-1.3,-17.9,29.44,SSW,202,1.6,1.6,44,0.00,,---,0.00,VWS V14.01,2013-01-25 09:37:00,
2013-01-25 04:38:00,-1.3,-17.9,29.44,SSW,202,0.0,1.6,44,0.00,,---,0.00,VWS V14.01,2013-01-25 09:38:00,
2013-01-25 04:39:00,-1.3,-17.9,29.44,WSW,248,2.5,2.5,44,0.00,,---,0.00,VWS V14.01,2013-01-25 09:39:00,
2013-01-25 04:40:00,-1.3,-17.9,29.44,WNW,292,2.5,2.5,44,0.00,,---,0.00,VWS V14.01,2013-01-25 09:40:00,
2013-01-25 04:41:00,-1.3,-17.9,29.44,WNW,292,2.5,2.5,44,0.00,,---,0.00,VWS V14.01,2013-01-25 09:41:00,
2013-01-25 04:42:00,-1.3,-17.9,29.44,WNW,292,0.0,0.0,44,0.00,,---,0.00,VWS V14.01,2013-01-25 09:42:00,
2013-01-25 04:43:00,-1.3,-17.9,29.44,WNW,292,0.9,0.9,44,0.00,,---,0.00,VWS V14.01,2013-01-25 09:43:00,
2013-01-25 04:44:00,-1.3,-17.9,29.44,WNW,292,1.3,1.3,44,0.00,,---,0.00,VWS V14.01,2013-01-25 09:44:00,
2013-01-25 04:45:00,-1.3,-17.9,29.44,WNW,292,2.0,2.0,44,0.00,,---,0.00,VWS V14.01,2013-01-25 09:45:00,
2013-01-25 04:46:00,-1.3,-17.9,29.44,WNW,292,2.2,2.2,44,0.00,,---,0.00,VWS V14.01,2013-01-25 09:46:00,
2013-01-25 04:47:00,-1.3,-17.9,29.44,WNW,292,2.9,2.9,44,0.00,,---,0.00,VWS V14.01,2013-01-25 09:47:00,
2013-01-25 04:48:00,-1.3,-17.9,29.44,WNW,292,1.3,2.9,44,0.00,,---,0.00,VWS V14.01,2013-01-25 09:48:00,
2013-01-25 04:49:00,-1.3,-17.9,29.44,WNW,292,1.3,2.7,44,0.00,,---,0.00,VWS V14.01,2013-01-25 09:49:00,
2013-01-25 04:50:00,-1.3,-17.9,29.44,WNW,292,1.3,1.3,44,0.00,,---,0.00,VWS V14.01,2013-01-25 09:50:00,
2013-01-25 04:51:00,-1.3,-17.9,29.44,WNW,292,1.6,2.9,44,0.00,,---,0.00,VWS V14.01,2013-01-25 09:51:00,
2013-01-25 04:52:00,-1.3,-17.9,29.44,WNW,292,2.0,2.0,44,0.00,,---,0.00,VWS V14.01,2013-01-25 09:52:00,
2013-01-25 04:53:00,-1.3,-17.9,29.44,WSW,248,3.4,3.4,44,0.00,,---,0.00,VWS V14.01,2013-01-25 09:53:00,
2013-01-25 04:54:00,-1.3,-17.9,29.44,West,270,2.0,3.4,44,0.00,,---,0.00,VWS V14.01,2013-01-25 09:54:00,
2013-01-25 04:55:00,-1.3,-17.9,29.44,NNE,22,3.4,3.4,44,0.00,,---,0.00,VWS V14.01,2013-01-25 09:55:00,
2013-01-25 04:56:00,-1.3,-17.9,29.44,ENE,68,1.1,3.4,44,0.00,,---,0.00,VWS V14.01,2013-01-25 09:56:00,
2013-01-25 04:57:00,-1.3,-17.9,29.44,ENE,68,0.0,0.0,44,0.00,,---,0.00,VWS V14.01,2013-01-25 09:57:00,
2013-01-25 04:58:00,-1.3,-17.9,29.44,ENE,68,0.0,0.0,44,0.00,,---,0.00,VWS V14.01,2013-01-25 09:58:00,
2013-01-25 04:59:00,-1.3,-17.9,29.44,SSE,158,2.5,2.5,44,0.00,,---,0.00,VWS V14.01,2013-01-25 09:59:00,
2013-01-25 05:00:00,-1.3,-17.9,29.44,WSW,248,1.6,2.5,44,0.00,,---,0.00,VWS V14.01,2013-01-25 10:00:00,
2013-01-25 05:01:00,-1.3,-17.9,29.44,WSW,248,2.5,2.5,44,0.00,,---,0.00,VWS V14.01,2013-01-25 10:01:00,
2013-01-25 05:02:00,-1.3,-17.9,29.44,WSW,248,2.5,2.5,44,0.00,,---,0.00,VWS V14.01,2013-01-25 10:02:00,
2013-01-25 05:03:00,-1.3,-17.9,29.44,WSW,248,2.9,2.9,44,0.00,,---,0.00,VWS V14.01,2013-01-25 10:03:00,
2013-01-25 05:04:00,-1.3,-17.9,29.44,WSW,248,2.0,2.9,44,0.00,,---,0.00,VWS V14.01,2013-01-25 10:04:00,
2013-01-25 05:05:00,-1.3,-17.9,29.44,WSW,248,1.1,2.0,44,0.00,,---,0.00,VWS V14.01,2013-01-25 10:05:00,
2013-01-25 05:06:00,-1.3,-17.9,29.44,WSW,248,1.1,1.3,44,0.00,,---,0.00,VWS V14.01,2013-01-25 10:06:00,
2013-01-25 05:07:00,-1.3,-17.9,29.44,WSW,248,1.1,1.1,44,0.00,,---,0.00,VWS V14.01,2013-01-25 10:07:00,
2013-01-25 05:08:00,-1.3,-17.9,29.44,WSW,248,1.6,1.6,44,0.00,,---,0.00,VWS V14.01,2013-01-25 10:08:00,
2013-01-25 05:09:00,-1.3,-17.9,29.44,West,270,1.3,1.6,44,0.00,,---,0.00,VWS V14.01,2013-01-25 10:09:00,
2013-01-25 05:10:00,-0.9,-17.6,29.44,West,270,1.6,2.5,44,0.00,,---,0.00,VWS V14.01,2013-01-25 10:10:00,
2013-01-25 05:11:00,-0.9,-17.6,29.44,West,270,1.6,1.6,44,0.00,,---,0.00,VWS V14.01,2013-01-25 10:11:00,
2013-01-25 05:12:00,-0.9,-17.6,29.44,WSW,248,3.6,3.6,44,0.00,,---,0.00,VWS V14.01,2013-01-25 10:12:00,
2013-01-25 05:13:00,-0.9,-17.6,29.44,WSW,248,2.9,3.6,44,0.00,,---,0.00,VWS V14.01,2013-01-25 10:13:00,
2013-01-25 05:14:00,-0.9,-17.6,29.44,ESE,112,1.1,2.9,44,0.00,,---,0.00,VWS V14.01,2013-01-25 10:14:00,
2013-01-25 05:15:00,-0.9,-17.6,29.44,WNW,292,2.7,2.7,44,0.00,,---,0.00,VWS V14.01,2013-01-25 10:15:00,
2013-01-25 05:16:00,-0.9,-17.6,29.44,WNW,292,2.0,2.7,44,0.00,,---,0.00,VWS V14.01,2013-01-25 10:16:00,
2013-01-25 05:17:00,-0.9,-17.6,29.44,WNW,292,1.6,1.6,44,0.00,,---,0.00,VWS V14.01,2013-01-25 10:17:00,
2013-01-25 05:18:00,-0.9,-17.6,29.44,WNW,292,0.9,1.6,44,0.00,,---,0.00,VWS V14.01,2013-01-25 10:18:00,
2013-01-25 05:19:00,-0.9,-17.6,29.44,SW,225,2.5,2.5,44,0.00,,---,0.00,VWS V14.01,2013-01-25 10:19:00,
2013-01-25 05:20:00,-0.9,-17.6,29.44,WSW,248,3.4,3.4,44,0.00,,---,0.00,VWS V14.01,2013-01-25 10:20:00,
2013-01-25 05:21:00,-0.9,-17.6,29.44,WNW,292,2.9,3.8,44,0.00,,---,0.00,VWS V14.01,2013-01-25 10:21:00,
2013-01-25 05:22:00,-0.9,-17.6,29.44,WNW,292,2.7,2.7,44,0.00,,---,0.00,VWS V14.01,2013-01-25 10:22:00,
2013-01-25 05:23:00,-0.9,-17.6,29.44,WNW,292,2.7,2.7,44,0.00,,---,0.00,VWS V14.01,2013-01-25 10:23:00,
2013-01-25 05:24:00,-0.9,-17.6,29.44,WNW,292,2.9,2.9,44,0.00,,---,0.00,VWS V14.01,2013-01-25 10:24:00,
2013-01-25 05:25:00,-0.9,-17.6,29.44,WNW,292,3.6,3.6,44,0.00,,---,0.00,VWS V14.01,2013-01-25 10:25:00,
2013-01-25 05:26:00,-0.9,-17.6,29.44,WSW,248,4.3,4.3,44,0.00,,---,0.00,VWS V14.01,2013-01-25 10:26:00,
2013-01-25 05:27:00,-0.9,-17.6,29.44,WNW,292,3.6,4.3,44,0.00,,---,0.00,VWS V14.01,2013-01-25 10:27:00,
2013-01-25 05:28:00,-0.9,-17.6,29.44,West,270,4.0,4.9,44,0.00,,---,0.00,VWS V14.01,2013-01-25 10:28:00,
2013-01-25 05:29:00,-0.9,-17.6,29.44,NNW,338,2.9,4.0,44,0.00,,---,0.00,VWS V14.01,2013-01-25 10:29:00,
2013-01-25 05:30:00,-0.9,-17.6,29.44,WNW,292,7.2,7.2,44,0.00,,---,0.00,VWS V14.01,2013-01-25 10:30:00,
2013-01-25 05:31:00,-1.1,-17.8,29.44,WNW,292,2.9,7.2,44,0.00,,---,0.00,VWS V14.01,2013-01-25 10:31:00,
2013-01-25 05:32:00,-1.1,-17.8,29.44,West,270,6.0,6.0,44,0.00,,---,0.00,VWS V14.01,2013-01-25 10:32:00,
2013-01-25 05:33:00,-1.1,-17.8,29.44,WNW,292,3.4,6.0,44,0.00,,---,0.00,VWS V14.01,2013-01-25 10:33:00,
2013-01-25 05:34:00,-1.1,-17.8,29.44,WNW,292,3.4,3.4,44,0.00,,---,0.00,VWS V14.01,2013-01-25 10:34:00,
2013-01-25 05:35:00,-1.1,-17.8,29.44,WNW,292,3.4,3.4,44,0.00,,---,0.00,VWS V14.01,2013-01-25 10:35:00,
2013-01-25 05:36:00,-1.1,-17.8,29.44,WNW,292,3.4,3.4,44,0.00,,---,0.00,VWS V14.01,2013-01-25 10:36:00,
2013-01-25 05:37:00,-1.1,-17.8,29.44,WNW,292,3.4,3.4,44,0.00,,---,0.00,VWS V14.01,2013-01-25 10:37:00,
2013-01-25 05:38:00,-1.1,-17.8,29.44,WNW,292,3.4,3.4,44,0.00,,---,0.00,VWS V14.01,2013-01-25 10:38:00,
2013-01-25 05:39:00,-1.1,-17.8,29.44,WNW,292,3.4,3.4,44,0.00,,---,0.00,VWS V14.01,2013-01-25 10:39:00,
2013-01-25 05:40:00,-1.3,-17.9,29.44,WNW,292,3.4,3.4,44,0.00,,---,0.00,VWS V14.01,2013-01-25 10:40:00,
2013-01-25 05:41:00,-1.3,-17.9,29.44,WNW,292,3.4,3.4,44,0.00,,---,0.00,VWS V14.01,2013-01-25 10:41:00,
2013-01-25 05:42:00,-1.3,-17.9,29.44,WNW,292,3.4,3.4,44,0.00,,---,0.00,VWS V14.01,2013-01-25 10:42:00,
2013-01-25 05:43:00,-1.3,-17.9,29.44,WNW,292,3.4,3.4,44,0.00,,---,0.00,VWS V14.01,2013-01-25 10:43:00,
2013-01-25 05:44:00,-1.3,-17.9,29.44,WNW,292,3.4,3.4,44,0.00,,---,0.00,VWS V14.01,2013-01-25 10:44:00,
2013-01-25 05:45:00,-1.3,-17.9,29.44,WNW,292,3.4,3.4,44,0.00,,---,0.00,VWS V14.01,2013-01-25 10:45:00,
2013-01-25 05:46:00,-1.3,-17.9,29.44,WNW,292,2.9,3.4,44,0.00,,---,0.00,VWS V14.01,2013-01-25 10:46:00,
2013-01-25 05:47:00,-1.3,-17.9,29.44,WNW,292,2.9,2.9,44,0.00,,---,0.00,VWS V14.01,2013-01-25 10:47:00,
2013-01-25 05:48:00,-1.3,-17.9,29.44,WNW,292,2.9,2.9,44,0.00,,---,0.00,VWS V14.01,2013-01-25 10:48:00,
2013-01-25 05:49:00,-1.3,-17.9,29.44,WNW,292,2.9,2.9,44,0.00,,---,0.00,VWS V14.01,2013-01-25 10:49:00,
2013-01-25 05:50:00,-1.3,-17.9,29.44,WNW,292,2.9,2.9,44,0.00,,---,0.00,VWS V14.01,2013-01-25 10:50:00,
2013-01-25 05:51:00,-1.3,-17.9,29.44,WNW,292,2.9,2.9,44,0.00,,---,0.00,VWS V14.01,2013-01-25 10:51:00,
2013-01-25 05:52:00,-1.5,-18.1,29.44,SW,225,3.1,3.1,44,0.00,,---,0.00,VWS V14.01,2013-01-25 10:52:00,
2013-01-25 05:53:00,-1.5,-18.1,29.41,SW,225,3.1,3.1,44,0.00,,---,0.00,VWS V14.01,2013-01-25 10:53:00,
2013-01-25 05:54:00,-1.5,-18.1,29.41,WNW,292,3.1,3.8,44,0.00,,---,0.00,VWS V14.01,2013-01-25 10:54:00,
2013-01-25 05:55:00,-1.5,-18.1,29.41,West,270,3.8,3.8,44,0.00,,---,0.00,VWS V14.01,2013-01-25 10:55:00,
2013-01-25 05:56:00,-1.5,-18.1,29.41,WSW,248,3.1,3.8,44,0.00,,---,0.00,VWS V14.01,2013-01-25 10:56:00,
2013-01-25 05:57:00,-1.5,-18.1,29.41,WNW,292,2.9,3.1,44,0.00,,---,0.00,VWS V14.01,2013-01-25 10:57:00,
2013-01-25 05:59:00,-1.7,-18.2,29.41,West,270,3.4,6.3,44,0.00,,---,0.00,VWS V14.01,2013-01-25 10:59:00,
2013-01-25 06:00:00,-1.7,-18.2,29.41,NW,315,6.9,6.9,44,0.00,,---,0.00,VWS V14.01,2013-01-25 11:00:00,
2013-01-25 06:01:00,-1.7,-18.2,29.41,West,270,3.8,6.9,44,0.00,,---,0.00,VWS V14.01,2013-01-25 11:01:00,
2013-01-25 06:02:00,-1.7,-18.2,29.41,West,270,2.0,3.8,44,0.00,,---,0.00,VWS V14.01,2013-01-25 11:02:00,
2013-01-25 06:05:00,-1.8,-18.4,29.41,WNW,292,3.6,4.3,44,0.00,,---,0.00,VWS V14.01,2013-01-25 11:05:00,
2013-01-25 06:06:00,-1.8,-18.4,29.41,WNW,292,3.6,3.6,44,0.00,,---,0.00,VWS V14.01,2013-01-25 11:06:00,
2013-01-25 06:07:00,-1.8,-18.4,29.41,WSW,248,4.3,4.3,44,0.00,,---,0.00,VWS V14.01,2013-01-25 11:07:00,
2013-01-25 06:08:00,-1.8,-18.4,29.41,WSW,248,4.3,4.3,44,0.00,,---,0.00,VWS V14.01,2013-01-25 11:08:00,
2013-01-25 06:09:00,-1.8,-18.4,29.41,SW,225,3.4,4.5,44,0.00,,---,0.00,VWS V14.01,2013-01-25 11:09:00,
2013-01-25 06:10:00,-1.8,-18.4,29.41,SW,225,3.4,3.4,44,0.00,,---,0.00,VWS V14.01,2013-01-25 11:10:00,
2013-01-25 06:11:00,-1.8,-18.4,29.41,WSW,248,5.6,5.6,44,0.00,,---,0.00,VWS V14.01,2013-01-25 11:11:00,
2013-01-25 06:12:00,-1.8,-18.4,29.41,WNW,292,4.0,5.6,44,0.00,,---,0.00,VWS V14.01,2013-01-25 11:12:00,
2013-01-25 06:14:00,-1.8,-18.4,29.41,WSW,248,3.4,3.4,44,0.00,,---,0.00,VWS V14.01,2013-01-25 11:14:00,
2013-01-25 06:15:00,-1.8,-18.4,29.41,WSW,248,3.4,3.4,44,0.00,,---,0.00,VWS V14.01,2013-01-25 11:15:00,
2013-01-25 06:17:00,-2.0,-18.6,29.41,West,270,2.7,4.7,44,0.00,,---,0.00,VWS V14.01,2013-01-25 11:17:00,
2013-01-25 06:18:00,-2.0,-18.6,29.41,West,270,2.7,2.7,44,0.00,,---,0.00,VWS V14.01,2013-01-25 11:18:00,
2013-01-25 06:19:00,-1.8,-18.4,29.41,West,270,2.7,2.7,44,0.00,,---,0.00,VWS V14.01,2013-01-25 11:19:00,
2013-01-25 06:21:00,-2.0,-18.6,29.41,WSW,248,5.6,5.6,44,0.00,,---,0.00,VWS V14.01,2013-01-25 11:21:00,
2013-01-25 06:22:00,-2.0,-18.6,29.41,WSW,248,7.8,7.8,44,0.00,,---,0.00,VWS V14.01,2013-01-25 11:22:00,
2013-01-25 06:23:00,-2.0,-18.6,29.41,WSW,248,3.6,7.8,44,0.00,,---,0.00,VWS V14.01,2013-01-25 11:23:00,
2013-01-25 06:24:00,-2.0,-18.6,29.41,WNW,292,6.9,6.9,44,0.00,,---,0.00,VWS V14.01,2013-01-25 11:24:00,
2013-01-25 06:25:00,-2.0,-18.6,29.41,WNW,292,6.0,6.9,44,0.00,,---,0.00,VWS V14.01,2013-01-25 11:25:00,
2013-01-25 06:26:00,-2.0,-18.6,29.41,WSW,248,3.8,6.0,44,0.00,,---,0.00,VWS V14.01,2013-01-25 11:26:00,
2013-01-25 06:27:00,-2.0,-18.6,29.41,WSW,248,3.8,3.8,44,0.00,,---,0.00,VWS V14.01,2013-01-25 11:27:00,
2013-01-25 06:28:00,-2.0,-18.6,29.41,West,270,3.6,3.8,44,0.00,,---,0.00,VWS V14.01,2013-01-25 11:28:00,
2013-01-25 06:29:00,-2.0,-18.6,29.41,West,270,3.6,3.6,44,0.00,,---,0.00,VWS V14.01,2013-01-25 11:29:00,
2013-01-25 06:30:00,-2.0,-18.6,29.41,WSW,248,3.4,3.6,44,0.00,,---,0.00,VWS V14.01,2013-01-25 11:30:00,
2013-01-25 06:31:00,-2.2,-18.8,29.41,WSW,248,3.4,3.4,44,0.00,,---,0.00,VWS V14.01,2013-01-25 11:31:00,
2013-01-25 06:32:00,-2.2,-18.8,29.41,WSW,248,3.4,3.4,44,0.00,,---,0.00,VWS V14.01,2013-01-25 11:32:00,
2013-01-25 06:33:00,-2.2,-18.8,29.41,WSW,248,3.4,3.4,44,0.00,,---,0.00,VWS V14.01,2013-01-25 11:33:00,
2013-01-25 06:34:00,-2.2,-18.8,29.41,WSW,248,3.4,3.4,44,0.00,,---,0.00,VWS V14.01,2013-01-25 11:34:00,
2013-01-25 06:35:00,-2.2,-18.8,29.41,WSW,248,3.4,3.4,44,0.00,,---,0.00,VWS V14.01,2013-01-25 11:35:00,
2013-01-25 06:36:00,-2.2,-18.8,29.41,WSW,248,3.4,3.4,44,0.00,,---,0.00,VWS V14.01,2013-01-25 11:36:00,
2013-01-25 06:37:00,-2.2,-18.8,29.41,WSW,248,3.4,3.4,44,0.00,,---,0.00,VWS V14.01,2013-01-25 11:37:00,
2013-01-25 06:38:00,-2.2,-18.8,29.41,WSW,248,3.4,3.4,44,0.00,,---,0.00,VWS V14.01,2013-01-25 11:38:00,
2013-01-25 06:39:00,-2.2,-18.8,29.41,WSW,248,3.4,3.4,44,0.00,,---,0.00,VWS V14.01,2013-01-25 11:39:00,
2013-01-25 06:40:00,-2.2,-18.8,29.41,WSW,248,3.4,3.4,44,0.00,,---,0.00,VWS V14.01,2013-01-25 11:40:00,
2013-01-25 06:41:00,-2.2,-18.8,29.41,WSW,248,3.4,3.4,44,0.00,,---,0.00,VWS V14.01,2013-01-25 11:41:00,
2013-01-25 06:42:00,-2.2,-18.8,29.41,WSW,248,3.4,3.4,44,0.00,,---,0.00,VWS V14.01,2013-01-25 11:42:00,
2013-01-25 06:43:00,-2.2,-18.8,29.41,WSW,248,3.4,3.4,44,0.00,,---,0.00,VWS V14.01,2013-01-25 11:43:00,
2013-01-25 06:44:00,-2.4,-18.9,29.41,West,270,6.3,6.3,44,0.00,,---,0.00,VWS V14.01,2013-01-25 11:44:00,
2013-01-25 06:45:00,-2.4,-18.9,29.41,West,270,6.3,6.3,44,0.00,,---,0.00,VWS V14.01,2013-01-25 11:45:00,
2013-01-25 06:46:00,-2.4,-18.9,29.41,WSW,248,3.8,6.3,44,0.00,,---,0.00,VWS V14.01,2013-01-25 11:46:00,
2013-01-25 06:47:00,-2.4,-18.9,29.41,North,0,2.5,5.8,44,0.00,,---,0.00,VWS V14.01,2013-01-25 11:47:00,
2013-01-25 06:48:00,-2.4,-18.9,29.41,West,270,6.0,6.0,44,0.00,,---,0.00,VWS V14.01,2013-01-25 11:48:00,
2013-01-25 06:49:00,-2.4,-18.9,29.41,West,270,6.0,6.0,44,0.00,,---,0.00,VWS V14.01,2013-01-25 11:49:00,
2013-01-25 06:50:00,-2.6,-19.1,29.41,SW,225,4.0,6.0,44,0.00,,---,0.00,VWS V14.01,2013-01-25 11:50:00,
2013-01-25 06:51:00,-2.6,-19.1,29.41,SW,225,4.0,4.0,44,0.00,,---,0.00,VWS V14.01,2013-01-25 11:51:00,
2013-01-25 06:52:00,-2.6,-19.1,29.41,SW,225,1.6,2.9,44,0.00,,---,0.00,VWS V14.01,2013-01-25 11:52:00,
2013-01-25 06:53:00,-2.6,-19.1,29.41,NNW,338,5.4,5.4,44,0.00,,---,0.00,VWS V14.01,2013-01-25 11:53:00,
2013-01-25 06:54:00,-2.6,-19.1,29.41,NNW,338,5.4,5.4,44,0.00,,---,0.00,VWS V14.01,2013-01-25 11:54:00,
2013-01-25 06:56:00,-2.6,-19.1,29.41,WSW,248,2.9,8.5,44,0.00,,---,0.00,VWS V14.01,2013-01-25 11:56:00,
2013-01-25 06:57:00,-2.6,-19.1,29.41,WSW,248,2.9,2.9,44,0.00,,---,0.00,VWS V14.01,2013-01-25 11:57:00,
2013-01-25 06:58:00,-2.6,-19.1,29.41,NNW,338,1.6,6.5,44,0.00,,---,0.00,VWS V14.01,2013-01-25 11:58:00,
2013-01-25 06:59:00,-2.6,-19.1,29.41,NNW,338,1.6,1.6,44,0.00,,---,0.00,VWS V14.01,2013-01-25 11:59:00,
2013-01-25 07:00:00,-2.6,-19.1,29.41,NNW,338,1.6,1.6,44,0.00,,---,0.00,VWS V14.01,2013-01-25 12:00:00,
2013-01-25 07:01:00,-2.6,-19.1,29.41,NNW,338,1.6,1.6,44,0.00,,---,0.00,VWS V14.01,2013-01-25 12:01:00,
2013-01-25 07:02:00,-2.6,-19.1,29.41,SW,225,4.0,4.0,44,0.00,,---,0.00,VWS V14.01,2013-01-25 12:02:00,
2013-01-25 07:03:00,-2.6,-19.1,29.41,WSW,248,3.8,4.0,44,0.00,,---,0.00,VWS V14.01,2013-01-25 12:03:00,
2013-01-25 07:04:00,-2.6,-19.1,29.41,WSW,248,3.8,3.8,44,0.00,,---,0.00,VWS V14.01,2013-01-25 12:04:00,
2013-01-25 07:05:00,-2.6,-19.1,29.41,WSW,248,3.8,3.8,44,0.00,,---,0.00,VWS V14.01,2013-01-25 12:05:00,
2013-01-25 07:06:00,-2.6,-19.1,29.41,WSW,248,3.8,3.8,44,0.00,,---,0.00,VWS V14.01,2013-01-25 12:06:00,
2013-01-25 07:07:00,-2.6,-19.1,29.41,WSW,248,3.8,3.8,44,0.00,,---,0.00,VWS V14.01,2013-01-25 12:07:00,
2013-01-25 07:08:00,-2.7,-19.2,29.41,WNW,292,2.7,3.8,44,0.00,,---,0.00,VWS V14.01,2013-01-25 12:08:00,
2013-01-25 07:09:00,-2.7,-19.2,29.41,WSW,248,2.0,5.8,44,0.00,,---,0.00,VWS V14.01,2013-01-25 12:09:00,
2013-01-25 07:10:00,-2.7,-19.2,29.41,NE,45,5.6,5.6,44,0.00,,---,0.00,VWS V14.01,2013-01-25 12:10:00,
2013-01-25 07:11:00,-2.7,-19.2,29.41,NE,45,5.6,5.6,44,0.00,,---,0.00,VWS V14.01,2013-01-25 12:11:00,
2013-01-25 07:12:00,-2.7,-19.2,29.41,SSE,158,3.8,5.6,44,0.00,,---,0.00,VWS V14.01,2013-01-25 12:12:00,
2013-01-25 07:13:00,-2.7,-19.2,29.41,South,180,2.7,2.7,44,0.00,,---,0.00,VWS V14.01,2013-01-25 12:13:00,
2013-01-25 07:14:00,-2.7,-19.2,29.41,WNW,292,3.6,3.6,44,0.00,,---,0.00,VWS V14.01,2013-01-25 12:14:00,
2013-01-25 07:15:00,-2.9,-19.4,29.41,WNW,292,3.6,3.6,44,0.00,,---,0.00,VWS V14.01,2013-01-25 12:15:00,
2013-01-25 07:16:00,-2.9,-19.4,29.41,WNW,292,3.6,3.6,44,0.00,,---,0.00,VWS V14.01,2013-01-25 12:16:00,
2013-01-25 07:17:00,-2.7,-19.2,29.41,WNW,292,3.6,3.6,44,0.00,,---,0.00,VWS V14.01,2013-01-25 12:17:00,
2013-01-25 07:18:00,-2.7,-19.2,29.41,WNW,292,3.6,3.6,44,0.00,,---,0.00,VWS V14.01,2013-01-25 12:18:00,
2013-01-25 07:19:00,-2.7,-19.2,29.41,NNE,22,1.6,3.6,44,0.00,,---,0.00,VWS V14.01,2013-01-25 12:19:00,
2013-01-25 07:20:00,-2.7,-19.2,29.41,WSW,248,2.7,2.7,44,0.00,,---,0.00,VWS V14.01,2013-01-25 12:20:00,
2013-01-25 07:21:00,-2.7,-19.2,29.41,South,180,5.8,5.8,44,0.00,,---,0.00,VWS V14.01,2013-01-25 12:21:00,
2013-01-25 07:22:00,-2.7,-19.2,29.41,NNE,22,5.8,5.8,44,0.00,,---,0.00,VWS V14.01,2013-01-25 12:22:00,
2013-01-25 07:23:00,-2.7,-19.2,29.44,WSW,248,1.6,5.8,44,0.00,,---,0.00,VWS V14.01,2013-01-25 12:23:00,
2013-01-25 07:24:00,-2.7,-19.2,29.44,WSW,248,1.6,1.6,44,0.00,,---,0.00,VWS V14.01,2013-01-25 12:24:00,
2013-01-25 07:25:00,-2.7,-19.2,29.44,WSW,248,1.6,1.6,44,0.00,,---,0.00,VWS V14.01,2013-01-25 12:25:00,
2013-01-25 07:26:00,-2.7,-19.2,29.44,ESE,112,2.7,2.7,44,0.00,,---,0.00,VWS V14.01,2013-01-25 12:26:00,
2013-01-25 07:27:00,-2.7,-19.2,29.44,ESE,112,2.7,2.7,44,0.00,,---,0.00,VWS V14.01,2013-01-25 12:27:00,
2013-01-25 07:28:00,-2.7,-19.2,29.44,NNE,22,2.5,7.4,44,0.00,,---,0.00,VWS V14.01,2013-01-25 12:28:00,
2013-01-25 07:29:00,-2.7,-19.2,29.44,West,270,2.7,2.7,44,0.00,,---,0.00,VWS V14.01,2013-01-25 12:29:00,
2013-01-25 07:30:00,-2.7,-19.2,29.44,SW,225,1.3,2.7,44,0.00,,---,0.00,VWS V14.01,2013-01-25 12:30:00,
2013-01-25 07:31:00,-2.7,-19.2,29.44,SW,225,1.3,1.3,44,0.00,,---,0.00,VWS V14.01,2013-01-25 12:31:00,
2013-01-25 07:32:00,-2.7,-19.2,29.44,SSW,202,2.0,2.0,44,0.00,,---,0.00,VWS V14.01,2013-01-25 12:32:00,
2013-01-25 07:33:00,-2.7,-19.2,29.44,SSW,202,2.7,2.7,44,0.00,,---,0.00,VWS V14.01,2013-01-25 12:33:00,
2013-01-25 07:34:00,-2.7,-19.2,29.44,SSW,202,1.6,2.7,44,0.00,,---,0.00,VWS V14.01,2013-01-25 12:34:00,
2013-01-25 07:35:00,-2.7,-19.2,29.44,WNW,292,2.7,2.7,44,0.00,,---,0.00,VWS V14.01,2013-01-25 12:35:00,
2013-01-25 07:36:00,-2.7,-19.2,29.44,WNW,292,1.6,2.7,44,0.00,,---,0.00,VWS V14.01,2013-01-25 12:36:00,
2013-01-25 07:37:00,-2.7,-19.2,29.44,SSE,158,2.2,2.2,44,0.00,,---,0.00,VWS V14.01,2013-01-25 12:37:00,
2013-01-25 07:38:00,-2.7,-19.2,29.41,ENE,68,0.9,2.2,44,0.00,,---,0.00,VWS V14.01,2013-01-25 12:38:00,
2013-01-25 07:39:00,-2.7,-19.2,29.41,SE,135,4.3,4.3,44,0.00,,---,0.00,VWS V14.01,2013-01-25 12:39:00,
2013-01-25 07:40:00,-2.7,-19.2,29.41,SE,135,4.3,4.3,44,0.00,,---,0.00,VWS V14.01,2013-01-25 12:40:00,
2013-01-25 07:41:00,-2.7,-19.2,29.41,SSW,202,1.3,4.3,44,0.00,,---,0.00,VWS V14.01,2013-01-25 12:41:00,
2013-01-25 07:42:00,-2.7,-19.2,29.41,SSE,158,3.4,3.4,44,0.00,,---,0.00,VWS V14.01,2013-01-25 12:42:00,
2013-01-25 07:43:00,-2.7,-19.2,29.41,SSE,158,1.6,3.4,44,0.00,,---,0.00,VWS V14.01,2013-01-25 12:43:00,
2013-01-25 07:44:00,-2.7,-19.2,29.41,ENE,68,2.0,2.0,44,0.00,,---,0.00,VWS V14.01,2013-01-25 12:44:00,
2013-01-25 07:45:00,-2.7,-19.2,29.41,South,180,2.5,2.5,44,0.00,,---,0.00,VWS V14.01,2013-01-25 12:45:00,
2013-01-25 07:46:00,-2.6,-19.1,29.41,NNW,338,2.9,5.8,44,0.00,,---,0.00,VWS V14.01,2013-01-25 12:46:00,
2013-01-25 07:47:00,-2.6,-19.1,29.41,NNW,338,2.9,2.9,44,0.00,,---,0.00,VWS V14.01,2013-01-25 12:47:00,
2013-01-25 07:48:00,-2.6,-19.1,29.41,SSE,158,5.4,5.4,44,0.00,,---,0.00,VWS V14.01,2013-01-25 12:48:00,
2013-01-25 07:49:00,-2.6,-19.1,29.41,SSE,158,5.4,5.4,44,0.00,,---,0.00,VWS V14.01,2013-01-25 12:49:00,
2013-01-25 07:50:00,-2.6,-19.1,29.41,SE,135,1.6,5.4,44,0.00,,---,0.00,VWS V14.01,2013-01-25 12:50:00,
2013-01-25 07:51:00,-2.6,-19.1,29.41,SSE,158,3.6,3.6,44,0.00,,---,0.00,VWS V14.01,2013-01-25 12:51:00,
2013-01-25 07:52:00,-2.6,-19.1,29.41,SSE,158,3.6,3.6,44,0.00,,---,0.00,VWS V14.01,2013-01-25 12:52:00,
2013-01-25 07:53:00,-2.4,-18.9,29.44,SSE,158,3.1,3.6,44,0.00,,---,0.00,VWS V14.01,2013-01-25 12:53:00,
2013-01-25 07:54:00,-2.4,-18.9,29.44,SSE,158,3.1,3.1,44,0.00,,---,0.00,VWS V14.01,2013-01-25 12:54:00,
2013-01-25 07:55:00,-2.4,-18.9,29.44,NE,45,4.3,4.3,44,0.00,,---,0.00,VWS V14.01,2013-01-25 12:55:00,
2013-01-25 07:56:00,-2.4,-18.9,29.44,NE,45,1.1,4.3,44,0.00,,---,0.00,VWS V14.01,2013-01-25 12:56:00,
2013-01-25 07:57:00,-2.4,-18.9,29.44,WNW,292,2.5,2.5,44,0.00,,---,0.00,VWS V14.01,2013-01-25 12:57:00,
2013-01-25 07:58:00,-2.4,-18.9,29.44,WNW,292,0.0,2.5,44,0.00,,---,0.00,VWS V14.01,2013-01-25 12:58:00,
2013-01-25 07:59:00,-2.2,-18.8,29.44,West,270,2.0,2.0,44,0.00,,---,0.00,VWS V14.01,2013-01-25 12:59:00,
2013-01-25 08:00:00,-2.2,-18.8,29.44,WNW,292,2.9,2.9,44,0.00,,---,0.00,VWS V14.01,2013-01-25 13:00:00,
2013-01-25 08:01:00,-2.2,-18.8,29.44,WNW,292,0.0,2.9,44,0.00,,---,0.00,VWS V14.01,2013-01-25 13:01:00,
2013-01-25 08:02:00,-2.2,-18.8,29.44,WNW,292,2.5,2.5,44,0.00,,---,0.00,VWS V14.01,2013-01-25 13:02:00,
2013-01-25 08:03:00,-2.2,-18.8,29.44,South,180,0.9,1.1,44,0.00,,---,0.00,VWS V14.01,2013-01-25 13:03:00,
2013-01-25 08:04:00,-2.2,-18.8,29.44,South,180,0.0,0.9,44,0.00,,---,0.00,VWS V14.01,2013-01-25 13:04:00,
2013-01-25 08:05:00,-2.2,-18.8,29.44,South,180,0.0,0.0,44,0.00,,---,0.00,VWS V14.01,2013-01-25 13:05:00,
2013-01-25 08:06:00,-2.2,-18.8,29.44,South,180,0.0,0.0,44,0.00,,---,0.00,VWS V14.01,2013-01-25 13:06:00,
2013-01-25 08:07:00,-2.0,-18.6,29.44,South,180,0.0,0.0,44,0.00,,---,0.00,VWS V14.01,2013-01-25 13:07:00,
2013-01-25 08:08:00,-2.0,-18.6,29.44,South,180,1.1,1.1,44,0.00,,---,0.00,VWS V14.01,2013-01-25 13:08:00,
2013-01-25 08:09:00,-2.0,-18.6,29.44,South,180,3.1,3.1,44,0.00,,---,0.00,VWS V14.01,2013-01-25 13:09:00,
2013-01-25 08:10:00,-1.8,-18.4,29.44,South,180,2.0,3.1,44,0.00,,---,0.00,VWS V14.01,2013-01-25 13:10:00,
2013-01-25 08:11:00,-1.8,-18.4,29.44,SSE,158,2.2,2.5,44,0.00,,---,0.00,VWS V14.01,2013-01-25 13:11:00,
2013-01-25 08:12:00,-1.8,-18.4,29.44,SSE,158,1.3,2.2,44,0.00,,---,0.00,VWS V14.01,2013-01-25 13:12:00,
2013-01-25 08:13:00,-1.8,-18.4,29.44,WNW,292,3.1,3.1,44,0.00,,---,0.00,VWS V14.01,2013-01-25 13:13:00,
2013-01-25 08:14:00,-1.5,-18.1,29.44,WNW,292,3.1,3.1,44,0.00,,---,0.00,VWS V14.01,2013-01-25 13:14:00,
2013-01-25 08:15:00,-1.5,-18.1,29.44,South,180,2.9,3.1,44,0.00,,---,0.00,VWS V14.01,2013-01-25 13:15:00,
2013-01-25 08:16:00,-1.5,-18.1,29.44,WNW,292,3.4,3.4,44,0.00,,---,0.00,VWS V14.01,2013-01-25 13:16:00,
2013-01-25 08:17:00,-1.5,-18.1,29.44,WNW,292,2.5,3.4,44,0.00,,---,0.00,VWS V14.01,2013-01-25 13:17:00,
2013-01-25 08:18:00,-1.5,-18.1,29.44,WNW,292,2.7,3.4,44,0.00,,---,0.00,VWS V14.01,2013-01-25 13:18:00,
2013-01-25 08:19:00,-1.3,-17.9,29.44,SSW,202,3.4,3.4,44,0.00,,---,0.00,VWS V14.01,2013-01-25 13:19:00,
2013-01-25 08:20:00,-1.3,-17.9,29.44,SSW,202,2.5,3.4,44,0.00,,---,0.00,VWS V14.01,2013-01-25 13:20:00,
2013-01-25 08:21:00,-1.3,-17.9,29.44,SSE,158,2.0,2.5,44,0.00,,---,0.00,VWS V14.01,2013-01-25 13:21:00,
2013-01-25 08:22:00,-1.3,-17.9,29.44,WNW,292,2.0,2.0,44,0.00,,---,0.00,VWS V14.01,2013-01-25 13:22:00,
2013-01-25 08:23:00,-1.1,-17.8,29.44,WNW,292,5.4,5.4,44,0.00,,---,0.00,VWS V14.01,2013-01-25 13:23:00,
2013-01-25 08:24:00,-1.1,-17.8,29.44,WNW,292,5.4,5.4,44,0.00,,---,0.00,VWS V14.01,2013-01-25 13:24:00,
2013-01-25 08:25:00,-1.1,-17.8,29.44,NNW,338,4.3,5.4,44,0.00,,---,0.00,VWS V14.01,2013-01-25 13:25:00,
2013-01-25 08:26:00,-0.9,-17.6,29.44,West,270,4.0,4.3,44,0.00,,---,0.00,VWS V14.01,2013-01-25 13:26:00,
2013-01-25 08:27:00,-0.9,-17.6,29.44,West,270,2.2,4.0,44,0.00,,---,0.00,VWS V14.01,2013-01-25 13:27:00,
2013-01-25 08:28:00,-0.8,-17.4,29.44,West,270,2.5,2.5,44,0.00,,---,0.00,VWS V14.01,2013-01-25 13:28:00,
2013-01-25 08:29:00,-0.6,-17.3,29.44,West,270,2.5,2.5,44,0.00,,---,0.00,VWS V14.01,2013-01-25 13:29:00,
2013-01-25 08:30:00,-0.6,-17.3,29.44,WSW,248,1.3,2.7,44,0.00,,---,0.00,VWS V14.01,2013-01-25 13:30:00,
2013-01-25 08:31:00,-0.6,-17.3,29.44,WSW,248,1.3,1.3,44,0.00,,---,0.00,VWS V14.01,2013-01-25 13:31:00,
2013-01-25 08:32:00,-0.6,-17.3,29.44,SSW,202,3.4,3.4,44,0.00,,---,0.00,VWS V14.01,2013-01-25 13:32:00,
2013-01-25 08:33:00,-0.4,-17.1,29.44,SSW,202,1.6,1.6,44,0.00,,---,0.00,VWS V14.01,2013-01-25 13:33:00,
2013-01-25 08:34:00,-0.4,-17.1,29.44,SSE,158,2.7,2.7,44,0.00,,---,0.00,VWS V14.01,2013-01-25 13:34:00,
2013-01-25 08:35:00,-0.4,-17.1,29.44,ESE,112,1.3,2.7,44,0.00,,---,0.00,VWS V14.01,2013-01-25 13:35:00,
2013-01-25 08:36:00,-0.4,-17.1,29.44,ESE,112,1.3,1.3,44,0.00,,---,0.00,VWS V14.01,2013-01-25 13:36:00,
2013-01-25 08:37:00,-0.4,-17.1,29.44,SW,225,3.6,5.6,44,0.00,,---,0.00,VWS V14.01,2013-01-25 13:37:00,
2013-01-25 08:38:00,-0.4,-17.1,29.44,SW,225,3.6,3.6,44,0.00,,---,0.00,VWS V14.01,2013-01-25 13:38:00,
2013-01-25 08:39:00,-0.2,-16.9,29.44,SSW,202,1.3,3.6,44,0.00,,---,0.00,VWS V14.01,2013-01-25 13:39:00,
2013-01-25 08:40:00,0.0,-16.8,29.44,SSW,202,2.2,2.7,44,0.00,,---,0.00,VWS V14.01,2013-01-25 13:40:00,
2013-01-25 08:41:00,0.0,-16.8,29.44,South,180,2.2,2.2,44,0.00,,---,0.00,VWS V14.01,2013-01-25 13:41:00,
2013-01-25 08:42:00,0.1,-16.6,29.44,South,180,1.6,2.2,44,0.00,,---,0.00,VWS V14.01,2013-01-25 13:42:00,
2013-01-25 08:43:00,0.1,-16.6,29.44,WSW,248,2.5,2.5,44,0.00,,---,0.00,VWS V14.01,2013-01-25 13:43:00,
2013-01-25 08:44:00,0.3,-16.4,29.44,SSE,158,2.7,2.7,44,0.00,,---,0.00,VWS V14.01,2013-01-25 13:44:00,
2013-01-25 08:45:00,0.5,-16.3,29.44,SSE,158,2.7,2.7,44,0.00,,---,0.00,VWS V14.01,2013-01-25 13:45:00,
2013-01-25 08:46:00,0.5,-16.3,29.44,SSW,202,2.5,3.1,44,0.00,,---,0.00,VWS V14.01,2013-01-25 13:46:00,
2013-01-25 08:47:00,0.7,-16.1,29.44,SSW,202,2.5,2.5,44,0.00,,---,0.00,VWS V14.01,2013-01-25 13:47:00,
2013-01-25 08:48:00,0.7,-16.1,29.44,South,180,2.2,2.5,44,0.00,,---,0.00,VWS V14.01,2013-01-25 13:48:00,
2013-01-25 08:49:00,0.9,-15.9,29.44,SSE,158,3.1,3.1,44,0.00,,---,0.00,VWS V14.01,2013-01-25 13:49:00,
2013-01-25 08:50:00,0.9,-15.9,29.44,SSW,202,1.3,3.1,44,0.00,,---,0.00,VWS V14.01,2013-01-25 13:50:00,
2013-01-25 08:51:00,0.9,-15.9,29.44,SSE,158,2.2,2.2,44,0.00,,---,0.00,VWS V14.01,2013-01-25 13:51:00,
2013-01-25 08:52:00,0.9,-15.9,29.44,SSE,158,3.8,3.8,44,0.00,,---,0.00,VWS V14.01,2013-01-25 13:52:00,
2013-01-25 08:53:00,0.9,-15.9,29.44,WNW,292,5.6,5.6,44,0.00,,---,0.00,VWS V14.01,2013-01-25 13:53:00,
2013-01-25 08:54:00,0.9,-15.9,29.44,SE,135,2.5,5.6,44,0.00,,---,0.00,VWS V14.01,2013-01-25 13:54:00,
2013-01-25 08:55:00,1.2,-15.6,29.44,SW,225,2.0,2.7,44,0.00,,---,0.00,VWS V14.01,2013-01-25 13:55:00,
2013-01-25 08:56:00,1.2,-15.6,29.44,WNW,292,3.4,3.4,44,0.00,,---,0.00,VWS V14.01,2013-01-25 13:56:00,
2013-01-25 08:57:00,1.2,-15.6,29.44,West,270,2.0,3.4,44,0.00,,---,0.00,VWS V14.01,2013-01-25 13:57:00,
2013-01-25 08:58:00,1.4,-15.4,29.44,SSE,158,2.0,2.0,44,0.00,,---,0.00,VWS V14.01,2013-01-25 13:58:00,
2013-01-25 08:59:00,1.4,-15.4,29.44,WNW,292,4.0,4.0,44,0.00,,---,0.00,VWS V14.01,2013-01-25 13:59:00,
2013-01-25 09:00:00,1.4,-15.4,29.44,SSW,202,3.4,4.0,44,0.00,,---,0.00,VWS V14.01,2013-01-25 14:00:00,
2013-01-25 09:01:00,1.4,-15.4,29.44,WSW,248,1.1,3.4,44,0.00,,---,0.00,VWS V14.01,2013-01-25 14:01:00,
2013-01-25 09:02:00,1.4,-15.4,29.44,SSW,202,2.0,2.0,44,0.00,,---,0.00,VWS V14.01,2013-01-25 14:02:00,
2013-01-25 09:03:00,1.6,-15.3,29.44,SSW,202,2.0,2.0,44,0.00,,---,0.00,VWS V14.01,2013-01-25 14:03:00,
2013-01-25 09:04:00,1.6,-15.3,29.44,WSW,248,3.4,3.4,44,0.00,,---,0.00,VWS V14.01,2013-01-25 14:04:00,
2013-01-25 09:05:00,1.9,-14.9,29.44,WNW,292,1.3,3.4,44,0.00,,---,0.00,VWS V14.01,2013-01-25 14:05:00,
2013-01-25 09:06:00,1.9,-14.9,29.44,WNW,292,1.3,1.3,44,0.00,,---,0.00,VWS V14.01,2013-01-25 14:06:00,
2013-01-25 09:07:00,1.9,-14.9,29.44,NW,315,1.3,1.3,44,0.00,,---,0.00,VWS V14.01,2013-01-25 14:07:00,
2013-01-25 09:08:00,1.9,-14.9,29.44,NW,315,1.3,2.5,44,0.00,,---,0.00,VWS V14.01,2013-01-25 14:08:00,
2013-01-25 09:09:00,2.3,-14.6,29.44,NW,315,1.6,1.6,44,0.00,,---,0.00,VWS V14.01,2013-01-25 14:09:00,
2013-01-25 09:10:00,2.3,-14.6,29.44,NW,315,1.6,1.6,44,0.00,,---,0.00,VWS V14.01,2013-01-25 14:10:00,
2013-01-25 09:11:00,2.5,-14.4,29.41,SSW,202,1.6,2.7,44,0.00,,---,0.00,VWS V14.01,2013-01-25 14:11:00,
2013-01-25 09:12:00,2.8,-14.1,29.41,SSW,202,1.6,1.6,44,0.00,,---,0.00,VWS V14.01,2013-01-25 14:12:00,
2013-01-25 09:13:00,2.8,-14.1,29.41,SSW,202,1.3,1.6,44,0.00,,---,0.00,VWS V14.01,2013-01-25 14:13:00,
2013-01-25 09:14:00,2.8,-14.1,29.41,WSW,248,2.7,2.7,44,0.00,,---,0.00,VWS V14.01,2013-01-25 14:14:00,
2013-01-25 09:15:00,2.8,-14.1,29.41,WSW,248,2.5,2.7,44,0.00,,---,0.00,VWS V14.01,2013-01-25 14:15:00,
2013-01-25 09:16:00,3.2,-13.8,29.41,WSW,248,0.9,2.5,44,0.00,,---,0.00,VWS V14.01,2013-01-25 14:16:00,
2013-01-25 09:17:00,3.2,-13.8,29.41,SW,225,2.5,2.5,44,0.00,,---,0.00,VWS V14.01,2013-01-25 14:17:00,
2013-01-25 09:18:00,3.2,-13.8,29.41,WSW,248,2.7,2.7,44,0.00,,---,0.00,VWS V14.01,2013-01-25 14:18:00,
2013-01-25 09:19:00,3.2,-13.8,29.41,SSW,202,2.9,2.9,44,0.00,,---,0.00,VWS V14.01,2013-01-25 14:19:00,
2013-01-25 09:20:00,3.2,-13.8,29.41,WNW,292,2.2,2.9,44,0.00,,---,0.00,VWS V14.01,2013-01-25 14:20:00,
2013-01-25 09:21:00,3.4,-13.6,29.41,WSW,248,2.7,2.7,44,0.00,,---,0.00,VWS V14.01,2013-01-25 14:21:00,
2013-01-25 09:22:00,3.4,-13.6,29.41,SSE,158,2.0,2.7,44,0.00,,---,0.00,VWS V14.01,2013-01-25 14:22:00,
2013-01-25 09:23:00,3.7,-13.3,29.44,ESE,112,5.4,5.4,44,0.00,,---,0.00,VWS V14.01,2013-01-25 14:23:00,
2013-01-25 09:24:00,3.6,-13.5,29.44,SW,225,2.5,5.4,44,0.00,,---,0.00,VWS V14.01,2013-01-25 14:24:00,
2013-01-25 09:25:00,3.6,-13.5,29.44,WSW,248,3.4,3.4,44,0.00,,---,0.00,VWS V14.01,2013-01-25 14:25:00,
2013-01-25 09:26:00,3.7,-13.3,29.44,WSW,248,3.4,3.4,44,0.00,,---,0.00,VWS V14.01,2013-01-25 14:26:00,
2013-01-25 09:27:00,3.7,-13.3,29.44,WSW,248,3.4,3.4,44,0.00,,---,0.00,VWS V14.01,2013-01-25 14:27:00,
2013-01-25 09:28:00,3.7,-13.3,29.44,WNW,292,4.0,4.0,44,0.00,,---,0.00,VWS V14.01,2013-01-25 14:28:00,
2013-01-25 09:29:00,3.7,-13.3,29.44,WNW,292,4.0,4.0,44,0.00,,---,0.00,VWS V14.01,2013-01-25 14:29:00,
2013-01-25 09:30:00,3.7,-13.3,29.44,WNW,292,4.0,4.0,44,0.00,,---,0.00,VWS V14.01,2013-01-25 14:30:00,
2013-01-25 09:31:00,3.7,-13.3,29.44,WNW,292,4.0,4.0,44,0.00,,---,0.00,VWS V14.01,2013-01-25 14:31:00,
2013-01-25 09:32:00,3.7,-13.3,29.44,WNW,292,4.0,4.0,44,0.00,,---,0.00,VWS V14.01,2013-01-25 14:32:00,
2013-01-25 09:33:00,3.7,-13.3,29.44,WSW,248,3.8,3.8,44,0.00,,---,0.00,VWS V14.01,2013-01-25 14:33:00,
2013-01-25 09:34:00,3.7,-13.3,29.44,West,270,4.3,4.3,44,0.00,,---,0.00,VWS V14.01,2013-01-25 14:34:00,
2013-01-25 09:35:00,4.1,-13.0,29.44,ENE,68,2.0,4.3,44,0.00,,---,0.00,VWS V14.01,2013-01-25 14:35:00,
2013-01-25 09:36:00,4.1,-13.0,29.44,WSW,248,4.7,4.7,44,0.00,,---,0.00,VWS V14.01,2013-01-25 14:36:00,
2013-01-25 09:37:00,4.1,-13.0,29.44,WNW,292,5.4,5.4,44,0.00,,---,0.00,VWS V14.01,2013-01-25 14:37:00,
2013-01-25 09:38:00,4.1,-13.0,29.44,WNW,292,5.4,5.4,44,0.00,,---,0.00,VWS V14.01,2013-01-25 14:38:00,
2013-01-25 09:39:00,4.1,-13.0,29.44,West,270,3.1,5.4,44,0.00,,---,0.00,VWS V14.01,2013-01-25 14:39:00,
2013-01-25 09:40:00,4.5,-12.6,29.44,WSW,248,3.6,3.6,44,0.00,,---,0.00,VWS V14.01,2013-01-25 14:40:00,
2013-01-25 09:41:00,4.5,-12.6,29.44,NNE,22,2.7,4.3,44,0.00,,---,0.00,VWS V14.01,2013-01-25 14:41:00,
2013-01-25 09:42:00,4.3,-12.8,29.44,NNE,22,2.5,2.7,44,0.00,,---,0.00,VWS V14.01,2013-01-25 14:42:00,
2013-01-25 09:43:00,4.3,-12.8,29.44,NNE,22,2.5,2.5,44,0.00,,---,0.00,VWS V14.01,2013-01-25 14:43:00,
2013-01-25 09:44:00,4.1,-13.0,29.44,NNW,338,3.1,3.1,44,0.00,,---,0.00,VWS V14.01,2013-01-25 14:44:00,
2013-01-25 09:45:00,4.6,-12.5,29.44,NNW,338,3.1,3.1,44,0.00,,---,0.00,VWS V14.01,2013-01-25 14:45:00,
2013-01-25 09:46:00,4.6,-12.5,29.44,WSW,248,1.6,3.1,44,0.00,,---,0.00,VWS V14.01,2013-01-25 14:46:00,
2013-01-25 09:47:00,4.6,-12.5,29.44,WNW,292,2.9,2.9,44,0.00,,---,0.00,VWS V14.01,2013-01-25 14:47:00,
2013-01-25 09:48:00,4.6,-12.5,29.44,NNW,338,3.4,3.4,44,0.00,,---,0.00,VWS V14.01,2013-01-25 14:48:00,
2013-01-25 09:49:00,4.6,-12.5,29.44,WSW,248,2.7,3.6,44,0.00,,---,0.00,VWS V14.01,2013-01-25 14:49:00,
2013-01-25 09:50:00,4.6,-12.5,29.44,SSW,202,2.5,2.7,44,0.00,,---,0.00,VWS V14.01,2013-01-25 14:50:00,
2013-01-25 09:51:00,4.6,-12.5,29.44,WNW,292,5.8,5.8,44,0.00,,---,0.00,VWS V14.01,2013-01-25 14:51:00,
2013-01-25 09:52:00,4.6,-12.5,29.44,WSW,248,7.2,7.2,44,0.00,,---,0.00,VWS V14.01,2013-01-25 14:52:00,
2013-01-25 09:53:00,4.3,-12.8,29.44,WNW,292,3.1,7.2,44,0.00,,---,0.00,VWS V14.01,2013-01-25 14:53:00,
2013-01-25 09:54:00,4.3,-12.8,29.44,SSW,202,2.7,3.1,44,0.00,,---,0.00,VWS V14.01,2013-01-25 14:54:00,
2013-01-25 09:55:00,4.3,-12.8,29.44,NNW,338,2.7,2.7,44,0.00,,---,0.00,VWS V14.01,2013-01-25 14:55:00,
2013-01-25 09:56:00,5.0,-12.1,29.44,NNW,338,2.7,2.7,44,0.00,,---,0.00,VWS V14.01,2013-01-25 14:56:00,
2013-01-25 09:57:00,5.0,-12.1,29.44,WNW,292,3.8,3.8,44,0.00,,---,0.00,VWS V14.01,2013-01-25 14:57:00,
2013-01-25 09:58:00,4.6,-12.5,29.44,WNW,292,6.5,6.5,44,0.00,,---,0.00,VWS V14.01,2013-01-25 14:58:00,
2013-01-25 09:59:00,4.6,-12.5,29.44,West,270,2.9,6.5,44,0.00,,---,0.00,VWS V14.01,2013-01-25 14:59:00,
2013-01-25 10:00:00,4.5,-12.6,29.44,WNW,292,2.9,2.9,44,0.00,,---,0.00,VWS V14.01,2013-01-25 15:00:00,
2013-01-25 10:01:00,4.5,-12.6,29.44,West,270,3.8,3.8,44,0.00,,---,0.00,VWS V14.01,2013-01-25 15:01:00,
2013-01-25 10:02:00,4.5,-12.6,29.44,WNW,292,3.4,3.8,44,0.00,,---,0.00,VWS V14.01,2013-01-25 15:02:00,
2013-01-25 10:03:00,4.5,-12.6,29.44,WNW,292,3.4,3.4,44,0.00,,---,0.00,VWS V14.01,2013-01-25 15:03:00,
2013-01-25 10:04:00,5.0,-12.1,29.44,WNW,292,2.7,3.4,44,0.00,,---,0.00,VWS V14.01,2013-01-25 15:04:00,
2013-01-25 10:05:00,5.0,-12.1,29.44,WNW,292,3.6,3.6,44,0.00,,---,0.00,VWS V14.01,2013-01-25 15:05:00,
2013-01-25 10:06:00,5.0,-12.1,29.44,WNW,292,3.6,3.6,44,0.00,,---,0.00,VWS V14.01,2013-01-25 15:06:00,
2013-01-25 10:07:00,5.0,-12.1,29.44,WNW,292,3.6,3.6,44,0.00,,---,0.00,VWS V14.01,2013-01-25 15:07:00,
2013-01-25 10:08:00,5.0,-12.1,29.44,NNE,22,2.7,2.7,44,0.00,,---,0.00,VWS V14.01,2013-01-25 15:08:00,
2013-01-25 10:09:00,5.0,-12.1,29.44,SSW,202,6.0,6.0,44,0.00,,---,0.00,VWS V14.01,2013-01-25 15:09:00,
2013-01-25 10:10:00,5.0,-12.1,29.44,SSW,202,6.0,6.0,44,0.00,,---,0.00,VWS V14.01,2013-01-25 15:10:00,
2013-01-25 10:11:00,5.4,-11.8,29.44,NNW,338,2.2,6.0,44,0.00,,---,0.00,VWS V14.01,2013-01-25 15:11:00,
2013-01-25 10:12:00,5.4,-11.8,29.44,NNW,338,2.2,2.2,44,0.00,,---,0.00,VWS V14.01,2013-01-25 15:12:00,
2013-01-25 10:13:00,5.4,-11.8,29.44,NNW,338,4.0,4.0,44,0.00,,---,0.00,VWS V14.01,2013-01-25 15:13:00,
2013-01-25 10:14:00,5.5,-11.6,29.44,NW,315,4.3,4.3,44,0.00,,---,0.00,VWS V14.01,2013-01-25 15:14:00,
2013-01-25 10:15:00,5.9,-11.3,29.44,NW,315,4.3,4.3,44,0.00,,---,0.00,VWS V14.01,2013-01-25 15:15:00,
2013-01-25 10:16:00,5.9,-11.3,29.44,NW,315,4.3,4.3,44,0.00,,---,0.00,VWS V14.01,2013-01-25 15:16:00,
2013-01-25 10:17:00,5.9,-11.3,29.44,West,270,3.1,4.3,44,0.00,,---,0.00,VWS V14.01,2013-01-25 15:17:00,
2013-01-25 10:18:00,6.1,-11.1,29.44,WSW,248,3.1,3.1,44,0.00,,---,0.00,VWS V14.01,2013-01-25 15:18:00,
2013-01-25 10:19:00,6.3,-11.0,29.44,WSW,248,3.6,3.6,44,0.00,,---,0.00,VWS V14.01,2013-01-25 15:19:00,
2013-01-25 10:20:00,6.3,-11.0,29.44,West,270,3.6,3.6,44,0.00,,---,0.00,VWS V14.01,2013-01-25 15:20:00,
2013-01-25 10:21:00,6.3,-11.0,29.44,WSW,248,2.5,3.6,44,0.00,,---,0.00,VWS V14.01,2013-01-25 15:21:00,
2013-01-25 10:22:00,6.3,-11.0,29.44,WSW,248,2.2,2.5,44,0.00,,---,0.00,VWS V14.01,2013-01-25 15:22:00,
2013-01-25 10:23:00,6.4,-10.8,29.41,SSW,202,2.2,2.2,44,0.00,,---,0.00,VWS V14.01,2013-01-25 15:23:00,
2013-01-25 10:24:00,6.4,-10.8,29.41,SSW,202,2.2,2.2,44,0.00,,---,0.00,VWS V14.01,2013-01-25 15:24:00,
2013-01-25 10:25:00,6.6,-10.6,29.41,SSW,202,2.2,2.2,44,0.00,,---,0.00,VWS V14.01,2013-01-25 15:25:00,
2013-01-25 10:26:00,6.8,-10.5,29.41,SSW,202,2.2,2.2,44,0.00,,---,0.00,VWS V14.01,2013-01-25 15:26:00,
2013-01-25 10:27:00,6.8,-10.5,29.41,SSW,202,2.2,2.2,44,0.00,,---,0.00,VWS V14.01,2013-01-25 15:27:00,
2013-01-25 10:28:00,7.0,-10.3,29.41,WNW,292,3.4,3.4,44,0.00,,---,0.00,VWS V14.01,2013-01-25 15:28:00,
2013-01-25 10:29:00,7.0,-10.3,29.41,WNW,292,3.4,3.4,44,0.00,,---,0.00,VWS V14.01,2013-01-25 15:29:00,
2013-01-25 10:30:00,6.4,-10.8,29.41,WNW,292,3.4,3.4,44,0.00,,---,0.00,VWS V14.01,2013-01-25 15:30:00,
2013-01-25 10:31:00,6.4,-10.8,29.41,NW,315,1.6,3.4,44,0.00,,---,0.00,VWS V14.01,2013-01-25 15:31:00,
2013-01-25 10:32:00,7.0,-10.3,29.41,NW,315,0.9,1.6,44,0.00,,---,0.00,VWS V14.01,2013-01-25 15:32:00,
2013-01-25 10:33:00,7.9,-9.5,29.41,NW,315,0.9,0.9,44,0.00,,---,0.00,VWS V14.01,2013-01-25 15:33:00,
2013-01-25 10:34:00,7.9,-9.5,29.41,WSW,248,3.6,3.6,44,0.00,,---,0.00,VWS V14.01,2013-01-25 15:34:00,
2013-01-25 10:35:00,8.4,-9.0,29.41,WSW,248,3.4,3.6,44,0.00,,---,0.00,VWS V14.01,2013-01-25 15:35:00,
2013-01-25 10:36:00,8.6,-8.8,29.41,WSW,248,3.4,3.4,44,0.00,,---,0.00,VWS V14.01,2013-01-25 15:36:00,
2013-01-25 10:37:00,8.6,-8.8,29.41,WSW,248,2.9,3.4,44,0.00,,---,0.00,VWS V14.01,2013-01-25 15:37:00,
2013-01-25 10:38:00,8.6,-8.8,29.41,WSW,248,2.9,2.9,44,0.00,,---,0.00,VWS V14.01,2013-01-25 15:38:00,
2013-01-25 10:39:00,9.0,-8.5,29.41,ENE,68,4.0,4.0,44,0.00,,---,0.00,VWS V14.01,2013-01-25 15:39:00,
2013-01-25 10:40:00,9.0,-8.5,29.41,ENE,68,5.6,5.6,44,0.00,,---,0.00,VWS V14.01,2013-01-25 15:40:00,
2013-01-25 10:41:00,8.4,-9.0,29.41,SSE,158,2.5,5.6,44,0.00,,---,0.00,VWS V14.01,2013-01-25 15:41:00,
2013-01-25 10:42:00,8.4,-9.0,29.41,WNW,292,5.4,5.4,44,0.00,,---,0.00,VWS V14.01,2013-01-25 15:42:00,
2013-01-25 10:43:00,8.4,-9.0,29.41,WNW,292,2.0,2.7,44,0.00,,---,0.00,VWS V14.01,2013-01-25 15:43:00,
2013-01-25 10:44:00,8.6,-8.8,29.41,WNW,292,2.0,2.0,44,0.00,,---,0.00,VWS V14.01,2013-01-25 15:44:00,
2013-01-25 10:45:00,8.6,-8.8,29.41,WNW,292,2.0,2.0,44,0.00,,---,0.00,VWS V14.01,2013-01-25 15:45:00,
2013-01-25 10:46:00,9.0,-8.5,29.41,SSE,158,2.0,2.0,44,0.00,,---,0.00,VWS V14.01,2013-01-25 15:46:00,
2013-01-25 10:47:00,9.0,-8.5,29.41,WSW,248,3.6,3.6,44,0.00,,---,0.00,VWS V14.01,2013-01-25 15:47:00,
2013-01-25 10:48:00,9.1,-8.3,29.41,NNE,22,4.0,4.0,44,0.00,,---,0.00,VWS V14.01,2013-01-25 15:48:00,
2013-01-25 10:49:00,9.1,-8.3,29.41,ESE,112,1.6,4.0,44,0.00,,---,0.00,VWS V14.01,2013-01-25 15:49:00,
2013-01-25 10:50:00,9.1,-8.3,29.41,SSW,202,0.0,2.2,44,0.00,,---,0.00,VWS V14.01,2013-01-25 15:50:00,
2013-01-25 10:51:00,9.5,-8.0,29.41,WSW,248,3.1,3.1,44,0.00,,---,0.00,VWS V14.01,2013-01-25 15:51:00,
2013-01-25 10:52:00,9.5,-8.0,29.41,WSW,248,3.1,3.1,44,0.00,,---,0.00,VWS V14.01,2013-01-25 15:52:00,
2013-01-25 10:53:00,9.5,-8.0,29.41,WSW,248,4.0,4.0,44,0.00,,---,0.00,VWS V14.01,2013-01-25 15:53:00,
2013-01-25 10:54:00,9.3,-8.2,29.41,WSW,248,4.0,4.0,44,0.00,,---,0.00,VWS V14.01,2013-01-25 15:54:00,
2013-01-25 10:55:00,9.3,-8.2,29.41,WSW,248,2.9,4.0,44,0.00,,---,0.00,VWS V14.01,2013-01-25 15:55:00,
2013-01-25 10:56:00,9.3,-8.2,29.41,WSW,248,1.3,2.9,44,0.00,,---,0.00,VWS V14.01,2013-01-25 15:56:00,
2013-01-25 10:57:00,9.1,-8.3,29.41,ESE,112,3.8,3.8,44,0.00,,---,0.00,VWS V14.01,2013-01-25 15:57:00,
2013-01-25 10:58:00,9.3,-8.2,29.41,NW,315,3.6,3.8,44,0.00,,---,0.00,VWS V14.01,2013-01-25 15:58:00,
2013-01-25 10:59:00,9.5,-8.0,29.41,WSW,248,2.9,3.6,44,0.00,,---,0.00,VWS V14.01,2013-01-25 15:59:00,
2013-01-25 11:00:00,9.5,-8.0,29.41,WSW,248,2.9,2.9,44,0.00,,---,0.00,VWS V14.01,2013-01-25 16:00:00,
2013-01-25 11:01:00,9.5,-8.0,29.41,WSW,248,2.5,2.9,44,0.00,,---,0.00,VWS V14.01,2013-01-25 16:01:00,
2013-01-25 11:02:00,9.5,-8.0,29.41,West,270,3.6,3.6,44,0.00,,---,0.00,VWS V14.01,2013-01-25 16:02:00,
2013-01-25 11:03:00,10.2,-7.3,29.41,West,270,2.0,2.0,44,0.00,,---,0.00,VWS V14.01,2013-01-25 16:03:00,
2013-01-25 11:04:00,10.2,-7.3,29.41,WSW,248,2.7,2.7,44,0.00,,---,0.00,VWS V14.01,2013-01-25 16:04:00,
2013-01-25 11:05:00,10.8,-6.9,29.41,WSW,248,2.7,2.7,44,0.00,,---,0.00,VWS V14.01,2013-01-25 16:05:00,
2013-01-25 11:06:00,10.8,-6.9,29.41,NW,315,3.4,3.4,44,0.00,,---,0.00,VWS V14.01,2013-01-25 16:06:00,
2013-01-25 11:07:00,11.3,-6.4,29.41,NW,315,3.4,3.4,44,0.00,,---,0.00,VWS V14.01,2013-01-25 16:07:00,
2013-01-25 11:08:00,11.3,-6.4,29.38,WNW,292,2.5,2.7,44,0.00,,---,0.00,VWS V14.01,2013-01-25 16:08:00,
2013-01-25 11:09:00,11.7,-6.0,29.38,WSW,248,4.0,4.0,44,0.00,,---,0.00,VWS V14.01,2013-01-25 16:09:00,
2013-01-25 11:10:00,11.7,-6.0,29.38,WSW,248,4.0,4.0,44,0.00,,---,0.00,VWS V14.01,2013-01-25 16:10:00,
2013-01-25 11:11:00,11.7,-6.0,29.38,WSW,248,2.7,4.0,44,0.00,,---,0.00,VWS V14.01,2013-01-25 16:11:00,
2013-01-25 11:12:00,12.6,-5.2,29.38,WNW,292,5.4,5.4,44,0.00,,---,0.00,VWS V14.01,2013-01-25 16:12:00,
2013-01-25 11:13:00,12.6,-5.2,29.38,WNW,292,5.4,5.4,44,0.00,,---,0.00,VWS V14.01,2013-01-25 16:13:00,
2013-01-25 11:14:00,13.1,-4.7,29.38,West,270,6.0,6.0,44,0.00,,---,0.00,VWS V14.01,2013-01-25 16:14:00,
2013-01-25 11:15:00,12.0,-5.7,29.38,SSW,202,4.0,6.0,44,0.00,,---,0.00,VWS V14.01,2013-01-25 16:15:00,
2013-01-25 11:16:00,12.0,-5.7,29.38,WNW,292,4.0,4.0,44,0.00,,---,0.00,VWS V14.01,2013-01-25 16:16:00,
2013-01-25 11:17:00,12.0,-5.7,29.38,WNW,292,4.3,4.3,44,0.00,,---,0.00,VWS V14.01,2013-01-25 16:17:00,
2013-01-25 11:18:00,12.0,-5.7,29.38,NNW,338,6.0,6.0,44,0.00,,---,0.00,VWS V14.01,2013-01-25 16:18:00,
2013-01-25 11:19:00,12.0,-5.7,29.38,NNW,338,6.0,6.0,44,0.00,,---,0.00,VWS V14.01,2013-01-25 16:19:00,
2013-01-25 11:20:00,12.0,-5.7,29.38,NNW,338,6.0,6.0,44,0.00,,---,0.00,VWS V14.01,2013-01-25 16:20:00,
2013-01-25 11:21:00,12.9,-4.9,29.38,WNW,292,4.0,6.0,44,0.00,,---,0.00,VWS V14.01,2013-01-25 16:21:00,
2013-01-25 11:22:00,12.9,-4.9,29.38,WNW,292,3.8,4.0,44,0.00,,---,0.00,VWS V14.01,2013-01-25 16:22:00,
2013-01-25 11:23:00,14.2,-6.8,29.38,WNW,292,4.3,4.3,38,0.00,,---,0.00,VWS V14.01,2013-01-25 16:23:00,
2013-01-25 11:24:00,14.5,-7.0,29.38,WNW,292,4.3,4.3,37,0.00,,---,0.00,VWS V14.01,2013-01-25 16:24:00,
2013-01-25 11:25:00,14.5,-7.0,29.38,WNW,292,4.3,4.3,37,0.00,,---,0.00,VWS V14.01,2013-01-25 16:25:00,
2013-01-25 11:26:00,15.3,-6.3,29.38,WNW,292,4.3,4.3,37,0.00,,---,0.00,VWS V14.01,2013-01-25 16:26:00,
2013-01-25 11:27:00,15.3,-6.3,29.38,WNW,292,4.3,4.3,37,0.00,,---,0.00,VWS V14.01,2013-01-25 16:27:00,
2013-01-25 11:28:00,15.8,-5.8,29.38,WNW,292,4.3,4.3,37,0.00,,---,0.00,VWS V14.01,2013-01-25 16:28:00,
2013-01-25 11:29:00,16.2,-5.5,29.38,WNW,292,4.3,4.3,37,0.00,,---,0.00,VWS V14.01,2013-01-25 16:29:00,
2013-01-25 11:30:00,16.2,-5.5,29.38,WNW,292,4.3,4.3,37,0.00,,---,0.00,VWS V14.01,2013-01-25 16:30:00,
2013-01-25 11:31:00,15.6,-6.0,29.38,WNW,292,4.3,4.3,37,0.00,,---,0.00,VWS V14.01,2013-01-25 16:31:00,
2013-01-25 11:32:00,15.6,-6.0,29.38,WNW,292,4.3,4.3,37,0.00,,---,0.00,VWS V14.01,2013-01-25 16:32:00,
2013-01-25 11:33:00,15.6,-6.0,29.38,WNW,292,4.3,4.3,37,0.00,,---,0.00,VWS V14.01,2013-01-25 16:33:00,
2013-01-25 11:34:00,14.2,-7.9,29.38,West,270,2.9,4.3,36,0.00,,---,0.00,VWS V14.01,2013-01-25 16:34:00,
2013-01-25 11:35:00,12.9,-9.0,29.38,West,270,2.9,2.9,36,0.00,,---,0.00,VWS V14.01,2013-01-25 16:35:00,
2013-01-25 11:36:00,12.9,-9.0,29.38,West,270,2.9,2.9,36,0.00,,---,0.00,VWS V14.01,2013-01-25 16:36:00,
2013-01-25 11:37:00,12.7,-9.2,29.38,West,270,2.9,2.9,36,0.00,,---,0.00,VWS V14.01,2013-01-25 16:37:00,
2013-01-25 11:38:00,12.7,-9.2,29.38,WSW,248,3.4,3.4,36,0.00,,---,0.00,VWS V14.01,2013-01-25 16:38:00,
2013-01-25 11:39:00,14.2,-7.3,29.38,WSW,248,3.4,3.4,37,0.00,,---,0.00,VWS V14.01,2013-01-25 16:39:00,
2013-01-25 11:40:00,15.8,-5.8,29.38,WSW,248,3.6,3.6,37,0.00,,---,0.00,VWS V14.01,2013-01-25 16:40:00,
2013-01-25 11:41:00,15.8,-5.8,29.38,NW,315,3.6,3.6,37,0.00,,---,0.00,VWS V14.01,2013-01-25 16:41:00,
2013-01-25 11:42:00,16.2,-6.1,29.38,NW,315,3.4,3.6,36,0.00,,---,0.00,VWS V14.01,2013-01-25 16:42:00,
2013-01-25 11:43:00,16.2,-6.1,29.38,WSW,248,2.0,3.4,36,0.00,,---,0.00,VWS V14.01,2013-01-25 16:43:00,
2013-01-25 11:44:00,15.4,-6.7,29.38,WSW,248,2.0,2.0,36,0.00,,---,0.00,VWS V14.01,2013-01-25 16:44:00,
2013-01-25 11:45:00,14.5,-7.5,29.38,NNW,338,6.5,6.5,36,0.00,,---,0.00,VWS V14.01,2013-01-25 16:45:00,
2013-01-25 11:46:00,14.5,-7.5,29.38,NNW,338,6.5,6.5,36,0.00,,---,0.00,VWS V14.01,2013-01-25 16:46:00,
2013-01-25 11:47:00,14.5,-7.5,29.38,NNW,338,6.5,6.5,36,0.00,,---,0.00,VWS V14.01,2013-01-25 16:47:00,
2013-01-25 11:48:00,15.4,-6.7,29.38,NNW,338,6.5,6.5,36,0.00,,---,0.00,VWS V14.01,2013-01-25 16:48:00,
2013-01-25 11:49:00,15.4,-6.7,29.38,NNW,338,6.5,6.5,36,0.00,,---,0.00,VWS V14.01,2013-01-25 16:49:00,
2013-01-25 11:50:00,16.2,-6.1,29.38,NNW,338,6.5,6.5,36,0.00,,---,0.00,VWS V14.01,2013-01-25 16:50:00,
2013-01-25 11:51:00,18.1,-4.3,29.38,NNW,338,6.5,6.5,36,0.00,,---,0.00,VWS V14.01,2013-01-25 16:51:00,
2013-01-25 11:52:00,18.1,-4.3,29.38,NNW,338,6.5,6.5,36,0.00,,---,0.00,VWS V14.01,2013-01-25 16:52:00,
2013-01-25 11:53:00,19.2,-3.3,29.35,South,180,2.9,6.5,36,0.00,,---,0.00,VWS V14.01,2013-01-25 16:53:00,
2013-01-25 11:54:00,19.2,-3.3,29.35,South,180,2.9,2.9,36,0.00,,---,0.00,VWS V14.01,2013-01-25 16:54:00,
2013-01-25 11:55:00,18.3,-4.7,29.35,NNW,338,6.0,6.0,35,0.00,,---,0.00,VWS V14.01,2013-01-25 16:55:00,
2013-01-25 11:56:00,18.0,-5.1,29.35,WNW,292,3.4,3.4,35,0.00,,---,0.00,VWS V14.01,2013-01-25 16:56:00,
2013-01-25 11:57:00,18.0,-5.1,29.35,WSW,248,3.1,3.4,35,0.00,,---,0.00,VWS V14.01,2013-01-25 16:57:00,
2013-01-25 11:58:00,17.6,-5.4,29.35,WNW,292,4.3,4.3,35,0.00,,---,0.00,VWS V14.01,2013-01-25 16:58:00,
2013-01-25 11:59:00,17.6,-5.4,29.35,West,270,2.7,4.3,35,0.00,,---,0.00,VWS V14.01,2013-01-25 16:59:00,
2013-01-25 12:00:00,17.8,-5.2,29.35,WNW,292,3.4,4.0,35,0.00,,---,0.00,VWS V14.01,2013-01-25 17:00:00,
2013-01-25 12:01:00,18.5,-4.6,29.35,WNW,292,4.3,4.3,35,0.00,,---,0.00,VWS V14.01,2013-01-25 17:01:00,
2013-01-25 12:02:00,18.5,-4.6,29.35,WSW,248,2.9,4.3,35,0.00,,---,0.00,VWS V14.01,2013-01-25 17:02:00,
2013-01-25 12:03:00,19.2,-3.9,29.35,WSW,248,3.8,3.8,35,0.00,,---,0.00,VWS V14.01,2013-01-25 17:03:00,
2013-01-25 12:04:00,19.2,-3.9,29.35,West,270,2.7,3.8,35,0.00,,---,0.00,VWS V14.01,2013-01-25 17:04:00,
2013-01-25 12:05:00,19.4,-3.8,29.35,WNW,292,2.7,2.7,35,0.00,,---,0.00,VWS V14.01,2013-01-25 17:05:00,
2013-01-25 12:06:00,19.2,-3.9,29.35,WSW,248,2.0,2.0,35,0.00,,---,0.00,VWS V14.01,2013-01-25 17:06:00,
2013-01-25 12:07:00,19.2,-3.9,29.35,West,270,3.6,3.6,35,0.00,,---,0.00,VWS V14.01,2013-01-25 17:07:00,
2013-01-25 12:08:00,18.5,-4.6,29.35,West,270,3.6,3.6,35,0.00,,---,0.00,VWS V14.01,2013-01-25 17:08:00,
2013-01-25 12:09:00,18.5,-4.6,29.35,West,270,3.6,3.6,35,0.00,,---,0.00,VWS V14.01,2013-01-25 17:09:00,
2013-01-25 12:10:00,18.5,-4.6,29.35,West,270,3.6,3.6,35,0.00,,---,0.00,VWS V14.01,2013-01-25 17:10:00,
2013-01-25 12:11:00,17.4,-5.5,29.35,West,270,3.6,3.6,35,0.00,,---,0.00,VWS V14.01,2013-01-25 17:11:00,
2013-01-25 12:12:00,18.5,-4.6,29.35,West,270,3.6,3.6,35,0.00,,---,0.00,VWS V14.01,2013-01-25 17:12:00,
2013-01-25 12:13:00,18.5,-4.6,29.35,West,270,3.6,3.6,35,0.00,,---,0.00,VWS V14.01,2013-01-25 17:13:00,
2013-01-25 12:14:00,18.0,-5.1,29.35,West,270,3.6,3.6,35,0.00,,---,0.00,VWS V14.01,2013-01-25 17:14:00,
2013-01-25 12:15:00,18.0,-5.1,29.35,West,270,3.6,3.6,35,0.00,,---,0.00,VWS V14.01,2013-01-25 17:15:00,
2013-01-25 12:16:00,16.9,-6.0,29.35,West,270,3.6,3.6,35,0.00,,---,0.00,VWS V14.01,2013-01-25 17:16:00,
2013-01-25 12:17:00,16.2,-6.7,29.35,West,270,3.6,3.6,35,0.00,,---,0.00,VWS V14.01,2013-01-25 17:17:00,
2013-01-25 12:18:00,16.2,-6.7,29.35,West,270,3.6,3.6,35,0.00,,---,0.00,VWS V14.01,2013-01-25 17:18:00,
2013-01-25 12:19:00,16.0,-6.8,29.35,West,270,3.6,3.6,35,0.00,,---,0.00,VWS V14.01,2013-01-25 17:19:00,
2013-01-25 12:20:00,16.0,-6.8,29.35,West,270,3.6,3.6,35,0.00,,---,0.00,VWS V14.01,2013-01-25 17:20:00,
2013-01-25 12:21:00,15.1,-7.6,29.35,West,270,3.6,3.6,35,0.00,,---,0.00,VWS V14.01,2013-01-25 17:21:00,
2013-01-25 12:22:00,15.3,-7.5,29.35,West,270,3.6,3.6,35,0.00,,---,0.00,VWS V14.01,2013-01-25 17:22:00,
2013-01-25 12:23:00,15.3,-7.5,29.35,West,270,3.6,3.6,35,0.00,,---,0.00,VWS V14.01,2013-01-25 17:23:00,
2013-01-25 12:24:00,14.9,-7.8,29.35,West,270,3.6,3.6,35,0.00,,---,0.00,VWS V14.01,2013-01-25 17:24:00,
2013-01-25 12:25:00,14.9,-7.8,29.35,West,270,3.6,3.6,35,0.00,,---,0.00,VWS V14.01,2013-01-25 17:25:00,
2013-01-25 12:26:00,14.5,-8.1,29.35,West,270,3.6,3.6,35,0.00,,---,0.00,VWS V14.01,2013-01-25 17:26:00,
2013-01-25 12:27:00,14.5,-8.1,29.35,West,270,3.6,3.6,35,0.00,,---,0.00,VWS V14.01,2013-01-25 17:27:00,
2013-01-25 12:28:00,14.4,-8.3,29.35,West,270,3.6,3.6,35,0.00,,---,0.00,VWS V14.01,2013-01-25 17:28:00,
2013-01-25 12:29:00,14.4,-8.3,29.35,West,270,3.6,3.6,35,0.00,,---,0.00,VWS V14.01,2013-01-25 17:29:00,
2013-01-25 12:30:00,14.0,-8.6,29.35,West,270,3.6,3.6,35,0.00,,---,0.00,VWS V14.01,2013-01-25 17:30:00,
2013-01-25 12:31:00,14.0,-8.6,29.35,West,270,3.6,3.6,35,0.00,,---,0.00,VWS V14.01,2013-01-25 17:31:00,
2013-01-25 12:32:00,14.0,-8.6,29.35,West,270,3.6,3.6,35,0.00,,---,0.00,VWS V14.01,2013-01-25 17:32:00,
2013-01-25 12:33:00,13.8,-8.8,29.35,WSW,248,2.9,3.6,35,0.00,,---,0.00,VWS V14.01,2013-01-25 17:33:00,
2013-01-25 12:34:00,13.8,-8.8,29.35,WSW,248,2.9,2.9,35,0.00,,---,0.00,VWS V14.01,2013-01-25 17:34:00,
2013-01-25 12:35:00,14.4,-8.3,29.35,WSW,248,2.9,2.9,35,0.00,,---,0.00,VWS V14.01,2013-01-25 17:35:00,
2013-01-25 12:36:00,14.5,-8.1,29.35,WNW,292,3.8,3.8,35,0.00,,---,0.00,VWS V14.01,2013-01-25 17:36:00,
2013-01-25 12:37:00,14.5,-8.1,29.35,WNW,292,3.8,3.8,35,0.00,,---,0.00,VWS V14.01,2013-01-25 17:37:00,
2013-01-25 12:38:00,14.7,-8.0,29.35,WNW,292,3.8,3.8,35,0.00,,---,0.00,VWS V14.01,2013-01-25 17:38:00,
2013-01-25 12:39:00,14.7,-8.0,29.35,WNW,292,4.3,4.3,35,0.00,,---,0.00,VWS V14.01,2013-01-25 17:39:00,
2013-01-25 12:40:00,14.0,-8.6,29.35,WNW,292,4.3,4.3,35,0.00,,---,0.00,VWS V14.01,2013-01-25 17:40:00,
2013-01-25 12:41:00,14.0,-8.6,29.35,WNW,292,3.6,3.6,35,0.00,,---,0.00,VWS V14.01,2013-01-25 17:41:00,
2013-01-25 12:42:00,14.0,-8.6,29.35,WNW,292,3.6,3.6,35,0.00,,---,0.00,VWS V14.01,2013-01-25 17:42:00,
2013-01-25 12:43:00,14.4,-8.3,29.35,WNW,292,3.6,3.6,35,0.00,,---,0.00,VWS V14.01,2013-01-25 17:43:00,
2013-01-25 12:44:00,14.5,-8.1,29.35,WNW,292,3.6,3.6,35,0.00,,---,0.00,VWS V14.01,2013-01-25 17:44:00,
2013-01-25 12:45:00,14.5,-8.1,29.35,WNW,292,3.6,3.6,35,0.00,,---,0.00,VWS V14.01,2013-01-25 17:45:00,
2013-01-25 12:46:00,14.2,-8.4,29.35,WNW,292,3.6,3.6,35,0.00,,---,0.00,VWS V14.01,2013-01-25 17:46:00,
2013-01-25 12:47:00,14.4,-8.3,29.35,WNW,292,3.6,3.6,35,0.00,,---,0.00,VWS V14.01,2013-01-25 17:47:00,
2013-01-25 12:48:00,14.4,-8.3,29.35,WNW,292,3.6,3.6,35,0.00,,---,0.00,VWS V14.01,2013-01-25 17:48:00,
2013-01-25 12:49:00,14.7,-8.0,29.35,WNW,292,3.6,3.6,35,0.00,,---,0.00,VWS V14.01,2013-01-25 17:49:00,
2013-01-25 12:50:00,14.7,-8.0,29.35,WNW,292,3.6,3.6,35,0.00,,---,0.00,VWS V14.01,2013-01-25 17:50:00,
2013-01-25 12:51:00,14.9,-7.8,29.35,WNW,292,3.6,3.6,35,0.00,,---,0.00,VWS V14.01,2013-01-25 17:51:00,
2013-01-25 12:52:00,14.9,-7.8,29.32,WNW,292,3.6,3.6,35,0.00,,---,0.00,VWS V14.01,2013-01-25 17:52:00,
2013-01-25 12:53:00,14.9,-7.8,29.32,WNW,292,3.6,3.6,35,0.00,,---,0.00,VWS V14.01,2013-01-25 17:53:00,
2013-01-25 12:54:00,15.1,-7.6,29.32,WNW,292,3.6,3.6,35,0.00,,---,0.00,VWS V14.01,2013-01-25 17:54:00,
2013-01-25 12:55:00,15.1,-7.6,29.32,WNW,292,3.6,3.6,35,0.00,,---,0.00,VWS V14.01,2013-01-25 17:55:00,
2013-01-25 12:56:00,14.5,-8.1,29.32,WNW,292,3.6,3.6,35,0.00,,---,0.00,VWS V14.01,2013-01-25 17:56:00,
2013-01-25 12:57:00,14.5,-8.1,29.32,WNW,292,3.4,3.6,35,0.00,,---,0.00,VWS V14.01,2013-01-25 17:57:00,
2013-01-25 12:58:00,14.4,-8.3,29.32,WNW,292,3.4,3.4,35,0.00,,---,0.00,VWS V14.01,2013-01-25 17:58:00,
2013-01-25 12:59:00,14.4,-8.3,29.32,WNW,292,3.4,3.4,35,0.00,,---,0.00,VWS V14.01,2013-01-25 17:59:00,
2013-01-25 13:00:00,14.9,-7.8,29.32,West,270,2.9,3.4,35,0.00,,---,0.00,VWS V14.01,2013-01-25 18:00:00,
2013-01-25 13:01:00,16.2,-6.7,29.32,West,270,2.9,2.9,35,0.00,,---,0.00,VWS V14.01,2013-01-25 18:01:00,
2013-01-25 13:02:00,16.2,-6.7,29.32,West,270,2.9,2.9,35,0.00,,---,0.00,VWS V14.01,2013-01-25 18:02:00,
2013-01-25 13:03:00,16.5,-6.3,29.32,West,270,2.9,2.9,35,0.00,,---,0.00,VWS V14.01,2013-01-25 18:03:00,
2013-01-25 13:04:00,16.5,-6.3,29.32,West,270,2.9,2.9,35,0.00,,---,0.00,VWS V14.01,2013-01-25 18:04:00,
2013-01-25 13:05:00,17.1,-5.9,29.32,West,270,2.9,2.9,35,0.00,,---,0.00,VWS V14.01,2013-01-25 18:05:00,
2013-01-25 13:06:00,17.1,-5.9,29.32,West,270,2.9,2.9,35,0.00,,---,0.00,VWS V14.01,2013-01-25 18:06:00,
2013-01-25 13:07:00,17.4,-5.5,29.32,West,270,2.9,2.9,35,0.00,,---,0.00,VWS V14.01,2013-01-25 18:07:00,
2013-01-25 13:08:00,17.4,-5.5,29.32,WNW,292,3.4,6.5,35,0.00,,---,0.00,VWS V14.01,2013-01-25 18:08:00,
2013-01-25 13:09:00,16.7,-6.2,29.32,WNW,292,3.4,3.4,35,0.00,,---,0.00,VWS V14.01,2013-01-25 18:09:00,
2013-01-25 13:10:00,16.7,-6.2,29.32,WNW,292,3.4,3.4,35,0.00,,---,0.00,VWS V14.01,2013-01-25 18:10:00,
2013-01-25 13:11:00,17.4,-5.5,29.32,West,270,3.8,3.8,35,0.00,,---,0.00,VWS V14.01,2013-01-25 18:11:00,
2013-01-25 13:12:00,17.4,-5.5,29.32,West,270,3.1,3.8,35,0.00,,---,0.00,VWS V14.01,2013-01-25 18:12:00,
2013-01-25 13:13:00,17.4,-5.5,29.32,West,270,3.1,3.1,35,0.00,,---,0.00,VWS V14.01,2013-01-25 18:13:00,
2013-01-25 13:14:00,17.1,-5.9,29.32,West,270,3.1,3.1,35,0.00,,---,0.00,VWS V14.01,2013-01-25 18:14:00,
2013-01-25 13:15:00,16.7,-6.2,29.32,West,270,3.1,3.1,35,0.00,,---,0.00,VWS V14.01,2013-01-25 18:15:00,
2013-01-25 13:16:00,16.7,-6.2,29.32,WNW,292,4.3,4.3,35,0.00,,---,0.00,VWS V14.01,2013-01-25 18:16:00,
2013-01-25 13:17:00,16.7,-6.2,29.32,WNW,292,4.3,4.3,35,0.00,,---,0.00,VWS V14.01,2013-01-25 18:17:00,
2013-01-25 13:18:00,16.9,-6.6,29.32,WNW,292,4.3,4.3,34,0.00,,---,0.00,VWS V14.01,2013-01-25 18:18:00,
2013-01-25 13:19:00,16.3,-7.1,29.32,WNW,292,4.3,4.3,34,0.00,,---,0.00,VWS V14.01,2013-01-25 18:19:00,
2013-01-25 13:20:00,16.3,-7.1,29.32,West,270,2.9,4.3,34,0.00,,---,0.00,VWS V14.01,2013-01-25 18:20:00,
2013-01-25 13:21:00,16.5,-6.3,29.32,West,270,2.9,2.9,35,0.00,,---,0.00,VWS V14.01,2013-01-25 18:21:00,
2013-01-25 13:22:00,16.5,-6.3,29.32,West,270,2.9,2.9,35,0.00,,---,0.00,VWS V14.01,2013-01-25 18:22:00,
2013-01-25 13:23:00,16.5,-6.3,29.32,WNW,292,5.4,5.4,35,0.00,,---,0.00,VWS V14.01,2013-01-25 18:23:00,
2013-01-25 13:24:00,16.5,-6.3,29.32,WNW,292,4.3,5.4,35,0.00,,---,0.00,VWS V14.01,2013-01-25 18:24:00,
2013-01-25 13:25:00,16.9,-6.0,29.32,WSW,248,3.1,4.3,35,0.00,,---,0.00,VWS V14.01,2013-01-25 18:25:00,
2013-01-25 13:26:00,16.5,-6.3,29.32,WSW,248,3.1,3.1,35,0.00,,---,0.00,VWS V14.01,2013-01-25 18:26:00,
2013-01-25 13:27:00,16.5,-6.3,29.32,WSW,248,3.1,3.1,35,0.00,,---,0.00,VWS V14.01,2013-01-25 18:27:00,
2013-01-25 13:28:00,16.5,-6.3,29.32,WSW,248,3.1,3.1,35,0.00,,---,0.00,VWS V14.01,2013-01-25 18:28:00,
2013-01-25 13:29:00,15.1,-7.6,29.32,WSW,248,4.9,4.9,35,0.00,,---,0.00,VWS V14.01,2013-01-25 18:29:00,
2013-01-25 13:30:00,15.3,-7.5,29.32,WSW,248,4.9,4.9,35,0.00,,---,0.00,VWS V14.01,2013-01-25 18:30:00,
2013-01-25 13:31:00,16.0,-7.4,29.32,WSW,248,4.9,4.9,34,0.00,,---,0.00,VWS V14.01,2013-01-25 18:31:00,
2013-01-25 13:32:00,16.0,-7.4,29.32,WSW,248,4.9,4.9,34,0.00,,---,0.00,VWS V14.01,2013-01-25 18:32:00,
2013-01-25 13:33:00,16.0,-7.4,29.32,WSW,248,4.9,4.9,34,0.00,,---,0.00,VWS V14.01,2013-01-25 18:33:00,
2013-01-25 13:34:00,16.2,-7.3,29.32,WSW,248,4.9,4.9,34,0.00,,---,0.00,VWS V14.01,2013-01-25 18:34:00,
2013-01-25 13:35:00,16.2,-7.3,29.32,WSW,248,4.9,4.9,34,0.00,,---,0.00,VWS V14.01,2013-01-25 18:35:00,
2013-01-25 13:36:00,16.2,-7.3,29.32,SE,135,3.8,3.8,34,0.00,,---,0.00,VWS V14.01,2013-01-25 18:36:00,
2013-01-25 13:37:00,15.4,-7.3,29.32,SE,135,3.8,3.8,35,0.00,,---,0.00,VWS V14.01,2013-01-25 18:37:00,
2013-01-25 13:38:00,15.4,-7.3,29.32,WSW,248,1.3,3.8,35,0.00,,---,0.00,VWS V14.01,2013-01-25 18:38:00,
2013-01-25 13:39:00,15.3,-7.5,29.32,WSW,248,1.3,1.3,35,0.00,,---,0.00,VWS V14.01,2013-01-25 18:39:00,
2013-01-25 13:40:00,15.3,-7.5,29.32,West,270,2.0,2.0,35,0.00,,---,0.00,VWS V14.01,2013-01-25 18:40:00,
2013-01-25 13:41:00,15.4,-7.3,29.32,NW,315,3.1,3.1,35,0.00,,---,0.00,VWS V14.01,2013-01-25 18:41:00,
2013-01-25 13:42:00,15.3,-7.5,29.32,NW,315,3.1,3.1,35,0.00,,---,0.00,VWS V14.01,2013-01-25 18:42:00,
2013-01-25 13:43:00,15.3,-7.5,29.32,NW,315,3.1,3.1,35,0.00,,---,0.00,VWS V14.01,2013-01-25 18:43:00,
2013-01-25 13:44:00,16.0,-7.4,29.32,West,270,2.0,3.1,34,0.00,,---,0.00,VWS V14.01,2013-01-25 18:44:00,
2013-01-25 13:45:00,16.0,-7.4,29.32,WNW,292,2.9,4.7,34,0.00,,---,0.00,VWS V14.01,2013-01-25 18:45:00,
2013-01-25 13:46:00,16.0,-7.4,29.32,WNW,292,3.8,3.8,34,0.00,,---,0.00,VWS V14.01,2013-01-25 18:46:00,
2013-01-25 13:47:00,16.0,-7.4,29.32,WNW,292,3.8,3.8,34,0.00,,---,0.00,VWS V14.01,2013-01-25 18:47:00,
2013-01-25 13:48:00,16.0,-7.4,29.32,WNW,292,3.8,3.8,34,0.00,,---,0.00,VWS V14.01,2013-01-25 18:48:00,
2013-01-25 13:49:00,16.0,-7.4,29.32,WNW,292,3.8,3.8,34,0.00,,---,0.00,VWS V14.01,2013-01-25 18:49:00,
2013-01-25 13:50:00,15.8,-7.0,29.32,West,270,3.6,3.8,35,0.00,,---,0.00,VWS V14.01,2013-01-25 18:50:00,
2013-01-25 13:51:00,15.4,-7.3,29.32,West,270,3.6,3.6,35,0.00,,---,0.00,VWS V14.01,2013-01-25 18:51:00,
2013-01-25 13:52:00,15.4,-7.3,29.32,WNW,292,2.5,3.6,35,0.00,,---,0.00,VWS V14.01,2013-01-25 18:52:00,
2013-01-25 13:53:00,15.1,-7.6,29.32,SSW,202,1.1,2.5,35,0.00,,---,0.00,VWS V14.01,2013-01-25 18:53:00,
2013-01-25 13:54:00,15.1,-7.6,29.32,SSW,202,1.1,1.1,35,0.00,,---,0.00,VWS V14.01,2013-01-25 18:54:00,
2013-01-25 13:55:00,15.3,-7.5,29.32,WNW,292,3.8,3.8,35,0.00,,---,0.00,VWS V14.01,2013-01-25 18:55:00,
2013-01-25 13:56:00,16.0,-7.4,29.32,WNW,292,3.8,3.8,34,0.00,,---,0.00,VWS V14.01,2013-01-25 18:56:00,
2013-01-25 13:57:00,16.0,-7.4,29.32,WNW,292,3.8,3.8,34,0.00,,---,0.00,VWS V14.01,2013-01-25 18:57:00,
2013-01-25 13:58:00,15.8,-7.0,29.32,WNW,292,3.8,3.8,35,0.00,,---,0.00,VWS V14.01,2013-01-25 18:58:00,
2013-01-25 13:59:00,15.8,-7.0,29.32,SW,225,3.4,3.8,35,0.00,,---,0.00,VWS V14.01,2013-01-25 18:59:00,
2013-01-25 14:00:00,16.0,-7.4,29.32,SW,225,3.4,3.4,34,0.00,,---,0.00,VWS V14.01,2013-01-25 19:00:00,
2013-01-25 14:01:00,15.4,-7.3,29.32,SW,225,3.4,3.4,35,0.00,,---,0.00,VWS V14.01,2013-01-25 19:01:00,
2013-01-25 14:02:00,15.4,-7.3,29.32,SW,225,3.4,3.4,35,0.00,,---,0.00,VWS V14.01,2013-01-25 19:02:00,
2013-01-25 14:03:00,15.8,-7.0,29.32,SW,225,3.4,3.4,35,0.00,,---,0.00,VWS V14.01,2013-01-25 19:03:00,
2013-01-25 14:04:00,15.8,-7.0,29.32,SW,225,3.4,3.4,35,0.00,,---,0.00,VWS V14.01,2013-01-25 19:04:00,
2013-01-25 14:05:00,15.8,-7.0,29.32,SW,225,3.4,3.4,35,0.00,,---,0.00,VWS V14.01,2013-01-25 19:05:00,
2013-01-25 14:06:00,16.0,-7.4,29.32,SW,225,3.4,3.4,34,0.00,,---,0.00,VWS V14.01,2013-01-25 19:06:00,
2013-01-25 14:07:00,16.2,-7.3,29.32,WNW,292,3.8,3.8,34,0.00,,---,0.00,VWS V14.01,2013-01-25 19:07:00,
2013-01-25 14:08:00,16.2,-7.3,29.29,WNW,292,3.8,3.8,34,0.00,,---,0.00,VWS V14.01,2013-01-25 19:08:00,
2013-01-25 14:09:00,16.3,-7.1,29.29,WSW,248,2.5,4.7,34,0.00,,---,0.00,VWS V14.01,2013-01-25 19:09:00,
2013-01-25 14:10:00,16.3,-7.1,29.29,WSW,248,2.5,2.5,34,0.00,,---,0.00,VWS V14.01,2013-01-25 19:10:00,
2013-01-25 14:11:00,15.4,-7.3,29.29,WSW,248,2.5,2.5,35,0.00,,---,0.00,VWS V14.01,2013-01-25 19:11:00,
2013-01-25 14:12:00,15.6,-7.2,29.29,WSW,248,2.5,2.5,35,0.00,,---,0.00,VWS V14.01,2013-01-25 19:12:00,
2013-01-25 14:13:00,15.6,-7.2,29.29,WSW,248,3.1,3.1,35,0.00,,---,0.00,VWS V14.01,2013-01-25 19:13:00,
2013-01-25 14:14:00,15.1,-7.6,29.29,WSW,248,3.1,3.1,35,0.00,,---,0.00,VWS V14.01,2013-01-25 19:14:00,
2013-01-25 14:15:00,15.1,-7.6,29.29,WSW,248,3.1,3.1,35,0.00,,---,0.00,VWS V14.01,2013-01-25 19:15:00,
2013-01-25 14:16:00,15.4,-7.3,29.29,WNW,292,3.4,3.4,35,0.00,,---,0.00,VWS V14.01,2013-01-25 19:16:00,
2013-01-25 14:17:00,15.3,-7.5,29.29,WNW,292,3.4,3.4,35,0.00,,---,0.00,VWS V14.01,2013-01-25 19:17:00,
2013-01-25 14:18:00,15.3,-7.5,29.29,WNW,292,3.4,3.4,35,0.00,,---,0.00,VWS V14.01,2013-01-25 19:18:00,
2013-01-25 14:19:00,15.3,-7.5,29.29,WNW,292,3.4,3.4,35,0.00,,---,0.00,VWS V14.01,2013-01-25 19:19:00,
2013-01-25 14:20:00,15.3,-7.5,29.29,WNW,292,3.4,3.4,35,0.00,,---,0.00,VWS V14.01,2013-01-25 19:20:00,
2013-01-25 14:21:00,15.1,-7.6,29.29,WNW,292,3.4,3.4,35,0.00,,---,0.00,VWS V14.01,2013-01-25 19:21:00,
2013-01-25 14:22:00,15.1,-7.6,29.29,WNW,292,3.4,3.4,35,0.00,,---,0.00,VWS V14.01,2013-01-25 19:22:00,
2013-01-25 14:23:00,14.9,-7.8,29.29,WNW,292,3.4,3.4,35,0.00,,---,0.00,VWS V14.01,2013-01-25 19:23:00,
2013-01-25 14:24:00,14.5,-8.7,29.29,WNW,292,3.4,3.4,34,0.00,,---,0.00,VWS V14.01,2013-01-25 19:24:00,
2013-01-25 14:25:00,14.5,-8.7,29.29,WNW,292,3.4,3.4,34,0.00,,---,0.00,VWS V14.01,2013-01-25 19:25:00,
2013-01-25 14:26:00,14.9,-7.8,29.29,WNW,292,3.4,3.4,35,0.00,,---,0.00,VWS V14.01,2013-01-25 19:26:00,
2013-01-25 14:27:00,14.9,-7.8,29.29,WNW,292,3.4,3.4,35,0.00,,---,0.00,VWS V14.01,2013-01-25 19:27:00,
2013-01-25 14:28:00,15.3,-7.5,29.29,WNW,292,3.4,3.4,35,0.00,,---,0.00,VWS V14.01,2013-01-25 19:28:00,
2013-01-25 14:29:00,15.3,-7.5,29.29,WNW,292,3.4,3.4,35,0.00,,---,0.00,VWS V14.01,2013-01-25 19:29:00,
2013-01-25 14:30:00,15.4,-7.3,29.29,WNW,292,3.4,3.4,35,0.00,,---,0.00,VWS V14.01,2013-01-25 19:30:00,
2013-01-25 14:31:00,15.1,-7.6,29.29,WNW,292,3.4,3.4,35,0.00,,---,0.00,VWS V14.01,2013-01-25 19:31:00,
2013-01-25 14:32:00,15.1,-7.6,29.29,WNW,292,3.4,3.4,35,0.00,,---,0.00,VWS V14.01,2013-01-25 19:32:00,
2013-01-25 14:33:00,15.1,-7.6,29.29,WNW,292,3.4,3.4,35,0.00,,---,0.00,VWS V14.01,2013-01-25 19:33:00,
2013-01-25 14:34:00,15.1,-7.6,29.29,WNW,292,3.4,3.4,35,0.00,,---,0.00,VWS V14.01,2013-01-25 19:34:00,
2013-01-25 14:35:00,15.3,-7.5,29.29,WNW,292,3.4,3.4,35,0.00,,---,0.00,VWS V14.01,2013-01-25 19:35:00,
2013-01-25 14:36:00,15.3,-7.5,29.29,WNW,292,3.4,3.4,35,0.00,,---,0.00,VWS V14.01,2013-01-25 19:36:00,
2013-01-25 14:37:00,14.9,-7.8,29.29,WNW,292,3.4,3.4,35,0.00,,---,0.00,VWS V14.01,2013-01-25 19:37:00,
2013-01-25 14:38:00,14.5,-8.1,29.29,WNW,292,3.4,3.4,35,0.00,,---,0.00,VWS V14.01,2013-01-25 19:38:00,
2013-01-25 14:39:00,14.5,-8.1,29.29,WNW,292,3.4,3.4,35,0.00,,---,0.00,VWS V14.01,2013-01-25 19:39:00,
2013-01-25 14:40:00,14.4,-8.3,29.29,WNW,292,3.4,3.4,35,0.00,,---,0.00,VWS V14.01,2013-01-25 19:40:00,
2013-01-25 14:41:00,14.4,-8.3,29.29,WNW,292,3.4,3.4,35,0.00,,---,0.00,VWS V14.01,2013-01-25 19:41:00,
2013-01-25 14:42:00,14.4,-8.3,29.29,WNW,292,3.4,3.4,35,0.00,,---,0.00,VWS V14.01,2013-01-25 19:42:00,
2013-01-25 14:43:00,14.4,-8.3,29.29,WNW,292,3.4,3.4,35,0.00,,---,0.00,VWS V14.01,2013-01-25 19:43:00,
2013-01-25 14:44:00,14.5,-8.1,29.29,WNW,292,3.4,3.4,35,0.00,,---,0.00,VWS V14.01,2013-01-25 19:44:00,
2013-01-25 14:45:00,14.5,-8.1,29.29,WNW,292,3.4,3.4,35,0.00,,---,0.00,VWS V14.01,2013-01-25 19:45:00,
2013-01-25 14:46:00,14.5,-8.1,29.29,WNW,292,3.4,3.4,35,0.00,,---,0.00,VWS V14.01,2013-01-25 19:46:00,
2013-01-25 14:47:00,14.5,-8.1,29.29,WNW,292,3.4,3.4,35,0.00,,---,0.00,VWS V14.01,2013-01-25 19:47:00,
2013-01-25 14:48:00,14.2,-9.0,29.29,WNW,292,3.4,3.4,34,0.00,,---,0.00,VWS V14.01,2013-01-25 19:48:00,
2013-01-25 14:49:00,14.4,-8.3,29.29,WNW,292,3.4,3.4,35,0.00,,---,0.00,VWS V14.01,2013-01-25 19:49:00,
2013-01-25 14:50:00,14.4,-8.3,29.29,WNW,292,3.4,3.4,35,0.00,,---,0.00,VWS V14.01,2013-01-25 19:50:00,
2013-01-25 14:51:00,14.2,-8.4,29.29,WNW,292,3.4,3.4,35,0.00,,---,0.00,VWS V14.01,2013-01-25 19:51:00,
2013-01-25 14:52:00,14.2,-8.4,29.29,WNW,292,3.4,3.4,35,0.00,,---,0.00,VWS V14.01,2013-01-25 19:52:00,
2013-01-25 14:53:00,14.0,-8.6,29.29,WNW,292,3.4,3.4,35,0.00,,---,0.00,VWS V14.01,2013-01-25 19:53:00,
2013-01-25 14:54:00,13.5,-9.1,29.29,WNW,292,3.4,3.4,35,0.00,,---,0.00,VWS V14.01,2013-01-25 19:54:00,
2013-01-25 14:55:00,13.5,-9.1,29.29,WNW,292,3.4,3.4,35,0.00,,---,0.00,VWS V14.01,2013-01-25 19:55:00,
2013-01-25 14:56:00,13.5,-9.1,29.29,WNW,292,3.4,3.4,35,0.00,,---,0.00,VWS V14.01,2013-01-25 19:56:00,
2013-01-25 14:57:00,13.5,-9.1,29.29,WNW,292,3.4,3.4,35,0.00,,---,0.00,VWS V14.01,2013-01-25 19:57:00,
2013-01-25 14:58:00,12.9,-9.6,29.29,WNW,292,3.4,3.4,35,0.00,,---,0.00,VWS V14.01,2013-01-25 19:58:00,
2013-01-25 14:59:00,12.9,-9.6,29.29,WNW,292,3.4,3.4,35,0.00,,---,0.00,VWS V14.01,2013-01-25 19:59:00,
2013-01-25 15:00:00,12.6,-9.9,29.29,WNW,292,3.4,3.4,35,0.00,,---,0.00,VWS V14.01,2013-01-25 20:00:00,
2013-01-25 15:01:00,12.4,-10.1,29.29,WNW,292,3.4,3.4,35,0.00,,---,0.00,VWS V14.01,2013-01-25 20:01:00,
2013-01-25 15:02:00,12.4,-10.1,29.29,WNW,292,3.4,3.4,35,0.00,,---,0.00,VWS V14.01,2013-01-25 20:02:00,
2013-01-25 15:03:00,12.4,-10.1,29.29,WNW,292,3.4,3.4,35,0.00,,---,0.00,VWS V14.01,2013-01-25 20:03:00,
2013-01-25 15:04:00,12.2,-10.2,29.29,WNW,292,3.4,3.4,35,0.00,,---,0.00,VWS V14.01,2013-01-25 20:04:00,
2013-01-25 15:05:00,12.0,-10.4,29.29,WNW,292,3.4,3.4,35,0.00,,---,0.00,VWS V14.01,2013-01-25 20:05:00,
2013-01-25 15:06:00,12.0,-10.4,29.29,WNW,292,3.4,3.4,35,0.00,,---,0.00,VWS V14.01,2013-01-25 20:06:00,
2013-01-25 15:07:00,12.0,-10.4,29.29,WNW,292,3.4,3.4,35,0.00,,---,0.00,VWS V14.01,2013-01-25 20:07:00,
2013-01-25 15:08:00,11.8,-10.5,29.29,WNW,292,3.4,3.4,35,0.00,,---,0.00,VWS V14.01,2013-01-25 20:08:00,
2013-01-25 15:09:00,11.8,-10.5,29.29,WNW,292,3.4,3.4,35,0.00,,---,0.00,VWS V14.01,2013-01-25 20:09:00,
2013-01-25 15:10:00,12.0,-10.4,29.29,WNW,292,3.4,3.4,35,0.00,,---,0.00,VWS V14.01,2013-01-25 20:10:00,
2013-01-25 15:11:00,12.0,-10.4,29.29,WNW,292,3.4,3.4,35,0.00,,---,0.00,VWS V14.01,2013-01-25 20:11:00,
2013-01-25 15:12:00,12.2,-10.2,29.29,WNW,292,3.4,3.4,35,0.00,,---,0.00,VWS V14.01,2013-01-25 20:12:00,
2013-01-25 15:13:00,12.2,-10.2,29.29,WNW,292,3.4,3.4,35,0.00,,---,0.00,VWS V14.01,2013-01-25 20:13:00,
2013-01-25 15:14:00,12.2,-10.2,29.29,WNW,292,3.4,3.4,35,0.00,,---,0.00,VWS V14.01,2013-01-25 20:14:00,
2013-01-25 15:15:00,12.2,-10.2,29.29,WNW,292,3.4,3.4,35,0.00,,---,0.00,VWS V14.01,2013-01-25 20:15:00,
2013-01-25 15:16:00,12.2,-10.2,29.29,WNW,292,3.4,3.4,35,0.00,,---,0.00,VWS V14.01,2013-01-25 20:16:00,
2013-01-25 15:17:00,12.2,-10.2,29.29,WNW,292,3.4,3.4,35,0.00,,---,0.00,VWS V14.01,2013-01-25 20:17:00,
2013-01-25 15:18:00,12.0,-10.4,29.29,WNW,292,3.4,3.4,35,0.00,,---,0.00,VWS V14.01,2013-01-25 20:18:00,
2013-01-25 15:19:00,12.0,-10.4,29.29,WNW,292,3.4,3.4,35,0.00,,---,0.00,VWS V14.01,2013-01-25 20:19:00,
2013-01-25 15:20:00,12.0,-10.4,29.29,WNW,292,3.4,3.4,35,0.00,,---,0.00,VWS V14.01,2013-01-25 20:20:00,
2013-01-25 15:21:00,12.0,-10.4,29.29,WNW,292,3.4,3.4,35,0.00,,---,0.00,VWS V14.01,2013-01-25 20:21:00,
2013-01-25 15:22:00,11.8,-10.5,29.29,WNW,292,3.4,3.4,35,0.00,,---,0.00,VWS V14.01,2013-01-25 20:22:00,
2013-01-25 15:23:00,11.8,-10.5,29.29,WNW,292,3.4,3.4,35,0.00,,---,0.00,VWS V14.01,2013-01-25 20:23:00,
2013-01-25 15:24:00,11.7,-10.7,29.29,WNW,292,3.4,3.4,35,0.00,,---,0.00,VWS V14.01,2013-01-25 20:24:00,
2013-01-25 15:25:00,11.8,-10.5,29.29,WNW,292,3.4,3.4,35,0.00,,---,0.00,VWS V14.01,2013-01-25 20:25:00,
2013-01-25 15:26:00,11.8,-10.5,29.29,WNW,292,3.4,3.4,35,0.00,,---,0.00,VWS V14.01,2013-01-25 20:26:00,
2013-01-25 15:27:00,11.8,-10.5,29.29,WNW,292,3.4,3.4,35,0.00,,---,0.00,VWS V14.01,2013-01-25 20:27:00,
2013-01-25 15:28:00,11.8,-10.5,29.29,WNW,292,3.4,3.4,35,0.00,,---,0.00,VWS V14.01,2013-01-25 20:28:00,
2013-01-25 15:29:00,11.3,-11.0,29.29,WNW,292,3.4,3.4,35,0.00,,---,0.00,VWS V14.01,2013-01-25 20:29:00,
2013-01-25 15:30:00,11.3,-11.0,29.29,WNW,292,3.4,3.4,35,0.00,,---,0.00,VWS V14.01,2013-01-25 20:30:00,
2013-01-25 15:31:00,11.3,-11.0,29.29,WNW,292,3.4,3.4,35,0.00,,---,0.00,VWS V14.01,2013-01-25 20:31:00,
2013-01-25 15:32:00,11.1,-11.2,29.29,WNW,292,3.4,3.4,35,0.00,,---,0.00,VWS V14.01,2013-01-25 20:32:00,
2013-01-25 15:33:00,11.1,-11.2,29.29,WNW,292,3.4,3.4,35,0.00,,---,0.00,VWS V14.01,2013-01-25 20:33:00,
2013-01-25 15:34:00,11.1,-11.2,29.29,WNW,292,3.4,3.4,35,0.00,,---,0.00,VWS V14.01,2013-01-25 20:34:00,
2013-01-25 15:35:00,11.1,-11.2,29.29,WNW,292,3.4,3.4,35,0.00,,---,0.00,VWS V14.01,2013-01-25 20:35:00,
2013-01-25 15:36:00,10.9,-11.3,29.29,WNW,292,3.4,3.4,35,0.00,,---,0.00,VWS V14.01,2013-01-25 20:36:00,
2013-01-25 15:37:00,10.9,-11.3,29.29,WNW,292,3.4,3.4,35,0.00,,---,0.00,VWS V14.01,2013-01-25 20:37:00,
2013-01-25 15:38:00,10.9,-11.3,29.29,WNW,292,3.4,3.4,35,0.00,,---,0.00,VWS V14.01,2013-01-25 20:38:00,
2013-01-25 15:40:00,11.1,-11.2,29.29,WNW,292,3.4,3.4,35,0.00,,---,0.00,VWS V14.01,2013-01-25 20:40:00,
2013-01-25 15:41:00,10.9,-11.3,29.29,WNW,292,3.4,3.4,35,0.00,,---,0.00,VWS V14.01,2013-01-25 20:41:00,
2013-01-25 15:42:00,10.9,-11.3,29.29,WNW,292,3.4,3.4,35,0.00,,---,0.00,VWS V14.01,2013-01-25 20:42:00,
2013-01-25 15:43:00,10.9,-11.3,29.29,WNW,292,3.4,3.4,35,0.00,,---,0.00,VWS V14.01,2013-01-25 20:43:00,
2013-01-25 15:44:00,10.9,-11.3,29.29,WNW,292,3.4,3.4,35,0.00,,---,0.00,VWS V14.01,2013-01-25 20:44:00,
2013-01-25 15:45:00,10.9,-11.3,29.29,WNW,292,3.4,3.4,35,0.00,,---,0.00,VWS V14.01,2013-01-25 20:45:00,
2013-01-25 15:46:00,10.9,-11.3,29.29,WNW,292,3.4,3.4,35,0.00,,---,0.00,VWS V14.01,2013-01-25 20:46:00,
2013-01-25 15:47:00,10.9,-11.3,29.29,WNW,292,3.4,3.4,35,0.00,,---,0.00,VWS V14.01,2013-01-25 20:47:00,
2013-01-25 15:48:00,11.1,-11.2,29.29,WNW,292,3.4,3.4,35,0.00,,---,0.00,VWS V14.01,2013-01-25 20:48:00,
2013-01-25 15:49:00,11.1,-11.2,29.29,WNW,292,3.4,3.4,35,0.00,,---,0.00,VWS V14.01,2013-01-25 20:49:00,
2013-01-25 15:50:00,10.9,-11.3,29.29,WNW,292,3.4,3.4,35,0.00,,---,0.00,VWS V14.01,2013-01-25 20:50:00,
2013-01-25 15:51:00,10.9,-11.3,29.29,WNW,292,3.4,3.4,35,0.00,,---,0.00,VWS V14.01,2013-01-25 20:51:00,
2013-01-25 15:52:00,11.1,-11.2,29.29,WNW,292,3.4,3.4,35,0.00,,---,0.00,VWS V14.01,2013-01-25 20:52:00,
2013-01-25 15:53:00,11.1,-11.2,29.29,WNW,292,3.4,3.4,35,0.00,,---,0.00,VWS V14.01,2013-01-25 20:53:00,
2013-01-25 15:54:00,10.9,-11.3,29.29,WNW,292,3.4,3.4,35,0.00,,---,0.00,VWS V14.01,2013-01-25 20:54:00,
2013-01-25 15:55:00,10.9,-11.3,29.29,WNW,292,3.4,3.4,35,0.00,,---,0.00,VWS V14.01,2013-01-25 20:55:00,
2013-01-25 15:56:00,10.9,-11.3,29.29,WNW,292,3.4,3.4,35,0.00,,---,0.00,VWS V14.01,2013-01-25 20:56:00,
2013-01-25 15:57:00,10.9,-11.3,29.29,WNW,292,3.4,3.4,35,0.00,,---,0.00,VWS V14.01,2013-01-25 20:57:00,
2013-01-25 15:58:00,10.9,-11.3,29.29,WNW,292,3.4,3.4,35,0.00,,---,0.00,VWS V14.01,2013-01-25 20:58:00,
2013-01-25 15:59:00,10.9,-11.3,29.29,WNW,292,3.4,3.4,35,0.00,,---,0.00,VWS V14.01,2013-01-25 20:59:00,
2013-01-25 16:00:00,10.9,-11.3,29.29,WNW,292,3.4,3.4,35,0.00,,---,0.00,VWS V14.01,2013-01-25 21:00:00,
2013-01-25 16:01:00,10.9,-11.3,29.29,WNW,292,3.4,3.4,35,0.00,,---,0.00,VWS V14.01,2013-01-25 21:01:00,
2013-01-25 16:02:00,10.9,-11.3,29.29,WNW,292,3.4,3.4,35,0.00,,---,0.00,VWS V14.01,2013-01-25 21:02:00,
2013-01-25 16:03:00,10.9,-11.3,29.29,WNW,292,3.4,3.4,35,0.00,,---,0.00,VWS V14.01,2013-01-25 21:03:00,
2013-01-25 16:04:00,10.8,-11.5,29.29,WNW,292,3.4,3.4,35,0.00,,---,0.00,VWS V14.01,2013-01-25 21:04:00,
2013-01-25 16:05:00,10.8,-11.5,29.29,WNW,292,3.4,3.4,35,0.00,,---,0.00,VWS V14.01,2013-01-25 21:05:00,
2013-01-25 16:06:00,10.8,-11.5,29.29,WNW,292,3.4,3.4,35,0.00,,---,0.00,VWS V14.01,2013-01-25 21:06:00,
2013-01-25 16:07:00,10.8,-11.5,29.29,WNW,292,3.4,3.4,35,0.00,,---,0.00,VWS V14.01,2013-01-25 21:07:00,
2013-01-25 16:08:00,10.8,-11.5,29.29,WNW,292,3.4,3.4,35,0.00,,---,0.00,VWS V14.01,2013-01-25 21:08:00,
2013-01-25 16:09:00,10.6,-11.7,29.29,WNW,292,3.4,3.4,35,0.00,,---,0.00,VWS V14.01,2013-01-25 21:09:00,
2013-01-25 16:10:00,10.6,-11.7,29.29,WNW,292,3.4,3.4,35,0.00,,---,0.00,VWS V14.01,2013-01-25 21:10:00,
2013-01-25 16:11:00,10.8,-11.5,29.29,WNW,292,1.6,3.4,35,0.00,,---,0.00,VWS V14.01,2013-01-25 21:11:00,
2013-01-25 16:12:00,10.8,-11.5,29.29,WNW,292,1.6,1.6,35,0.00,,---,0.00,VWS V14.01,2013-01-25 21:12:00,
2013-01-25 16:13:00,10.6,-11.7,29.29,WNW,292,1.6,1.6,35,0.00,,---,0.00,VWS V14.01,2013-01-25 21:13:00,
2013-01-25 16:14:00,10.6,-11.7,29.29,WNW,292,1.6,1.6,35,0.00,,---,0.00,VWS V14.01,2013-01-25 21:14:00,
2013-01-25 16:15:00,10.6,-11.7,29.29,WNW,292,1.6,1.6,35,0.00,,---,0.00,VWS V14.01,2013-01-25 21:15:00,
2013-01-25 16:16:00,10.6,-11.7,29.29,WNW,292,1.6,1.6,35,0.00,,---,0.00,VWS V14.01,2013-01-25 21:16:00,
2013-01-25 16:17:00,10.6,-11.7,29.29,WNW,292,1.6,1.6,35,0.00,,---,0.00,VWS V14.01,2013-01-25 21:17:00,
2013-01-25 16:18:00,10.6,-11.7,29.29,WNW,292,1.6,1.6,35,0.00,,---,0.00,VWS V14.01,2013-01-25 21:18:00,
2013-01-25 16:19:00,10.6,-11.7,29.29,WNW,292,1.6,1.6,35,0.00,,---,0.00,VWS V14.01,2013-01-25 21:19:00,
2013-01-25 16:20:00,10.6,-11.7,29.29,WNW,292,1.6,1.6,35,0.00,,---,0.00,VWS V14.01,2013-01-25 21:20:00,
2013-01-25 16:21:00,10.4,-11.8,29.29,WNW,292,1.6,1.6,35,0.00,,---,0.00,VWS V14.01,2013-01-25 21:21:00,
2013-01-25 16:22:00,10.2,-12.0,29.29,WNW,292,1.6,1.6,35,0.00,,---,0.00,VWS V14.01,2013-01-25 21:22:00,
2013-01-25 16:23:00,10.2,-12.0,29.29,WNW,292,1.6,1.6,35,0.00,,---,0.00,VWS V14.01,2013-01-25 21:23:00,
2013-01-25 16:24:00,10.4,-11.8,29.29,WNW,292,1.6,1.6,35,0.00,,---,0.00,VWS V14.01,2013-01-25 21:24:00,
2013-01-25 16:25:00,10.2,-12.0,29.29,WNW,292,1.6,1.6,35,0.00,,---,0.00,VWS V14.01,2013-01-25 21:25:00,
2013-01-25 16:26:00,10.2,-12.0,29.29,WNW,292,1.6,1.6,35,0.00,,---,0.00,VWS V14.01,2013-01-25 21:26:00,
2013-01-25 16:27:00,10.2,-12.0,29.29,WNW,292,1.6,1.6,35,0.00,,---,0.00,VWS V14.01,2013-01-25 21:27:00,
2013-01-25 16:28:00,10.2,-12.0,29.29,WNW,292,1.6,1.6,35,0.00,,---,0.00,VWS V14.01,2013-01-25 21:28:00,
2013-01-25 16:29:00,10.2,-12.0,29.29,WNW,292,1.6,1.6,35,0.00,,---,0.00,VWS V14.01,2013-01-25 21:29:00,
2013-01-25 16:30:00,10.2,-12.0,29.29,WNW,292,1.6,1.6,35,0.00,,---,0.00,VWS V14.01,2013-01-25 21:30:00,
2013-01-25 16:31:00,10.2,-12.0,29.29,WNW,292,1.6,1.6,35,0.00,,---,0.00,VWS V14.01,2013-01-25 21:31:00,
2013-01-25 16:32:00,10.2,-12.0,29.29,WNW,292,1.6,1.6,35,0.00,,---,0.00,VWS V14.01,2013-01-25 21:32:00,
2013-01-25 16:33:00,10.2,-12.0,29.29,WNW,292,1.6,1.6,35,0.00,,---,0.00,VWS V14.01,2013-01-25 21:33:00,
2013-01-25 16:34:00,10.2,-12.0,29.29,WNW,292,1.6,1.6,35,0.00,,---,0.00,VWS V14.01,2013-01-25 21:34:00,
2013-01-25 16:35:00,10.2,-12.0,29.29,WNW,292,1.6,1.6,35,0.00,,---,0.00,VWS V14.01,2013-01-25 21:35:00,
2013-01-25 16:36:00,10.2,-12.0,29.29,WNW,292,1.6,1.6,35,0.00,,---,0.00,VWS V14.01,2013-01-25 21:36:00,
2013-01-25 16:37:00,10.2,-12.0,29.29,WNW,292,1.6,1.6,35,0.00,,---,0.00,VWS V14.01,2013-01-25 21:37:00,
2013-01-25 16:38:00,10.2,-12.0,29.29,WNW,292,1.6,1.6,35,0.00,,---,0.00,VWS V14.01,2013-01-25 21:38:00,
2013-01-25 16:39:00,10.0,-12.1,29.29,WNW,292,1.6,1.6,35,0.00,,---,0.00,VWS V14.01,2013-01-25 21:39:00,
2013-01-25 16:40:00,10.0,-12.1,29.29,WNW,292,1.6,1.6,35,0.00,,---,0.00,VWS V14.01,2013-01-25 21:40:00,
2013-01-25 16:41:00,10.0,-12.1,29.29,WNW,292,1.6,1.6,35,0.00,,---,0.00,VWS V14.01,2013-01-25 21:41:00,
2013-01-25 16:42:00,10.0,-12.1,29.29,WNW,292,1.6,1.6,35,0.00,,---,0.00,VWS V14.01,2013-01-25 21:42:00,
2013-01-25 16:43:00,10.0,-12.1,29.29,WNW,292,1.6,1.6,35,0.00,,---,0.00,VWS V14.01,2013-01-25 21:43:00,
2013-01-25 16:44:00,10.0,-12.1,29.29,WNW,292,1.6,1.6,35,0.00,,---,0.00,VWS V14.01,2013-01-25 21:44:00,
2013-01-25 16:45:00,10.0,-12.1,29.29,WNW,292,1.6,1.6,35,0.00,,---,0.00,VWS V14.01,2013-01-25 21:45:00,
2013-01-25 16:46:00,10.0,-12.1,29.29,WNW,292,1.6,1.6,35,0.00,,---,0.00,VWS V14.01,2013-01-25 21:46:00,
2013-01-25 16:47:00,10.0,-12.1,29.29,WNW,292,1.6,1.6,35,0.00,,---,0.00,VWS V14.01,2013-01-25 21:47:00,
2013-01-25 16:48:00,10.0,-12.1,29.29,WNW,292,1.6,1.6,35,0.00,,---,0.00,VWS V14.01,2013-01-25 21:48:00,
2013-01-25 16:49:00,9.9,-12.3,29.29,WNW,292,1.6,1.6,35,0.00,,---,0.00,VWS V14.01,2013-01-25 21:49:00,
2013-01-25 16:50:00,9.9,-12.3,29.29,WNW,292,1.6,1.6,35,0.00,,---,0.00,VWS V14.01,2013-01-25 21:50:00,
2013-01-25 16:51:00,9.7,-12.5,29.29,WNW,292,0.0,0.0,35,0.00,,---,0.00,VWS V14.01,2013-01-25 21:51:00,
2013-01-25 16:52:00,9.7,-12.5,29.29,WNW,292,0.0,0.0,35,0.00,,---,0.00,VWS V14.01,2013-01-25 21:52:00,
2013-01-25 16:53:00,9.7,-12.5,29.29,WNW,292,0.0,0.0,35,0.00,,---,0.00,VWS V14.01,2013-01-25 21:53:00,
2013-01-25 16:54:00,9.7,-12.5,29.29,WNW,292,0.0,0.0,35,0.00,,---,0.00,VWS V14.01,2013-01-25 21:54:00,
2013-01-25 16:55:00,9.7,-12.5,29.29,WNW,292,0.0,0.0,35,0.00,,---,0.00,VWS V14.01,2013-01-25 21:55:00,
2013-01-25 16:56:00,9.7,-12.5,29.29,WNW,292,0.0,0.0,35,0.00,,---,0.00,VWS V14.01,2013-01-25 21:56:00,
2013-01-25 16:57:00,9.7,-12.5,29.29,WNW,292,0.0,0.0,35,0.00,,---,0.00,VWS V14.01,2013-01-25 21:57:00,
2013-01-25 16:58:00,9.7,-12.5,29.29,WNW,292,0.0,0.0,35,0.00,,---,0.00,VWS V14.01,2013-01-25 21:58:00,
2013-01-25 16:59:00,9.7,-12.5,29.29,WNW,292,0.0,0.0,35,0.00,,---,0.00,VWS V14.01,2013-01-25 21:59:00,
2013-01-25 17:00:00,9.7,-12.5,29.29,WNW,292,0.0,0.0,35,0.00,,---,0.00,VWS V14.01,2013-01-25 22:00:00,
2013-01-25 17:01:00,9.7,-12.5,29.29,WNW,292,0.0,0.0,35,0.00,,---,0.00,VWS V14.01,2013-01-25 22:01:00,
2013-01-25 17:02:00,9.7,-12.5,29.29,WNW,292,0.0,0.0,35,0.00,,---,0.00,VWS V14.01,2013-01-25 22:02:00,
2013-01-25 17:03:00,9.7,-12.5,29.29,WNW,292,0.0,0.0,35,0.00,,---,0.00,VWS V14.01,2013-01-25 22:03:00,
2013-01-25 17:04:00,9.7,-12.5,29.29,WNW,292,0.0,0.0,35,0.00,,---,0.00,VWS V14.01,2013-01-25 22:04:00,
2013-01-25 17:05:00,9.7,-12.5,29.29,WNW,292,0.0,0.0,35,0.00,,---,0.00,VWS V14.01,2013-01-25 22:05:00,
2013-01-25 17:06:00,9.7,-12.5,29.29,WNW,292,0.0,0.0,35,0.00,,---,0.00,VWS V14.01,2013-01-25 22:06:00,
2013-01-25 17:07:00,9.7,-12.5,29.29,WNW,292,0.0,0.0,35,0.00,,---,0.00,VWS V14.01,2013-01-25 22:07:00,
2013-01-25 17:08:00,9.7,-12.5,29.29,WNW,292,0.0,0.0,35,0.00,,---,0.00,VWS V14.01,2013-01-25 22:08:00,
2013-01-25 17:09:00,9.7,-12.5,29.29,WNW,292,0.0,0.0,35,0.00,,---,0.00,VWS V14.01,2013-01-25 22:09:00,
2013-01-25 17:10:00,9.7,-12.5,29.29,WNW,292,0.0,0.0,35,0.00,,---,0.00,VWS V14.01,2013-01-25 22:10:00,
2013-01-25 17:11:00,9.5,-12.6,29.29,WNW,292,0.0,0.0,35,0.00,,---,0.00,VWS V14.01,2013-01-25 22:11:00,
2013-01-25 17:12:00,9.5,-12.6,29.29,WNW,292,0.0,0.0,35,0.00,,---,0.00,VWS V14.01,2013-01-25 22:12:00,
2013-01-25 17:13:00,9.5,-12.6,29.29,WNW,292,0.0,0.0,35,0.00,,---,0.00,VWS V14.01,2013-01-25 22:13:00,
2013-01-25 17:14:00,9.5,-12.6,29.29,WNW,292,0.0,0.0,35,0.00,,---,0.00,VWS V14.01,2013-01-25 22:14:00,
2013-01-25 17:15:00,9.5,-12.6,29.29,WNW,292,0.0,0.0,35,0.00,,---,0.00,VWS V14.01,2013-01-25 22:15:00,
2013-01-25 17:16:00,9.5,-12.6,29.29,WNW,292,0.0,0.0,35,0.00,,---,0.00,VWS V14.01,2013-01-25 22:16:00,
2013-01-25 17:17:00,9.5,-12.6,29.29,WNW,292,0.0,0.0,35,0.00,,---,0.00,VWS V14.01,2013-01-25 22:17:00,
2013-01-25 17:18:00,9.5,-12.6,29.29,WNW,292,0.0,0.0,35,0.00,,---,0.00,VWS V14.01,2013-01-25 22:18:00,
2013-01-25 17:19:00,9.5,-12.6,29.29,WNW,292,0.0,0.0,35,0.00,,---,0.00,VWS V14.01,2013-01-25 22:19:00,
2013-01-25 17:20:00,9.3,-12.8,29.29,WNW,292,0.0,0.0,35,0.00,,---,0.00,VWS V14.01,2013-01-25 22:20:00,
2013-01-25 17:21:00,9.3,-12.8,29.29,WNW,292,0.0,0.0,35,0.00,,---,0.00,VWS V14.01,2013-01-25 22:21:00,
2013-01-25 17:22:00,9.3,-12.8,29.29,WNW,292,0.0,0.0,35,0.00,,---,0.00,VWS V14.01,2013-01-25 22:22:00,
2013-01-25 17:23:00,9.3,-12.8,29.29,WNW,292,0.0,0.0,35,0.00,,---,0.00,VWS V14.01,2013-01-25 22:23:00,
2013-01-25 17:24:00,9.3,-12.8,29.29,WNW,292,0.0,0.0,35,0.00,,---,0.00,VWS V14.01,2013-01-25 22:24:00,
2013-01-25 17:25:00,9.3,-12.8,29.29,WNW,292,0.0,0.0,35,0.00,,---,0.00,VWS V14.01,2013-01-25 22:25:00,
2013-01-25 17:26:00,9.3,-12.8,29.29,WNW,292,0.0,0.0,35,0.00,,---,0.00,VWS V14.01,2013-01-25 22:26:00,
2013-01-25 17:27:00,9.3,-12.8,29.29,WNW,292,0.0,0.0,35,0.00,,---,0.00,VWS V14.01,2013-01-25 22:27:00,
2013-01-25 17:28:00,9.3,-12.8,29.29,WNW,292,0.0,0.0,35,0.00,,---,0.00,VWS V14.01,2013-01-25 22:28:00,
2013-01-25 17:29:00,9.3,-12.8,29.29,WNW,292,0.0,0.0,35,0.00,,---,0.00,VWS V14.01,2013-01-25 22:29:00,
2013-01-25 17:30:00,9.3,-12.8,29.29,WNW,292,0.0,0.0,35,0.00,,---,0.00,VWS V14.01,2013-01-25 22:30:00,
2013-01-25 17:31:00,9.3,-12.8,29.29,WNW,292,0.0,0.0,35,0.00,,---,0.00,VWS V14.01,2013-01-25 22:31:00,
2013-01-25 17:32:00,9.3,-12.8,29.29,WNW,292,0.0,0.0,35,0.00,,---,0.00,VWS V14.01,2013-01-25 22:32:00,
2013-01-25 17:33:00,9.3,-12.8,29.29,WNW,292,0.0,0.0,35,0.00,,---,0.00,VWS V14.01,2013-01-25 22:33:00,
2013-01-25 17:34:00,9.3,-12.8,29.29,WNW,292,0.0,0.0,35,0.00,,---,0.00,VWS V14.01,2013-01-25 22:34:00,
2013-01-25 17:35:00,9.3,-12.8,29.29,WNW,292,0.0,0.0,35,0.00,,---,0.00,VWS V14.01,2013-01-25 22:35:00,
2013-01-25 17:36:00,9.3,-12.8,29.29,WNW,292,0.0,0.0,35,0.00,,---,0.00,VWS V14.01,2013-01-25 22:36:00,
2013-01-25 17:37:00,9.3,-12.8,29.29,WNW,292,0.0,0.0,35,0.00,,---,0.00,VWS V14.01,2013-01-25 22:37:00,
2013-01-25 17:38:00,9.3,-12.8,29.26,WNW,292,0.0,0.0,35,0.00,,---,0.00,VWS V14.01,2013-01-25 22:38:00,
2013-01-25 17:39:00,9.3,-12.8,29.26,WNW,292,0.0,0.0,35,0.00,,---,0.00,VWS V14.01,2013-01-25 22:39:00,
2013-01-25 17:40:00,9.1,-12.9,29.26,WNW,292,0.0,0.0,35,0.00,,---,0.00,VWS V14.01,2013-01-25 22:40:00,
2013-01-25 17:41:00,9.1,-12.9,29.26,WNW,292,0.0,0.0,35,0.00,,---,0.00,VWS V14.01,2013-01-25 22:41:00,
2013-01-25 17:42:00,9.1,-12.9,29.26,WNW,292,0.0,0.0,35,0.00,,---,0.00,VWS V14.01,2013-01-25 22:42:00,
2013-01-25 17:43:00,9.1,-12.9,29.26,WNW,292,0.0,0.0,35,0.00,,---,0.00,VWS V14.01,2013-01-25 22:43:00,
2013-01-25 17:44:00,9.1,-12.9,29.26,WNW,292,0.0,0.0,35,0.00,,---,0.00,VWS V14.01,2013-01-25 22:44:00,
2013-01-25 17:45:00,9.1,-12.9,29.26,WNW,292,0.0,0.0,35,0.00,,---,0.00,VWS V14.01,2013-01-25 22:45:00,
2013-01-25 17:46:00,9.1,-12.9,29.26,WNW,292,0.0,0.0,35,0.00,,---,0.00,VWS V14.01,2013-01-25 22:46:00,
2013-01-25 17:47:00,9.1,-12.9,29.26,WNW,292,0.0,0.0,35,0.00,,---,0.00,VWS V14.01,2013-01-25 22:47:00,
2013-01-25 17:48:00,9.1,-12.9,29.26,WNW,292,0.0,0.0,35,0.00,,---,0.00,VWS V14.01,2013-01-25 22:48:00,
2013-01-25 17:49:00,9.1,-12.9,29.26,WNW,292,0.0,0.0,35,0.00,,---,0.00,VWS V14.01,2013-01-25 22:49:00,
2013-01-25 17:50:00,9.1,-12.9,29.26,WNW,292,0.0,0.0,35,0.00,,---,0.00,VWS V14.01,2013-01-25 22:50:00,
2013-01-25 17:51:00,9.1,-12.9,29.26,WNW,292,0.0,0.0,35,0.00,,---,0.00,VWS V14.01,2013-01-25 22:51:00,
2013-01-25 17:52:00,9.0,-13.1,29.26,WNW,292,0.0,0.0,35,0.00,,---,0.00,VWS V14.01,2013-01-25 22:52:00,
2013-01-25 17:53:00,9.0,-13.1,29.26,WNW,292,0.0,0.0,35,0.00,,---,0.00,VWS V14.01,2013-01-25 22:53:00,
2013-01-25 17:54:00,9.0,-13.1,29.26,WNW,292,0.0,0.0,35,0.00,,---,0.00,VWS V14.01,2013-01-25 22:54:00,
2013-01-25 17:55:00,9.0,-13.1,29.26,WNW,292,0.0,0.0,35,0.00,,---,0.00,VWS V14.01,2013-01-25 22:55:00,
2013-01-25 17:56:00,9.0,-13.1,29.26,WNW,292,0.0,0.0,35,0.00,,---,0.00,VWS V14.01,2013-01-25 22:56:00,
2013-01-25 17:57:00,9.0,-13.1,29.26,WNW,292,0.0,0.0,35,0.00,,---,0.00,VWS V14.01,2013-01-25 22:57:00,
2013-01-25 17:58:00,9.0,-13.1,29.26,WNW,292,0.0,0.0,35,0.00,,---,0.00,VWS V14.01,2013-01-25 22:58:00,
2013-01-25 17:59:00,8.8,-13.3,29.26,WNW,292,0.0,0.0,35,0.00,,---,0.00,VWS V14.01,2013-01-25 22:59:00,
2013-01-25 18:00:00,8.8,-13.3,29.26,WNW,292,0.0,0.0,35,0.00,,---,0.00,VWS V14.01,2013-01-25 23:00:00,
2013-01-25 18:01:00,8.8,-13.3,29.26,WNW,292,0.0,0.0,35,0.00,,---,0.00,VWS V14.01,2013-01-25 23:01:00,
2013-01-25 18:02:00,8.8,-13.3,29.26,WNW,292,0.0,0.0,35,0.00,,---,0.00,VWS V14.01,2013-01-25 23:02:00,
2013-01-25 18:03:00,8.8,-13.3,29.26,WNW,292,0.0,0.0,35,0.00,,---,0.00,VWS V14.01,2013-01-25 23:03:00,
2013-01-25 18:04:00,8.8,-13.3,29.26,WNW,292,0.0,0.0,35,0.00,,---,0.00,VWS V14.01,2013-01-25 23:04:00,
2013-01-25 18:05:00,8.8,-13.3,29.26,WNW,292,0.0,0.0,35,0.00,,---,0.00,VWS V14.01,2013-01-25 23:05:00,
2013-01-25 18:06:00,8.8,-13.3,29.26,WNW,292,0.0,0.0,35,0.00,,---,0.00,VWS V14.01,2013-01-25 23:06:00,
2013-01-25 18:07:00,8.8,-13.3,29.26,WNW,292,0.0,0.0,35,0.00,,---,0.00,VWS V14.01,2013-01-25 23:07:00,
2013-01-25 18:08:00,8.8,-13.3,29.26,WNW,292,0.0,0.0,35,0.00,,---,0.00,VWS V14.01,2013-01-25 23:08:00,
2013-01-25 18:09:00,8.8,-13.3,29.26,WNW,292,0.0,0.0,35,0.00,,---,0.00,VWS V14.01,2013-01-25 23:09:00,
2013-01-25 18:10:00,8.8,-13.3,29.26,WNW,292,0.0,0.0,35,0.00,,---,0.00,VWS V14.01,2013-01-25 23:10:00,
2013-01-25 18:11:00,8.8,-13.3,29.26,WNW,292,0.0,0.0,35,0.00,,---,0.00,VWS V14.01,2013-01-25 23:11:00,
2013-01-25 18:12:00,8.8,-13.3,29.26,WNW,292,0.0,0.0,35,0.00,,---,0.00,VWS V14.01,2013-01-25 23:12:00,
2013-01-25 18:13:00,8.8,-13.3,29.26,WNW,292,0.0,0.0,35,0.00,,---,0.00,VWS V14.01,2013-01-25 23:13:00,
2013-01-25 18:14:00,8.8,-13.3,29.26,WNW,292,0.0,0.0,35,0.00,,---,0.00,VWS V14.01,2013-01-25 23:14:00,
2013-01-25 18:15:00,8.6,-13.4,29.26,WNW,292,0.0,0.0,35,0.00,,---,0.00,VWS V14.01,2013-01-25 23:15:00,
2013-01-25 18:16:00,8.6,-13.4,29.26,WNW,292,0.0,0.0,35,0.00,,---,0.00,VWS V14.01,2013-01-25 23:16:00,
2013-01-25 18:17:00,8.8,-13.3,29.26,WNW,292,0.0,0.0,35,0.00,,---,0.00,VWS V14.01,2013-01-25 23:17:00,
2013-01-25 18:18:00,8.8,-13.3,29.26,WNW,292,0.0,0.0,35,0.00,,---,0.00,VWS V14.01,2013-01-25 23:18:00,
2013-01-25 18:19:00,8.8,-13.3,29.26,WNW,292,0.0,0.0,35,0.00,,---,0.00,VWS V14.01,2013-01-25 23:19:00,
2013-01-25 18:20:00,8.8,-13.3,29.26,WNW,292,0.0,0.0,35,0.00,,---,0.00,VWS V14.01,2013-01-25 23:20:00,
2013-01-25 18:21:00,8.8,-13.3,29.26,WNW,292,0.0,0.0,35,0.00,,---,0.00,VWS V14.01,2013-01-25 23:21:00,
2013-01-25 18:22:00,8.8,-13.3,29.26,WNW,292,0.0,0.0,35,0.00,,---,0.00,VWS V14.01,2013-01-25 23:22:00,
2013-01-25 18:23:00,8.8,-13.3,29.26,WNW,292,0.0,0.0,35,0.00,,---,0.00,VWS V14.01,2013-01-25 23:23:00,
2013-01-25 18:24:00,8.8,-13.3,29.26,WNW,292,0.0,0.0,35,0.00,,---,0.00,VWS V14.01,2013-01-25 23:24:00,
2013-01-25 18:25:00,8.8,-13.3,29.26,WNW,292,0.0,0.0,35,0.00,,---,0.00,VWS V14.01,2013-01-25 23:25:00,
2013-01-25 18:26:00,8.8,-13.3,29.26,WNW,292,0.0,0.0,35,0.00,,---,0.00,VWS V14.01,2013-01-25 23:26:00,
2013-01-25 18:27:00,8.8,-13.3,29.26,WNW,292,0.0,0.0,35,0.00,,---,0.00,VWS V14.01,2013-01-25 23:27:00,
2013-01-25 18:28:00,8.8,-13.3,29.26,WNW,292,0.0,0.0,35,0.00,,---,0.00,VWS V14.01,2013-01-25 23:28:00,
2013-01-25 18:29:00,8.8,-13.3,29.26,WNW,292,0.0,0.0,35,0.00,,---,0.00,VWS V14.01,2013-01-25 23:29:00,
2013-01-25 18:30:00,8.8,-13.3,29.26,WNW,292,0.0,0.0,35,0.00,,---,0.00,VWS V14.01,2013-01-25 23:30:00,
2013-01-25 18:31:00,8.8,-13.3,29.26,WNW,292,0.0,0.0,35,0.00,,---,0.00,VWS V14.01,2013-01-25 23:31:00,
2013-01-25 18:32:00,8.8,-13.3,29.26,WNW,292,0.0,0.0,35,0.00,,---,0.00,VWS V14.01,2013-01-25 23:32:00,
2013-01-25 18:33:00,8.8,-13.3,29.26,WNW,292,0.0,0.0,35,0.00,,---,0.00,VWS V14.01,2013-01-25 23:33:00,
2013-01-25 18:34:00,8.8,-13.3,29.26,WNW,292,0.0,0.0,35,0.00,,---,0.00,VWS V14.01,2013-01-25 23:34:00,
2013-01-25 18:35:00,8.8,-13.3,29.26,WNW,292,0.0,0.0,35,0.00,,---,0.00,VWS V14.01,2013-01-25 23:35:00,
2013-01-25 18:36:00,8.6,-13.4,29.26,WNW,292,0.0,0.0,35,0.00,,---,0.00,VWS V14.01,2013-01-25 23:36:00,
2013-01-25 18:37:00,8.8,-13.3,29.26,WNW,292,0.0,0.0,35,0.00,,---,0.00,VWS V14.01,2013-01-25 23:37:00,
2013-01-25 18:38:00,8.8,-13.3,29.26,WNW,292,0.0,0.0,35,0.00,,---,0.00,VWS V14.01,2013-01-25 23:38:00,
2013-01-25 18:39:00,8.8,-13.3,29.26,WNW,292,0.0,0.0,35,0.00,,---,0.00,VWS V14.01,2013-01-25 23:39:00,
2013-01-25 18:40:00,8.8,-13.3,29.26,WNW,292,0.0,0.0,35,0.00,,---,0.00,VWS V14.01,2013-01-25 23:40:00,
2013-01-25 18:41:00,8.8,-13.3,29.26,WNW,292,0.0,0.0,35,0.00,,---,0.00,VWS V14.01,2013-01-25 23:41:00,
2013-01-25 18:42:00,8.8,-13.3,29.26,WNW,292,0.0,0.0,35,0.00,,---,0.00,VWS V14.01,2013-01-25 23:42:00,
2013-01-25 18:43:00,8.8,-13.3,29.26,WNW,292,0.0,0.0,35,0.00,,---,0.00,VWS V14.01,2013-01-25 23:43:00,
2013-01-25 18:44:00,8.8,-13.3,29.26,WNW,292,0.0,0.0,35,0.00,,---,0.00,VWS V14.01,2013-01-25 23:44:00,
2013-01-25 18:45:00,8.8,-13.3,29.26,WNW,292,0.0,0.0,35,0.00,,---,0.00,VWS V14.01,2013-01-25 23:45:00,
2013-01-25 18:46:00,8.8,-13.3,29.26,WNW,292,0.0,0.0,35,0.00,,---,0.00,VWS V14.01,2013-01-25 23:46:00,
2013-01-25 18:47:00,8.8,-13.3,29.26,WNW,292,0.0,0.0,35,0.00,,---,0.00,VWS V14.01,2013-01-25 23:47:00,
2013-01-25 18:48:00,8.8,-13.3,29.26,WNW,292,0.0,0.0,35,0.00,,---,0.00,VWS V14.01,2013-01-25 23:48:00,
2013-01-25 18:49:00,8.8,-13.3,29.26,WNW,292,0.0,0.0,35,0.00,,---,0.00,VWS V14.01,2013-01-25 23:49:00,
2013-01-25 18:50:00,8.8,-13.3,29.26,WNW,292,0.0,0.0,35,0.00,,---,0.00,VWS V14.01,2013-01-25 23:50:00,
2013-01-25 18:51:00,8.8,-13.3,29.26,WNW,292,0.0,0.0,35,0.00,,---,0.00,VWS V14.01,2013-01-25 23:51:00,
2013-01-25 18:52:00,8.8,-13.3,29.26,WNW,292,0.0,0.0,35,0.00,,---,0.00,VWS V14.01,2013-01-25 23:52:00,
2013-01-25 18:53:00,8.8,-13.3,29.26,WNW,292,0.0,0.0,35,0.00,,---,0.00,VWS V14.01,2013-01-25 23:53:00,
2013-01-25 18:54:00,8.8,-13.3,29.26,WNW,292,0.0,0.0,35,0.00,,---,0.00,VWS V14.01,2013-01-25 23:54:00,
2013-01-25 18:55:00,8.8,-13.3,29.26,WNW,292,0.0,0.0,35,0.00,,---,0.00,VWS V14.01,2013-01-25 23:55:00,
2013-01-25 18:56:00,8.8,-13.3,29.26,WNW,292,0.0,0.0,35,0.00,,---,0.00,VWS V14.01,2013-01-25 23:56:00,
2013-01-25 18:57:00,8.8,-13.3,29.26,WNW,292,0.0,0.0,35,0.00,,---,0.00,VWS V14.01,2013-01-25 23:57:00,
2013-01-25 18:58:00,8.6,-13.4,29.26,WNW,292,0.0,0.0,35,0.00,,---,0.00,VWS V14.01,2013-01-25 23:58:00,
2013-01-25 18:59:00,8.6,-13.4,29.26,WNW,292,0.0,0.0,35,0.00,,---,0.00,VWS V14.01,2013-01-25 23:59:00,
2013-01-25 19:00:00,8.6,-13.4,29.26,WNW,292,0.0,0.0,35,0.00,,---,0.00,VWS V14.01,2013-01-26 00:00:00,
2013-01-25 19:01:00,8.6,-13.4,29.26,WNW,292,0.0,0.0,35,0.00,,---,0.00,VWS V14.01,2013-01-26 00:01:00,
2013-01-25 19:02:00,8.6,-13.4,29.26,WNW,292,0.0,0.0,35,0.00,,---,0.00,VWS V14.01,2013-01-26 00:02:00,
2013-01-25 19:03:00,8.6,-13.4,29.26,WNW,292,0.0,0.0,35,0.00,,---,0.00,VWS V14.01,2013-01-26 00:03:00,
2013-01-25 19:04:00,8.4,-13.6,29.26,WNW,292,0.0,0.0,35,0.00,,---,0.00,VWS V14.01,2013-01-26 00:04:00,
2013-01-25 19:05:00,8.4,-13.6,29.26,WNW,292,0.0,0.0,35,0.00,,---,0.00,VWS V14.01,2013-01-26 00:05:00,
2013-01-25 19:06:00,8.4,-13.6,29.26,WNW,292,0.0,0.0,35,0.00,,---,0.00,VWS V14.01,2013-01-26 00:06:00,
2013-01-25 19:07:00,8.4,-13.6,29.23,WNW,292,0.0,0.0,35,0.00,,---,0.00,VWS V14.01,2013-01-26 00:07:00,
2013-01-25 19:08:00,8.4,-13.6,29.23,WNW,292,0.0,0.0,35,0.00,,---,0.00,VWS V14.01,2013-01-26 00:08:00,
2013-01-25 19:09:00,8.4,-13.6,29.23,WNW,292,0.0,0.0,35,0.00,,---,0.00,VWS V14.01,2013-01-26 00:09:00,
2013-01-25 19:10:00,8.4,-13.6,29.23,WNW,292,0.0,0.0,35,0.00,,---,0.00,VWS V14.01,2013-01-26 00:10:00,
2013-01-25 19:11:00,8.4,-13.6,29.23,WNW,292,0.0,0.0,35,0.00,,---,0.00,VWS V14.01,2013-01-26 00:11:00,
2013-01-25 19:12:00,8.2,-13.8,29.23,WNW,292,0.0,0.0,35,0.00,,---,0.00,VWS V14.01,2013-01-26 00:12:00,
2013-01-25 19:13:00,8.2,-13.8,29.23,WNW,292,0.0,0.0,35,0.00,,---,0.00,VWS V14.01,2013-01-26 00:13:00,
2013-01-25 19:14:00,8.2,-13.8,29.23,WNW,292,0.0,0.0,35,0.00,,---,0.00,VWS V14.01,2013-01-26 00:14:00,
2013-01-25 19:15:00,8.2,-13.8,29.23,WNW,292,0.0,0.0,35,0.00,,---,0.00,VWS V14.01,2013-01-26 00:15:00,
2013-01-25 19:16:00,8.2,-13.8,29.23,WNW,292,0.0,0.0,35,0.00,,---,0.00,VWS V14.01,2013-01-26 00:16:00,
2013-01-25 19:17:00,8.1,-13.9,29.23,WNW,292,0.0,0.0,35,0.00,,---,0.00,VWS V14.01,2013-01-26 00:17:00,
2013-01-25 19:18:00,8.1,-13.9,29.23,WNW,292,0.0,0.0,35,0.00,,---,0.00,VWS V14.01,2013-01-26 00:18:00,
2013-01-25 19:19:00,8.1,-13.9,29.23,WNW,292,0.0,0.0,35,0.00,,---,0.00,VWS V14.01,2013-01-26 00:19:00,
2013-01-25 19:20:00,8.1,-13.9,29.23,WNW,292,0.0,0.0,35,0.00,,---,0.00,VWS V14.01,2013-01-26 00:20:00,
2013-01-25 19:21:00,8.1,-13.9,29.23,WNW,292,0.0,0.0,35,0.00,,---,0.00,VWS V14.01,2013-01-26 00:21:00,
2013-01-25 19:22:00,7.9,-14.1,29.23,WNW,292,0.0,0.0,35,0.00,,---,0.00,VWS V14.01,2013-01-26 00:22:00,
2013-01-25 19:23:00,7.9,-14.1,29.23,WNW,292,0.0,0.0,35,0.00,,---,0.00,VWS V14.01,2013-01-26 00:23:00,
2013-01-25 19:24:00,7.9,-14.1,29.23,WNW,292,0.0,0.0,35,0.00,,---,0.00,VWS V14.01,2013-01-26 00:24:00,
2013-01-25 19:25:00,7.9,-14.1,29.23,WNW,292,0.0,0.0,35,0.00,,---,0.00,VWS V14.01,2013-01-26 00:25:00,
2013-01-25 19:26:00,7.9,-14.1,29.23,WNW,292,0.0,0.0,35,0.00,,---,0.00,VWS V14.01,2013-01-26 00:26:00,
2013-01-25 19:27:00,7.9,-14.1,29.23,WNW,292,0.0,0.0,35,0.00,,---,0.00,VWS V14.01,2013-01-26 00:27:00,
2013-01-25 19:28:00,7.9,-14.1,29.23,WNW,292,0.0,0.0,35,0.00,,---,0.00,VWS V14.01,2013-01-26 00:28:00,
2013-01-25 19:29:00,7.9,-14.1,29.23,WNW,292,0.0,0.0,35,0.00,,---,0.00,VWS V14.01,2013-01-26 00:29:00,
2013-01-25 19:30:00,7.9,-14.1,29.23,WNW,292,0.0,0.0,35,0.00,,---,0.00,VWS V14.01,2013-01-26 00:30:00,
2013-01-25 19:31:00,7.9,-14.1,29.23,WNW,292,0.0,0.0,35,0.00,,---,0.00,VWS V14.01,2013-01-26 00:31:00,
2013-01-25 19:32:00,7.9,-14.1,29.23,WNW,292,0.0,0.0,35,0.00,,---,0.00,VWS V14.01,2013-01-26 00:32:00,
2013-01-25 19:33:00,7.9,-14.1,29.23,WNW,292,0.0,0.0,35,0.00,,---,0.00,VWS V14.01,2013-01-26 00:33:00,
2013-01-25 19:34:00,7.9,-14.1,29.23,WNW,292,0.0,0.0,35,0.00,,---,0.00,VWS V14.01,2013-01-26 00:34:00,
2013-01-25 19:35:00,7.9,-14.1,29.23,WNW,292,0.0,0.0,35,0.00,,---,0.00,VWS V14.01,2013-01-26 00:35:00,
2013-01-25 19:36:00,7.9,-14.1,29.23,WNW,292,0.0,0.0,35,0.00,,---,0.00,VWS V14.01,2013-01-26 00:36:00,
2013-01-25 19:37:00,7.9,-14.1,29.23,WNW,292,0.0,0.0,35,0.00,,---,0.00,VWS V14.01,2013-01-26 00:37:00,
2013-01-25 19:38:00,7.9,-14.1,29.23,WNW,292,0.0,0.0,35,0.00,,---,0.00,VWS V14.01,2013-01-26 00:38:00,
2013-01-25 19:39:00,7.9,-14.1,29.23,WNW,292,0.0,0.0,35,0.00,,---,0.00,VWS V14.01,2013-01-26 00:39:00,
2013-01-25 19:40:00,7.9,-14.1,29.23,WNW,292,0.0,0.0,35,0.00,,---,0.00,VWS V14.01,2013-01-26 00:40:00,
2013-01-25 19:41:00,7.9,-14.1,29.23,WNW,292,0.0,0.0,35,0.00,,---,0.00,VWS V14.01,2013-01-26 00:41:00,
2013-01-25 19:42:00,7.9,-14.1,29.23,WNW,292,0.0,0.0,35,0.00,,---,0.00,VWS V14.01,2013-01-26 00:42:00,
2013-01-25 19:43:00,7.7,-14.2,29.23,WNW,292,0.0,0.0,35,0.00,,---,0.00,VWS V14.01,2013-01-26 00:43:00,
2013-01-25 19:44:00,7.7,-14.2,29.23,WNW,292,0.0,0.0,35,0.00,,---,0.00,VWS V14.01,2013-01-26 00:44:00,
2013-01-25 19:45:00,7.7,-14.2,29.23,WNW,292,0.0,0.0,35,0.00,,---,0.00,VWS V14.01,2013-01-26 00:45:00,
2013-01-25 19:46:00,7.7,-14.2,29.23,WNW,292,0.0,0.0,35,0.00,,---,0.00,VWS V14.01,2013-01-26 00:46:00,
2013-01-25 19:47:00,7.7,-14.2,29.23,WNW,292,0.0,0.0,35,0.00,,---,0.00,VWS V14.01,2013-01-26 00:47:00,
2013-01-25 19:48:00,7.7,-14.2,29.23,WNW,292,0.0,0.0,35,0.00,,---,0.00,VWS V14.01,2013-01-26 00:48:00,
2013-01-25 19:49:00,7.7,-14.2,29.23,WNW,292,0.0,0.0,35,0.00,,---,0.00,VWS V14.01,2013-01-26 00:49:00,
2013-01-25 19:50:00,7.7,-14.2,29.23,WNW,292,0.0,0.0,35,0.00,,---,0.00,VWS V14.01,2013-01-26 00:50:00,
2013-01-25 19:51:00,7.7,-14.2,29.23,WNW,292,0.0,0.0,35,0.00,,---,0.00,VWS V14.01,2013-01-26 00:51:00,
2013-01-25 19:52:00,7.7,-14.2,29.23,WNW,292,0.0,0.0,35,0.00,,---,0.00,VWS V14.01,2013-01-26 00:52:00,
2013-01-25 19:53:00,7.7,-14.2,29.23,WNW,292,0.0,0.0,35,0.00,,---,0.00,VWS V14.01,2013-01-26 00:53:00,
2013-01-25 19:54:00,7.7,-14.2,29.23,WNW,292,0.0,0.0,35,0.00,,---,0.00,VWS V14.01,2013-01-26 00:54:00,
2013-01-25 19:55:00,7.7,-14.2,29.23,WNW,292,0.0,0.0,35,0.00,,---,0.00,VWS V14.01,2013-01-26 00:55:00,
2013-01-25 19:56:00,7.7,-14.2,29.23,WNW,292,0.0,0.0,35,0.00,,---,0.00,VWS V14.01,2013-01-26 00:56:00,
2013-01-25 19:57:00,7.5,-14.4,29.23,WNW,292,0.0,0.0,35,0.00,,---,0.00,VWS V14.01,2013-01-26 00:57:00,
2013-01-25 19:58:00,7.5,-14.4,29.23,WNW,292,0.0,0.0,35,0.00,,---,0.00,VWS V14.01,2013-01-26 00:58:00,
2013-01-25 19:59:00,7.5,-14.4,29.23,WNW,292,0.0,0.0,35,0.00,,---,0.00,VWS V14.01,2013-01-26 00:59:00,
2013-01-25 20:00:00,7.5,-14.4,29.23,WNW,292,0.0,0.0,35,0.00,,---,0.00,VWS V14.01,2013-01-26 01:00:00,
2013-01-25 20:01:00,7.5,-14.4,29.23,WNW,292,0.0,0.0,35,0.00,,---,0.00,VWS V14.01,2013-01-26 01:01:00,
2013-01-25 20:02:00,7.5,-14.4,29.23,WNW,292,0.0,0.0,35,0.00,,---,0.00,VWS V14.01,2013-01-26 01:02:00,
2013-01-25 20:03:00,7.5,-14.4,29.23,WNW,292,0.0,0.0,35,0.00,,---,0.00,VWS V14.01,2013-01-26 01:03:00,
2013-01-25 20:04:00,7.5,-14.4,29.23,WNW,292,0.0,0.0,35,0.00,,---,0.00,VWS V14.01,2013-01-26 01:04:00,
2013-01-25 20:05:00,7.5,-14.4,29.23,WNW,292,0.0,0.0,35,0.00,,---,0.00,VWS V14.01,2013-01-26 01:05:00,
2013-01-25 20:06:00,7.5,-14.4,29.23,WNW,292,0.0,0.0,35,0.00,,---,0.00,VWS V14.01,2013-01-26 01:06:00,
2013-01-25 20:07:00,7.5,-14.4,29.23,WNW,292,0.0,0.0,35,0.00,,---,0.00,VWS V14.01,2013-01-26 01:07:00,
2013-01-25 20:08:00,7.3,-14.6,29.23,WNW,292,0.0,0.0,35,0.00,,---,0.00,VWS V14.01,2013-01-26 01:08:00,
2013-01-25 20:09:00,7.3,-14.6,29.23,WNW,292,0.0,0.0,35,0.00,,---,0.00,VWS V14.01,2013-01-26 01:09:00,
2013-01-25 20:10:00,7.2,-14.7,29.23,WNW,292,0.0,0.0,35,0.00,,---,0.00,VWS V14.01,2013-01-26 01:10:00,
2013-01-25 20:11:00,7.2,-14.7,29.23,WNW,292,0.0,0.0,35,0.00,,---,0.00,VWS V14.01,2013-01-26 01:11:00,
2013-01-25 20:12:00,7.2,-14.7,29.23,WNW,292,0.0,0.0,35,0.00,,---,0.00,VWS V14.01,2013-01-26 01:12:00,
2013-01-25 20:13:00,7.2,-14.7,29.23,WNW,292,0.0,0.0,35,0.00,,---,0.00,VWS V14.01,2013-01-26 01:13:00,
2013-01-25 20:14:00,7.2,-14.7,29.23,WNW,292,0.0,0.0,35,0.00,,---,0.00,VWS V14.01,2013-01-26 01:14:00,
2013-01-25 20:15:00,7.2,-14.7,29.23,WNW,292,0.0,0.0,35,0.00,,---,0.00,VWS V14.01,2013-01-26 01:15:00,
2013-01-25 20:16:00,7.2,-14.7,29.23,WNW,292,0.0,0.0,35,0.00,,---,0.00,VWS V14.01,2013-01-26 01:16:00,
2013-01-25 20:17:00,7.2,-14.7,29.23,WNW,292,0.0,0.0,35,0.00,,---,0.00,VWS V14.01,2013-01-26 01:17:00,
2013-01-25 20:18:00,7.2,-14.7,29.23,WNW,292,0.0,0.0,35,0.00,,---,0.00,VWS V14.01,2013-01-26 01:18:00,
2013-01-25 20:19:00,7.2,-14.7,29.23,WNW,292,0.0,0.0,35,0.00,,---,0.00,VWS V14.01,2013-01-26 01:19:00,
2013-01-25 20:20:00,7.2,-14.7,29.23,WNW,292,0.0,0.0,35,0.00,,---,0.00,VWS V14.01,2013-01-26 01:20:00,
2013-01-25 20:21:00,7.2,-14.7,29.23,WNW,292,0.0,0.0,35,0.00,,---,0.00,VWS V14.01,2013-01-26 01:21:00,
2013-01-25 20:22:00,7.2,-14.7,29.23,WNW,292,0.0,0.0,35,0.00,,---,0.00,VWS V14.01,2013-01-26 01:22:00,
2013-01-25 20:23:00,7.2,-14.7,29.23,WNW,292,0.0,0.0,35,0.00,,---,0.00,VWS V14.01,2013-01-26 01:23:00,
2013-01-25 20:24:00,7.2,-14.7,29.23,WNW,292,0.0,0.0,35,0.00,,---,0.00,VWS V14.01,2013-01-26 01:24:00,
2013-01-25 20:25:00,7.2,-14.7,29.23,WNW,292,0.0,0.0,35,0.00,,---,0.00,VWS V14.01,2013-01-26 01:25:00,
2013-01-25 20:26:00,7.2,-14.7,29.23,WNW,292,0.0,0.0,35,0.00,,---,0.00,VWS V14.01,2013-01-26 01:26:00,
2013-01-25 20:27:00,7.2,-14.7,29.23,WNW,292,0.0,0.0,35,0.00,,---,0.00,VWS V14.01,2013-01-26 01:27:00,
2013-01-25 20:28:00,7.2,-14.7,29.23,WNW,292,0.0,0.0,35,0.00,,---,0.00,VWS V14.01,2013-01-26 01:28:00,
2013-01-25 20:29:00,7.0,-14.9,29.23,WNW,292,0.0,0.0,35,0.00,,---,0.00,VWS V14.01,2013-01-26 01:29:00,
2013-01-25 20:30:00,7.0,-14.9,29.23,WNW,292,0.0,0.0,35,0.00,,---,0.00,VWS V14.01,2013-01-26 01:30:00,
2013-01-25 20:31:00,7.0,-14.9,29.23,WNW,292,0.0,0.0,35,0.00,,---,0.00,VWS V14.01,2013-01-26 01:31:00,
2013-01-25 20:32:00,7.0,-14.9,29.23,WNW,292,0.0,0.0,35,0.00,,---,0.00,VWS V14.01,2013-01-26 01:32:00,
2013-01-25 20:33:00,7.0,-14.9,29.23,WNW,292,0.0,0.0,35,0.00,,---,0.00,VWS V14.01,2013-01-26 01:33:00,
2013-01-25 20:34:00,7.0,-14.9,29.23,WNW,292,0.0,0.0,35,0.00,,---,0.00,VWS V14.01,2013-01-26 01:34:00,
2013-01-25 20:35:00,7.0,-14.9,29.23,WNW,292,0.0,0.0,35,0.00,,---,0.00,VWS V14.01,2013-01-26 01:35:00,
2013-01-25 20:36:00,7.0,-14.9,29.23,WNW,292,0.0,0.0,35,0.00,,---,0.00,VWS V14.01,2013-01-26 01:36:00,
2013-01-25 20:37:00,7.0,-14.9,29.23,WNW,292,0.0,0.0,35,0.00,,---,0.00,VWS V14.01,2013-01-26 01:37:00,
2013-01-25 20:38:00,7.0,-14.9,29.23,WNW,292,0.0,0.0,35,0.00,,---,0.00,VWS V14.01,2013-01-26 01:38:00,
2013-01-25 20:39:00,7.0,-14.9,29.23,WNW,292,0.0,0.0,35,0.00,,---,0.00,VWS V14.01,2013-01-26 01:39:00,
2013-01-25 20:40:00,7.2,-14.7,29.23,WNW,292,0.0,0.0,35,0.00,,---,0.00,VWS V14.01,2013-01-26 01:40:00,
2013-01-25 20:41:00,7.2,-14.7,29.23,WNW,292,0.0,0.0,35,0.00,,---,0.00,VWS V14.01,2013-01-26 01:41:00,
2013-01-25 20:42:00,7.2,-14.7,29.23,WNW,292,0.0,0.0,35,0.00,,---,0.00,VWS V14.01,2013-01-26 01:42:00,
2013-01-25 20:43:00,7.2,-14.7,29.23,WNW,292,0.0,0.0,35,0.00,,---,0.00,VWS V14.01,2013-01-26 01:43:00,
2013-01-25 20:44:00,7.2,-14.7,29.23,WNW,292,0.0,0.0,35,0.00,,---,0.00,VWS V14.01,2013-01-26 01:44:00,
2013-01-25 20:45:00,7.2,-14.7,29.23,WNW,292,0.0,0.0,35,0.00,,---,0.00,VWS V14.01,2013-01-26 01:45:00,
2013-01-25 20:46:00,7.2,-14.7,29.23,WNW,292,0.0,0.0,35,0.00,,---,0.00,VWS V14.01,2013-01-26 01:46:00,
2013-01-25 20:47:00,7.2,-14.7,29.23,WNW,292,0.0,0.0,35,0.00,,---,0.00,VWS V14.01,2013-01-26 01:47:00,
2013-01-25 20:48:00,7.2,-14.7,29.23,WNW,292,0.0,0.0,35,0.00,,---,0.00,VWS V14.01,2013-01-26 01:48:00,
2013-01-25 20:49:00,7.2,-14.7,29.23,WNW,292,0.0,0.0,35,0.00,,---,0.00,VWS V14.01,2013-01-26 01:49:00,
2013-01-25 20:50:00,7.2,-14.7,29.23,WNW,292,0.0,0.0,35,0.00,,---,0.00,VWS V14.01,2013-01-26 01:50:00,
2013-01-25 20:51:00,7.2,-14.7,29.23,WNW,292,0.0,0.0,35,0.00,,---,0.00,VWS V14.01,2013-01-26 01:51:00,
2013-01-25 20:52:00,7.0,-14.9,29.23,WNW,292,0.0,0.0,35,0.00,,---,0.00,VWS V14.01,2013-01-26 01:52:00,
2013-01-25 20:53:00,7.0,-14.9,29.20,WNW,292,0.0,0.0,35,0.00,,---,0.00,VWS V14.01,2013-01-26 01:53:00,
2013-01-25 20:54:00,7.0,-14.9,29.20,WNW,292,0.0,0.0,35,0.00,,---,0.00,VWS V14.01,2013-01-26 01:54:00,
2013-01-25 20:55:00,7.0,-14.9,29.20,WNW,292,0.0,0.0,35,0.00,,---,0.00,VWS V14.01,2013-01-26 01:55:00,
2013-01-25 20:56:00,7.0,-14.9,29.20,WNW,292,0.0,0.0,35,0.00,,---,0.00,VWS V14.01,2013-01-26 01:56:00,
2013-01-25 20:57:00,7.0,-14.9,29.20,WNW,292,0.0,0.0,35,0.00,,---,0.00,VWS V14.01,2013-01-26 01:57:00,
2013-01-25 20:58:00,7.0,-14.9,29.20,WNW,292,0.0,0.0,35,0.00,,---,0.00,VWS V14.01,2013-01-26 01:58:00,
2013-01-25 20:59:00,7.0,-14.9,29.20,WNW,292,0.0,0.0,35,0.00,,---,0.00,VWS V14.01,2013-01-26 01:59:00,
2013-01-25 21:00:00,7.0,-14.9,29.20,WNW,292,0.0,0.0,35,0.00,,---,0.00,VWS V14.01,2013-01-26 02:00:00,
2013-01-25 21:01:00,7.0,-14.9,29.20,WNW,292,0.0,0.0,35,0.00,,---,0.00,VWS V14.01,2013-01-26 02:01:00,
2013-01-25 21:02:00,7.2,-14.7,29.20,WNW,292,0.0,0.0,35,0.00,,---,0.00,VWS V14.01,2013-01-26 02:02:00,
2013-01-25 21:03:00,7.2,-14.7,29.20,WNW,292,0.0,0.0,35,0.00,,---,0.00,VWS V14.01,2013-01-26 02:03:00,
2013-01-25 21:04:00,7.2,-14.7,29.20,WNW,292,0.0,0.0,35,0.00,,---,0.00,VWS V14.01,2013-01-26 02:04:00,
2013-01-25 21:05:00,7.2,-14.7,29.20,WNW,292,0.0,0.0,35,0.00,,---,0.00,VWS V14.01,2013-01-26 02:05:00,
2013-01-25 21:06:00,7.2,-14.7,29.20,WNW,292,0.0,0.0,35,0.00,,---,0.00,VWS V14.01,2013-01-26 02:06:00,
2013-01-25 21:07:00,7.2,-14.7,29.20,WNW,292,0.0,0.0,35,0.00,,---,0.00,VWS V14.01,2013-01-26 02:07:00,
2013-01-25 21:08:00,7.2,-14.7,29.20,WNW,292,0.0,0.0,35,0.00,,---,0.00,VWS V14.01,2013-01-26 02:08:00,
2013-01-25 21:09:00,7.2,-14.7,29.20,WNW,292,0.0,0.0,35,0.00,,---,0.00,VWS V14.01,2013-01-26 02:09:00,
2013-01-25 21:10:00,7.2,-14.7,29.20,WNW,292,0.0,0.0,35,0.00,,---,0.00,VWS V14.01,2013-01-26 02:10:00,
2013-01-25 21:11:00,7.2,-14.7,29.20,WNW,292,0.0,0.0,35,0.00,,---,0.00,VWS V14.01,2013-01-26 02:11:00,
2013-01-25 21:12:00,7.2,-14.7,29.20,WNW,292,0.0,0.0,35,0.00,,---,0.00,VWS V14.01,2013-01-26 02:12:00,
2013-01-25 21:13:00,7.2,-14.7,29.20,WNW,292,0.0,0.0,35,0.00,,---,0.00,VWS V14.01,2013-01-26 02:13:00,
2013-01-25 21:14:00,7.2,-14.7,29.20,WNW,292,0.0,0.0,35,0.00,,---,0.00,VWS V14.01,2013-01-26 02:14:00,
2013-01-25 21:15:00,7.2,-14.7,29.20,WNW,292,0.0,0.0,35,0.00,,---,0.00,VWS V14.01,2013-01-26 02:15:00,
2013-01-25 21:16:00,7.2,-14.7,29.20,WNW,292,0.0,0.0,35,0.00,,---,0.00,VWS V14.01,2013-01-26 02:16:00,
2013-01-25 21:17:00,7.2,-14.7,29.20,WNW,292,0.0,0.0,35,0.00,,---,0.00,VWS V14.01,2013-01-26 02:17:00,
2013-01-25 21:18:00,7.2,-14.7,29.20,WNW,292,0.0,0.0,35,0.00,,---,0.00,VWS V14.01,2013-01-26 02:18:00,
2013-01-25 21:19:00,7.2,-14.7,29.20,WNW,292,0.0,0.0,35,0.00,,---,0.00,VWS V14.01,2013-01-26 02:19:00,
2013-01-25 21:20:00,7.2,-14.7,29.20,WNW,292,0.0,0.0,35,0.00,,---,0.00,VWS V14.01,2013-01-26 02:20:00,
2013-01-25 21:21:00,7.2,-14.7,29.20,WNW,292,0.0,0.0,35,0.00,,---,0.00,VWS V14.01,2013-01-26 02:21:00,
2013-01-25 21:22:00,7.2,-14.7,29.20,WNW,292,0.0,0.0,35,0.00,,---,0.00,VWS V14.01,2013-01-26 02:22:00,
2013-01-25 21:23:00,7.2,-14.7,29.20,WNW,292,0.0,0.0,35,0.00,,---,0.00,VWS V14.01,2013-01-26 02:23:00,
2013-01-25 21:24:00,7.2,-14.7,29.20,WNW,292,0.0,0.0,35,0.00,,---,0.00,VWS V14.01,2013-01-26 02:24:00,
2013-01-25 21:25:00,7.2,-14.7,29.20,WNW,292,0.0,0.0,35,0.00,,---,0.00,VWS V14.01,2013-01-26 02:25:00,
2013-01-25 21:26:00,7.2,-14.7,29.20,WNW,292,0.0,0.0,35,0.00,,---,0.00,VWS V14.01,2013-01-26 02:26:00,
2013-01-25 21:27:00,7.2,-14.7,29.20,WNW,292,0.0,0.0,35,0.00,,---,0.00,VWS V14.01,2013-01-26 02:27:00,
2013-01-25 21:28:00,7.2,-14.7,29.20,WNW,292,0.0,0.0,35,0.00,,---,0.00,VWS V14.01,2013-01-26 02:28:00,
2013-01-25 21:29:00,7.2,-14.7,29.20,WNW,292,0.0,0.0,35,0.00,,---,0.00,VWS V14.01,2013-01-26 02:29:00,
2013-01-25 21:30:00,7.2,-14.7,29.20,WNW,292,0.0,0.0,35,0.00,,---,0.00,VWS V14.01,2013-01-26 02:30:00,
2013-01-25 21:31:00,7.2,-14.7,29.20,WNW,292,0.0,0.0,35,0.00,,---,0.00,VWS V14.01,2013-01-26 02:31:00,
2013-01-25 21:32:00,7.2,-14.7,29.20,WNW,292,0.0,0.0,35,0.00,,---,0.00,VWS V14.01,2013-01-26 02:32:00,
2013-01-25 21:33:00,7.2,-14.7,29.20,WNW,292,0.0,0.0,35,0.00,,---,0.00,VWS V14.01,2013-01-26 02:33:00,
2013-01-25 21:34:00,7.2,-14.7,29.20,WNW,292,0.0,0.0,35,0.00,,---,0.00,VWS V14.01,2013-01-26 02:34:00,
2013-01-25 21:35:00,7.2,-14.7,29.20,WNW,292,0.0,0.0,35,0.00,,---,0.00,VWS V14.01,2013-01-26 02:35:00,
2013-01-25 21:36:00,7.2,-14.7,29.20,WNW,292,0.0,0.0,35,0.00,,---,0.00,VWS V14.01,2013-01-26 02:36:00,
2013-01-25 21:37:00,7.2,-14.7,29.20,WNW,292,0.0,0.0,35,0.00,,---,0.00,VWS V14.01,2013-01-26 02:37:00,
2013-01-25 21:38:00,7.2,-14.7,29.20,WNW,292,0.0,0.0,35,0.00,,---,0.00,VWS V14.01,2013-01-26 02:38:00,
2013-01-25 21:39:00,7.2,-14.7,29.20,WNW,292,0.0,0.0,35,0.00,,---,0.00,VWS V14.01,2013-01-26 02:39:00,
2013-01-25 21:40:00,7.0,-14.9,29.20,WNW,292,0.0,0.0,35,0.00,,---,0.00,VWS V14.01,2013-01-26 02:40:00,
2013-01-25 21:41:00,7.0,-14.9,29.20,WNW,292,0.0,0.0,35,0.00,,---,0.00,VWS V14.01,2013-01-26 02:41:00,
2013-01-25 21:42:00,7.2,-14.7,29.20,WNW,292,0.0,0.0,35,0.00,,---,0.00,VWS V14.01,2013-01-26 02:42:00,
2013-01-25 21:43:00,7.2,-14.7,29.20,WNW,292,0.0,0.0,35,0.00,,---,0.00,VWS V14.01,2013-01-26 02:43:00,
2013-01-25 21:44:00,7.2,-14.7,29.20,WNW,292,0.0,0.0,35,0.00,,---,0.00,VWS V14.01,2013-01-26 02:44:00,
2013-01-25 21:45:00,7.2,-14.7,29.20,WNW,292,0.0,0.0,35,0.00,,---,0.00,VWS V14.01,2013-01-26 02:45:00,
2013-01-25 21:46:00,7.2,-14.7,29.20,WNW,292,0.0,0.0,35,0.00,,---,0.00,VWS V14.01,2013-01-26 02:46:00,
2013-01-25 21:47:00,7.2,-14.7,29.20,WNW,292,0.0,0.0,35,0.00,,---,0.00,VWS V14.01,2013-01-26 02:47:00,
2013-01-25 21:48:00,7.2,-14.7,29.20,WNW,292,0.0,0.0,35,0.00,,---,0.00,VWS V14.01,2013-01-26 02:48:00,
2013-01-25 21:49:00,7.2,-14.7,29.20,WNW,292,0.0,0.0,35,0.00,,---,0.00,VWS V14.01,2013-01-26 02:49:00,
2013-01-25 21:50:00,7.2,-14.7,29.20,WNW,292,0.0,0.0,35,0.00,,---,0.00,VWS V14.01,2013-01-26 02:50:00,
2013-01-25 21:51:00,7.2,-14.7,29.20,WNW,292,0.0,0.0,35,0.00,,---,0.00,VWS V14.01,2013-01-26 02:51:00,
2013-01-25 21:52:00,7.2,-14.7,29.20,WNW,292,0.0,0.0,35,0.00,,---,0.00,VWS V14.01,2013-01-26 02:52:00,
2013-01-25 21:53:00,7.2,-14.7,29.20,WNW,292,0.0,0.0,35,0.00,,---,0.00,VWS V14.01,2013-01-26 02:53:00,
2013-01-25 21:54:00,7.2,-14.7,29.20,WNW,292,0.0,0.0,35,0.00,,---,0.00,VWS V14.01,2013-01-26 02:54:00,
2013-01-25 21:55:00,7.2,-14.7,29.20,WNW,292,0.0,0.0,35,0.00,,---,0.00,VWS V14.01,2013-01-26 02:55:00,
2013-01-25 21:56:00,7.2,-14.7,29.20,WNW,292,0.0,0.0,35,0.00,,---,0.00,VWS V14.01,2013-01-26 02:56:00,
2013-01-25 21:57:00,7.2,-14.7,29.20,WNW,292,0.0,0.0,35,0.00,,---,0.00,VWS V14.01,2013-01-26 02:57:00,
2013-01-25 21:58:00,7.2,-14.7,29.20,WNW,292,0.0,0.0,35,0.00,,---,0.00,VWS V14.01,2013-01-26 02:58:00,
2013-01-25 21:59:00,7.2,-14.7,29.20,WNW,292,0.0,0.0,35,0.00,,---,0.00,VWS V14.01,2013-01-26 02:59:00,
2013-01-25 22:00:00,7.2,-14.7,29.20,WNW,292,0.0,0.0,35,0.00,,---,0.00,VWS V14.01,2013-01-26 03:00:00,
2013-01-25 22:01:00,7.2,-14.7,29.20,WNW,292,0.0,0.0,35,0.00,,---,0.00,VWS V14.01,2013-01-26 03:01:00,
2013-01-25 22:02:00,7.2,-14.7,29.20,WNW,292,0.0,0.0,35,0.00,,---,0.00,VWS V14.01,2013-01-26 03:02:00,
2013-01-25 22:03:00,7.2,-14.7,29.20,WNW,292,0.0,0.0,35,0.00,,---,0.00,VWS V14.01,2013-01-26 03:03:00,
2013-01-25 22:04:00,7.2,-14.7,29.20,WNW,292,0.0,0.0,35,0.00,,---,0.00,VWS V14.01,2013-01-26 03:04:00,
2013-01-25 22:05:00,7.2,-14.7,29.20,WNW,292,0.0,0.0,35,0.00,,---,0.00,VWS V14.01,2013-01-26 03:05:00,
2013-01-25 22:06:00,7.2,-14.7,29.20,WNW,292,0.0,0.0,35,0.00,,---,0.00,VWS V14.01,2013-01-26 03:06:00,
2013-01-25 22:07:00,7.2,-14.7,29.20,WNW,292,0.0,0.0,35,0.00,,---,0.00,VWS V14.01,2013-01-26 03:07:00,
2013-01-25 22:08:00,7.2,-14.7,29.20,WNW,292,0.0,0.0,35,0.00,,---,0.00,VWS V14.01,2013-01-26 03:08:00,
2013-01-25 22:09:00,7.2,-14.7,29.20,WNW,292,0.0,0.0,35,0.00,,---,0.00,VWS V14.01,2013-01-26 03:09:00,
2013-01-25 22:10:00,7.2,-14.7,29.20,WNW,292,0.0,0.0,35,0.00,,---,0.00,VWS V14.01,2013-01-26 03:10:00,
2013-01-25 22:11:00,7.2,-14.7,29.20,WNW,292,0.0,0.0,35,0.00,,---,0.00,VWS V14.01,2013-01-26 03:11:00,
2013-01-25 22:12:00,7.2,-14.7,29.20,WNW,292,0.0,0.0,35,0.00,,---,0.00,VWS V14.01,2013-01-26 03:12:00,
2013-01-25 22:13:00,7.2,-14.7,29.20,WNW,292,0.0,0.0,35,0.00,,---,0.00,VWS V14.01,2013-01-26 03:13:00,
2013-01-25 22:14:00,7.2,-14.7,29.20,WNW,292,0.0,0.0,35,0.00,,---,0.00,VWS V14.01,2013-01-26 03:14:00,
2013-01-25 22:15:00,7.2,-14.7,29.20,WNW,292,0.0,0.0,35,0.00,,---,0.00,VWS V14.01,2013-01-26 03:15:00,
2013-01-25 22:16:00,7.2,-14.7,29.20,WNW,292,0.0,0.0,35,0.00,,---,0.00,VWS V14.01,2013-01-26 03:16:00,
2013-01-25 22:17:00,7.2,-14.7,29.20,WNW,292,0.0,0.0,35,0.00,,---,0.00,VWS V14.01,2013-01-26 03:17:00,
2013-01-25 22:18:00,7.2,-14.7,29.20,WNW,292,0.0,0.0,35,0.00,,---,0.00,VWS V14.01,2013-01-26 03:18:00,
2013-01-25 22:19:00,7.2,-14.7,29.20,WNW,292,0.0,0.0,35,0.00,,---,0.00,VWS V14.01,2013-01-26 03:19:00,
2013-01-25 22:20:00,7.2,-14.7,29.20,WNW,292,0.0,0.0,35,0.00,,---,0.00,VWS V14.01,2013-01-26 03:20:00,
2013-01-25 22:21:00,7.2,-14.7,29.20,WNW,292,0.0,0.0,35,0.00,,---,0.00,VWS V14.01,2013-01-26 03:21:00,
2013-01-25 22:22:00,7.2,-14.7,29.20,WNW,292,0.0,0.0,35,0.00,,---,0.00,VWS V14.01,2013-01-26 03:22:00,
2013-01-25 22:23:00,7.2,-14.7,29.20,WNW,292,0.0,0.0,35,0.00,,---,0.00,VWS V14.01,2013-01-26 03:23:00,
2013-01-25 22:24:00,7.2,-14.7,29.20,WNW,292,0.0,0.0,35,0.00,,---,0.00,VWS V14.01,2013-01-26 03:24:00,
2013-01-25 22:25:00,7.2,-14.7,29.20,WNW,292,0.0,0.0,35,0.00,,---,0.00,VWS V14.01,2013-01-26 03:25:00,
2013-01-25 22:26:00,7.2,-14.7,29.20,WNW,292,0.0,0.0,35,0.00,,---,0.00,VWS V14.01,2013-01-26 03:26:00,
2013-01-25 22:27:00,7.2,-14.7,29.20,WNW,292,0.0,0.0,35,0.00,,---,0.00,VWS V14.01,2013-01-26 03:27:00,
2013-01-25 22:28:00,7.2,-14.7,29.20,WNW,292,0.0,0.0,35,0.00,,---,0.00,VWS V14.01,2013-01-26 03:28:00,
2013-01-25 22:29:00,7.2,-14.7,29.20,WNW,292,0.0,0.0,35,0.00,,---,0.00,VWS V14.01,2013-01-26 03:29:00,
2013-01-25 22:30:00,7.2,-14.7,29.20,WNW,292,0.0,0.0,35,0.00,,---,0.00,VWS V14.01,2013-01-26 03:30:00,
2013-01-25 22:31:00,7.2,-14.7,29.20,WNW,292,0.0,0.0,35,0.00,,---,0.00,VWS V14.01,2013-01-26 03:31:00,
2013-01-25 22:32:00,7.2,-14.7,29.20,WNW,292,0.0,0.0,35,0.00,,---,0.00,VWS V14.01,2013-01-26 03:32:00,
2013-01-25 22:33:00,7.2,-14.7,29.20,WNW,292,0.0,0.0,35,0.00,,---,0.00,VWS V14.01,2013-01-26 03:33:00,
2013-01-25 22:34:00,7.2,-14.7,29.20,WNW,292,0.0,0.0,35,0.00,,---,0.00,VWS V14.01,2013-01-26 03:34:00,
2013-01-25 22:35:00,7.2,-14.7,29.20,WNW,292,0.0,0.0,35,0.00,,---,0.00,VWS V14.01,2013-01-26 03:35:00,
2013-01-25 22:36:00,7.2,-14.7,29.20,WNW,292,0.0,0.0,35,0.00,,---,0.00,VWS V14.01,2013-01-26 03:36:00,
2013-01-25 22:37:00,7.2,-14.7,29.20,WNW,292,0.0,0.0,35,0.00,,---,0.00,VWS V14.01,2013-01-26 03:37:00,
2013-01-25 22:38:00,7.2,-14.7,29.20,WNW,292,0.0,0.0,35,0.00,,---,0.00,VWS V14.01,2013-01-26 03:38:00,
2013-01-25 22:39:00,7.2,-14.7,29.20,WNW,292,0.0,0.0,35,0.00,,---,0.00,VWS V14.01,2013-01-26 03:39:00,
2013-01-25 22:40:00,7.2,-14.7,29.20,WNW,292,0.0,0.0,35,0.00,,---,0.00,VWS V14.01,2013-01-26 03:40:00,
2013-01-25 22:41:00,7.2,-14.7,29.20,WNW,292,0.0,0.0,35,0.00,,---,0.00,VWS V14.01,2013-01-26 03:41:00,
2013-01-25 22:42:00,7.2,-14.7,29.20,WNW,292,0.0,0.0,35,0.00,,---,0.00,VWS V14.01,2013-01-26 03:42:00,
2013-01-25 22:43:00,7.2,-14.7,29.20,WNW,292,0.0,0.0,35,0.00,,---,0.00,VWS V14.01,2013-01-26 03:43:00,
2013-01-25 22:44:00,7.2,-14.7,29.20,WNW,292,0.0,0.0,35,0.00,,---,0.00,VWS V14.01,2013-01-26 03:44:00,
2013-01-25 22:45:00,7.2,-14.7,29.20,WNW,292,0.0,0.0,35,0.00,,---,0.00,VWS V14.01,2013-01-26 03:45:00,
2013-01-25 22:46:00,7.2,-14.7,29.20,WNW,292,0.0,0.0,35,0.00,,---,0.00,VWS V14.01,2013-01-26 03:46:00,
2013-01-25 22:47:00,7.2,-14.7,29.20,WNW,292,0.0,0.0,35,0.00,,---,0.00,VWS V14.01,2013-01-26 03:47:00,
2013-01-25 22:48:00,7.2,-14.7,29.20,WNW,292,0.0,0.0,35,0.00,,---,0.00,VWS V14.01,2013-01-26 03:48:00,
2013-01-25 22:49:00,7.2,-14.7,29.20,WNW,292,0.0,0.0,35,0.00,,---,0.00,VWS V14.01,2013-01-26 03:49:00,
2013-01-25 22:50:00,7.2,-14.7,29.20,WNW,292,0.0,0.0,35,0.00,,---,0.00,VWS V14.01,2013-01-26 03:50:00,
2013-01-25 22:51:00,7.2,-14.7,29.20,WNW,292,0.0,0.0,35,0.00,,---,0.00,VWS V14.01,2013-01-26 03:51:00,
2013-01-25 22:52:00,7.2,-14.7,29.20,WNW,292,0.0,0.0,35,0.00,,---,0.00,VWS V14.01,2013-01-26 03:52:00,
2013-01-25 22:53:00,7.2,-14.7,29.20,WNW,292,0.0,0.0,35,0.00,,---,0.00,VWS V14.01,2013-01-26 03:53:00,
2013-01-25 22:54:00,7.2,-14.7,29.20,WNW,292,0.0,0.0,35,0.00,,---,0.00,VWS V14.01,2013-01-26 03:54:00,
2013-01-25 22:55:00,7.2,-14.7,29.20,WNW,292,0.0,0.0,35,0.00,,---,0.00,VWS V14.01,2013-01-26 03:55:00,
2013-01-25 22:56:00,7.2,-14.7,29.20,WNW,292,0.0,0.0,35,0.00,,---,0.00,VWS V14.01,2013-01-26 03:56:00,
2013-01-25 22:57:00,7.2,-14.7,29.20,WNW,292,0.0,0.0,35,0.00,,---,0.00,VWS V14.01,2013-01-26 03:57:00,
2013-01-25 22:58:00,7.2,-14.7,29.20,WNW,292,0.0,0.0,35,0.00,,---,0.00,VWS V14.01,2013-01-26 03:58:00,
2013-01-25 22:59:00,7.2,-14.7,29.20,WNW,292,0.0,0.0,35,0.00,,---,0.00,VWS V14.01,2013-01-26 03:59:00,
2013-01-25 23:00:00,7.2,-14.7,29.20,WNW,292,0.0,0.0,35,0.00,,---,0.00,VWS V14.01,2013-01-26 04:00:00,
2013-01-25 23:01:00,7.2,-14.7,29.20,WNW,292,0.0,0.0,35,0.00,,---,0.00,VWS V14.01,2013-01-26 04:01:00,
2013-01-25 23:02:00,7.2,-14.7,29.20,WNW,292,0.0,0.0,35,0.00,,---,0.00,VWS V14.01,2013-01-26 04:02:00,
2013-01-25 23:03:00,7.2,-14.7,29.20,WNW,292,0.0,0.0,35,0.00,,---,0.00,VWS V14.01,2013-01-26 04:03:00,
2013-01-25 23:04:00,7.2,-14.7,29.20,WNW,292,0.0,0.0,35,0.00,,---,0.00,VWS V14.01,2013-01-26 04:04:00,
2013-01-25 23:05:00,7.2,-14.7,29.20,WNW,292,0.0,0.0,35,0.00,,---,0.00,VWS V14.01,2013-01-26 04:05:00,
2013-01-25 23:06:00,7.2,-14.7,29.20,WNW,292,0.0,0.0,35,0.00,,---,0.00,VWS V14.01,2013-01-26 04:06:00,
2013-01-25 23:07:00,7.2,-14.7,29.20,WNW,292,0.0,0.0,35,0.00,,---,0.00,VWS V14.01,2013-01-26 04:07:00,
2013-01-25 23:08:00,7.2,-14.7,29.20,WNW,292,0.0,0.0,35,0.00,,---,0.00,VWS V14.01,2013-01-26 04:08:00,
2013-01-25 23:09:00,7.2,-14.7,29.20,WNW,292,0.0,0.0,35,0.00,,---,0.00,VWS V14.01,2013-01-26 04:09:00,
2013-01-25 23:10:00,7.2,-14.7,29.20,WNW,292,0.0,0.0,35,0.00,,---,0.00,VWS V14.01,2013-01-26 04:10:00,
2013-01-25 23:11:00,7.2,-14.7,29.20,WNW,292,0.0,0.0,35,0.00,,---,0.00,VWS V14.01,2013-01-26 04:11:00,
2013-01-25 23:12:00,7.2,-14.7,29.20,WNW,292,0.0,0.0,35,0.00,,---,0.00,VWS V14.01,2013-01-26 04:12:00,
2013-01-25 23:13:00,7.2,-14.7,29.20,WNW,292,0.0,0.0,35,0.00,,---,0.00,VWS V14.01,2013-01-26 04:13:00,
2013-01-25 23:14:00,7.2,-14.7,29.20,WNW,292,0.0,0.0,35,0.00,,---,0.00,VWS V14.01,2013-01-26 04:14:00,
2013-01-25 23:15:00,7.2,-14.7,29.20,WNW,292,0.0,0.0,35,0.00,,---,0.00,VWS V14.01,2013-01-26 04:15:00,
2013-01-25 23:16:00,7.2,-14.7,29.20,WNW,292,0.0,0.0,35,0.00,,---,0.00,VWS V14.01,2013-01-26 04:16:00,
2013-01-25 23:17:00,7.2,-14.7,29.20,WNW,292,0.0,0.0,35,0.00,,---,0.00,VWS V14.01,2013-01-26 04:17:00,
2013-01-25 23:18:00,7.2,-14.7,29.20,WNW,292,0.0,0.0,35,0.00,,---,0.00,VWS V14.01,2013-01-26 04:18:00,
2013-01-25 23:19:00,7.2,-14.7,29.20,WNW,292,0.0,0.0,35,0.00,,---,0.00,VWS V14.01,2013-01-26 04:19:00,
2013-01-25 23:20:00,7.2,-14.7,29.20,WNW,292,0.0,0.0,35,0.00,,---,0.00,VWS V14.01,2013-01-26 04:20:00,
2013-01-25 23:21:00,7.2,-14.7,29.20,WNW,292,0.0,0.0,35,0.00,,---,0.00,VWS V14.01,2013-01-26 04:21:00,
2013-01-25 23:22:00,7.2,-14.7,29.20,WNW,292,0.0,0.0,35,0.00,,---,0.00,VWS V14.01,2013-01-26 04:22:00,
2013-01-25 23:23:00,7.2,-14.7,29.17,WNW,292,0.0,0.0,35,0.00,,---,0.00,VWS V14.01,2013-01-26 04:23:00,
2013-01-25 23:24:00,7.2,-14.7,29.17,WNW,292,0.0,0.0,35,0.00,,---,0.00,VWS V14.01,2013-01-26 04:24:00,
2013-01-25 23:25:00,7.2,-14.7,29.17,WNW,292,0.0,0.0,35,0.00,,---,0.00,VWS V14.01,2013-01-26 04:25:00,
2013-01-25 23:26:00,7.2,-14.7,29.17,WNW,292,0.0,0.0,35,0.00,,---,0.00,VWS V14.01,2013-01-26 04:26:00,
2013-01-25 23:27:00,7.2,-14.7,29.17,WNW,292,0.0,0.0,35,0.00,,---,0.00,VWS V14.01,2013-01-26 04:27:00,
2013-01-25 23:28:00,7.2,-14.7,29.17,WNW,292,0.0,0.0,35,0.00,,---,0.00,VWS V14.01,2013-01-26 04:28:00,
2013-01-25 23:29:00,7.2,-14.7,29.17,WNW,292,0.0,0.0,35,0.00,,---,0.00,VWS V14.01,2013-01-26 04:29:00,
2013-01-25 23:30:00,7.2,-14.7,29.17,WNW,292,0.0,0.0,35,0.00,,---,0.00,VWS V14.01,2013-01-26 04:30:00,
2013-01-25 23:31:00,7.2,-14.7,29.17,WNW,292,0.0,0.0,35,0.00,,---,0.00,VWS V14.01,2013-01-26 04:31:00,
2013-01-25 23:32:00,7.2,-14.7,29.17,WNW,292,0.0,0.0,35,0.00,,---,0.00,VWS V14.01,2013-01-26 04:32:00,
2013-01-25 23:33:00,7.2,-14.7,29.17,WNW,292,0.0,0.0,35,0.00,,---,0.00,VWS V14.01,2013-01-26 04:33:00,
2013-01-25 23:34:00,7.2,-14.7,29.17,WNW,292,0.0,0.0,35,0.00,,---,0.00,VWS V14.01,2013-01-26 04:34:00,
2013-01-25 23:35:00,7.2,-14.7,29.17,WNW,292,0.0,0.0,35,0.00,,---,0.00,VWS V14.01,2013-01-26 04:35:00,
2013-01-25 23:36:00,7.2,-14.7,29.17,WNW,292,0.0,0.0,35,0.00,,---,0.00,VWS V14.01,2013-01-26 04:36:00,
2013-01-25 23:37:00,7.2,-14.7,29.17,WNW,292,0.0,0.0,35,0.00,,---,0.00,VWS V14.01,2013-01-26 04:37:00,
2013-01-25 23:38:00,7.2,-14.7,29.17,WNW,292,0.0,0.0,35,0.00,,---,0.00,VWS V14.01,2013-01-26 04:38:00,
2013-01-25 23:39:00,7.2,-14.7,29.17,WNW,292,0.0,0.0,35,0.00,,---,0.00,VWS V14.01,2013-01-26 04:39:00,
2013-01-25 23:40:00,7.2,-14.7,29.17,WNW,292,0.0,0.0,35,0.00,,---,0.00,VWS V14.01,2013-01-26 04:40:00,
2013-01-25 23:41:00,7.2,-14.7,29.17,WNW,292,0.0,0.0,35,0.00,,---,0.00,VWS V14.01,2013-01-26 04:41:00,
2013-01-25 23:42:00,7.2,-14.7,29.17,WNW,292,0.0,0.0,35,0.00,,---,0.00,VWS V14.01,2013-01-26 04:42:00,
2013-01-25 23:43:00,7.2,-14.7,29.17,WNW,292,0.0,0.0,35,0.00,,---,0.00,VWS V14.01,2013-01-26 04:43:00,
2013-01-25 23:44:00,7.2,-14.7,29.17,WNW,292,0.0,0.0,35,0.00,,---,0.00,VWS V14.01,2013-01-26 04:44:00,
2013-01-25 23:45:00,7.2,-14.7,29.17,WNW,292,0.0,0.0,35,0.00,,---,0.00,VWS V14.01,2013-01-26 04:45:00,
2013-01-25 23:46:00,7.2,-14.7,29.17,WNW,292,0.0,0.0,35,0.00,,---,0.00,VWS V14.01,2013-01-26 04:46:00,
2013-01-25 23:47:00,7.2,-14.7,29.17,WNW,292,0.0,0.0,35,0.00,,---,0.00,VWS V14.01,2013-01-26 04:47:00,
2013-01-25 23:48:00,7.2,-14.7,29.17,WNW,292,0.0,0.0,35,0.00,,---,0.00,VWS V14.01,2013-01-26 04:48:00,
2013-01-25 23:49:00,7.2,-14.7,29.17,WNW,292,0.0,0.0,35,0.00,,---,0.00,VWS V14.01,2013-01-26 04:49:00,
2013-01-25 23:50:00,7.2,-14.7,29.17,WNW,292,0.0,0.0,35,0.00,,---,0.00,VWS V14.01,2013-01-26 04:50:00,
2013-01-25 23:51:00,7.2,-14.7,29.17,WNW,292,0.0,0.0,35,0.00,,---,0.00,VWS V14.01,2013-01-26 04:51:00,
2013-01-25 23:52:00,7.2,-14.7,29.17,WNW,292,0.0,0.0,35,0.00,,---,0.00,VWS V14.01,2013-01-26 04:52:00,
2013-01-25 23:53:00,7.2,-14.7,29.17,WNW,292,0.0,0.0,35,0.00,,---,0.00,VWS V14.01,2013-01-26 04:53:00,
2013-01-25 23:54:00,7.2,-14.7,29.17,WNW,292,0.0,0.0,35,0.00,,---,0.00,VWS V14.01,2013-01-26 04:54:00,
2013-01-25 23:55:00,7.2,-14.7,29.17,WNW,292,0.0,0.0,35,0.00,,---,0.00,VWS V14.01,2013-01-26 04:55:00,
2013-01-25 23:56:00,7.2,-14.7,29.17,WNW,292,0.0,0.0,35,0.00,,---,0.00,VWS V14.01,2013-01-26 04:56:00,
2013-01-25 23:57:00,7.2,-14.7,29.17,WNW,292,0.0,0.0,35,0.00,,---,0.00,VWS V14.01,2013-01-26 04:57:00,
2013-01-25 23:58:00,7.2,-14.7,29.17,WNW,292,0.0,0.0,35,0.00,,---,0.00,VWS V14.01,2013-01-26 04:58:00,
2013-01-25 23:59:00,7.2,-14.7,29.17,WNW,292,0.0,0.0,35,0.00,,---,0.00,VWS V14.01,2013-01-26 04:59:00,